
<gpx xmlns="http://www.topografix.com/GPX/1/1" xmlns:xsi="http://www.w3.org/2001/XMLSchema-instance" version="1.1" xsi:schemaLocation="http://www.topografix.com/GPX/1/1 http://www.topografix.com/GPX/1/1/gpx.xsd" creator="MotionXGPSFull 24.2 Build 5063R64">  <trk>
  <name>Hoher Sonnblick (Peter_UL, 01.05.2018)</name>  <desc>1 May 2018  6:00 am</desc>  <trkseg>
  <trkpt lat="47.0421641" lon="12.8903908">  <ele>1712.121</ele>  <time>2018-05-01T04:00:53.078Z</time>  </trkpt>
  <trkpt lat="47.0421641" lon="12.8903908">  <ele>1711.576</ele>  <time>2018-05-01T04:07:55.916Z</time>  </trkpt>
  <trkpt lat="47.0422710" lon="12.8904721">  <ele>1710.605</ele>  <time>2018-05-01T04:08:15.711Z</time>  </trkpt>
  <trkpt lat="47.0422759" lon="12.8904793">  <ele>1709.353</ele>  <time>2018-05-01T04:08:16.431Z</time>  </trkpt>
  <trkpt lat="47.0423258" lon="12.8906027">  <ele>1708.300</ele>  <time>2018-05-01T04:08:25.980Z</time>  </trkpt>
  <trkpt lat="47.0423349" lon="12.8907407">  <ele>1707.841</ele>  <time>2018-05-01T04:08:34.439Z</time>  </trkpt>
  <trkpt lat="47.0423489" lon="12.8908766">  <ele>1707.924</ele>  <time>2018-05-01T04:08:43.351Z</time>  </trkpt>
  <trkpt lat="47.0423957" lon="12.8909911">  <ele>1708.311</ele>  <time>2018-05-01T04:08:53.075Z</time>  </trkpt>
  <trkpt lat="47.0424701" lon="12.8910782">  <ele>1709.139</ele>  <time>2018-05-01T04:09:04.394Z</time>  </trkpt>
  <trkpt lat="47.0425102" lon="12.8911999">  <ele>1710.400</ele>  <time>2018-05-01T04:09:13.037Z</time>  </trkpt>
  <trkpt lat="47.0425072" lon="12.8913400">  <ele>1711.655</ele>  <time>2018-05-01T04:09:21.077Z</time>  </trkpt>
  <trkpt lat="47.0425190" lon="12.8914768">  <ele>1712.948</ele>  <time>2018-05-01T04:09:30.259Z</time>  </trkpt>
  <trkpt lat="47.0425646" lon="12.8915943">  <ele>1714.486</ele>  <time>2018-05-01T04:09:41.032Z</time>  </trkpt>
  <trkpt lat="47.0426602" lon="12.8916243">  <ele>1716.526</ele>  <time>2018-05-01T04:09:51.998Z</time>  </trkpt>
  <trkpt lat="47.0426602" lon="12.8916243">  <ele>1719.084</ele>  <time>2018-05-01T04:09:57.998Z</time>  </trkpt>
  <trkpt lat="47.0426602" lon="12.8916243">  <ele>1720.541</ele>  <time>2018-05-01T04:10:06.768Z</time>  </trkpt>
  <trkpt lat="47.0425309" lon="12.8916765">  <ele>1719.750</ele>  <time>2018-05-01T04:10:37.873Z</time>  </trkpt>
  <trkpt lat="47.0424603" lon="12.8917668">  <ele>1718.430</ele>  <time>2018-05-01T04:10:46.547Z</time>  </trkpt>
  <trkpt lat="47.0423819" lon="12.8918391">  <ele>1718.245</ele>  <time>2018-05-01T04:10:56.377Z</time>  </trkpt>
  <trkpt lat="47.0423248" lon="12.8919567">  <ele>1718.236</ele>  <time>2018-05-01T04:11:09.509Z</time>  </trkpt>
  <trkpt lat="47.0423068" lon="12.8920862">  <ele>1717.245</ele>  <time>2018-05-01T04:11:22.598Z</time>  </trkpt>
  <trkpt lat="47.0423168" lon="12.8922195">  <ele>1715.955</ele>  <time>2018-05-01T04:11:34.654Z</time>  </trkpt>
  <trkpt lat="47.0423871" lon="12.8923148">  <ele>1715.389</ele>  <time>2018-05-01T04:11:47.069Z</time>  </trkpt>
  <trkpt lat="47.0424532" lon="12.8924263">  <ele>1715.529</ele>  <time>2018-05-01T04:12:05.598Z</time>  </trkpt>
  <trkpt lat="47.0425047" lon="12.8925370">  <ele>1715.804</ele>  <time>2018-05-01T04:12:22.416Z</time>  </trkpt>
  <trkpt lat="47.0425434" lon="12.8926590">  <ele>1715.688</ele>  <time>2018-05-01T04:12:37.356Z</time>  </trkpt>
  <trkpt lat="47.0425556" lon="12.8927928">  <ele>1715.223</ele>  <time>2018-05-01T04:12:49.437Z</time>  </trkpt>
  <trkpt lat="47.0426066" lon="12.8929022">  <ele>1714.914</ele>  <time>2018-05-01T04:12:59.883Z</time>  </trkpt>
  <trkpt lat="47.0426846" lon="12.8929781">  <ele>1715.388</ele>  <time>2018-05-01T04:13:10.703Z</time>  </trkpt>
  <trkpt lat="47.0427233" lon="12.8931051">  <ele>1716.901</ele>  <time>2018-05-01T04:13:21.668Z</time>  </trkpt>
  <trkpt lat="47.0428408" lon="12.8937538">  <ele>1720.015</ele>  <time>2018-05-01T04:14:14.881Z</time>  </trkpt>
  <trkpt lat="47.0429778" lon="12.8944129">  <ele>1719.350</ele>  <time>2018-05-01T04:15:12.779Z</time>  </trkpt>
  <trkpt lat="47.0430552" lon="12.8945157">  <ele>1719.024</ele>  <time>2018-05-01T04:15:25.546Z</time>  </trkpt>
  <trkpt lat="47.0426496" lon="12.8948342">  <ele>1719.242</ele>  <time>2018-05-01T04:16:23.243Z</time>  </trkpt>
  <trkpt lat="47.0427198" lon="12.8949489">  <ele>1721.261</ele>  <time>2018-05-01T04:16:39.792Z</time>  </trkpt>
  <trkpt lat="47.0427463" lon="12.8950765">  <ele>1726.483</ele>  <time>2018-05-01T04:16:56.834Z</time>  </trkpt>
  <trkpt lat="47.0428097" lon="12.8951771">  <ele>1731.897</ele>  <time>2018-05-01T04:17:13.998Z</time>  </trkpt>
  <trkpt lat="47.0428097" lon="12.8951771">  <ele>1734.289</ele>  <time>2018-05-01T04:17:20.997Z</time>  </trkpt>
  <trkpt lat="47.0428097" lon="12.8951771">  <ele>1734.196</ele>  <time>2018-05-01T04:17:21.097Z</time>  </trkpt>
  <trkpt lat="47.0428518" lon="12.8953291">  <ele>1732.456</ele>  <time>2018-05-01T04:17:51.406Z</time>  </trkpt>
  <trkpt lat="47.0429102" lon="12.8954449">  <ele>1732.399</ele>  <time>2018-05-01T04:18:04.439Z</time>  </trkpt>
  <trkpt lat="47.0429739" lon="12.8955512">  <ele>1733.039</ele>  <time>2018-05-01T04:18:17.349Z</time>  </trkpt>
  <trkpt lat="47.0431287" lon="12.8961869">  <ele>1732.643</ele>  <time>2018-05-01T04:19:18.907Z</time>  </trkpt>
  <trkpt lat="47.0431975" lon="12.8962729">  <ele>1732.567</ele>  <time>2018-05-01T04:19:31.000Z</time>  </trkpt>
  <trkpt lat="47.0431925" lon="12.8964125">  <ele>1734.531</ele>  <time>2018-05-01T04:19:43.742Z</time>  </trkpt>
  <trkpt lat="47.0432018" lon="12.8965676">  <ele>1737.201</ele>  <time>2018-05-01T04:19:58.189Z</time>  </trkpt>
  <trkpt lat="47.0432780" lon="12.8966514">  <ele>1739.003</ele>  <time>2018-05-01T04:20:14.846Z</time>  </trkpt>
  <trkpt lat="47.0433331" lon="12.8967605">  <ele>1741.898</ele>  <time>2018-05-01T04:20:32.227Z</time>  </trkpt>
  <trkpt lat="47.0434124" lon="12.8968283">  <ele>1747.779</ele>  <time>2018-05-01T04:20:49.281Z</time>  </trkpt>
  <trkpt lat="47.0434666" lon="12.8969591">  <ele>1754.125</ele>  <time>2018-05-01T04:21:11.475Z</time>  </trkpt>
  <trkpt lat="47.0435336" lon="12.8970591">  <ele>1757.661</ele>  <time>2018-05-01T04:21:32.525Z</time>  </trkpt>
  <trkpt lat="47.0435976" lon="12.8971657">  <ele>1758.654</ele>  <time>2018-05-01T04:21:48.455Z</time>  </trkpt>
  <trkpt lat="47.0436757" lon="12.8972480">  <ele>1758.639</ele>  <time>2018-05-01T04:21:59.530Z</time>  </trkpt>
  <trkpt lat="47.0437527" lon="12.8973453">  <ele>1758.728</ele>  <time>2018-05-01T04:22:13.280Z</time>  </trkpt>
  <trkpt lat="47.0438141" lon="12.8974417">  <ele>1759.089</ele>  <time>2018-05-01T04:22:24.471Z</time>  </trkpt>
  <trkpt lat="47.0438890" lon="12.8975392">  <ele>1759.287</ele>  <time>2018-05-01T04:22:36.195Z</time>  </trkpt>
  <trkpt lat="47.0439793" lon="12.8975886">  <ele>1758.976</ele>  <time>2018-05-01T04:22:48.999Z</time>  </trkpt>
  <trkpt lat="47.0439793" lon="12.8975886">  <ele>1758.307</ele>  <time>2018-05-01T04:22:48.999Z</time>  </trkpt>
  <trkpt lat="47.0439793" lon="12.8975886">  <ele>1757.624</ele>  <time>2018-05-01T04:22:51.651Z</time>  </trkpt>
  <trkpt lat="47.0440044" lon="12.8977326">  <ele>1756.562</ele>  <time>2018-05-01T04:23:08.300Z</time>  </trkpt>
  <trkpt lat="47.0442743" lon="12.8983296">  <ele>1756.762</ele>  <time>2018-05-01T04:23:54.765Z</time>  </trkpt>
  <trkpt lat="47.0443114" lon="12.8989968">  <ele>1758.671</ele>  <time>2018-05-01T04:24:33.737Z</time>  </trkpt>
  <trkpt lat="47.0442829" lon="12.8991342">  <ele>1762.155</ele>  <time>2018-05-01T04:24:42.095Z</time>  </trkpt>
  <trkpt lat="47.0442183" lon="12.8997942">  <ele>1769.805</ele>  <time>2018-05-01T04:25:32.851Z</time>  </trkpt>
  <trkpt lat="47.0441814" lon="12.8999257">  <ele>1773.303</ele>  <time>2018-05-01T04:25:43.273Z</time>  </trkpt>
  <trkpt lat="47.0442161" lon="12.9000474">  <ele>1777.048</ele>  <time>2018-05-01T04:25:52.719Z</time>  </trkpt>
  <trkpt lat="47.0441458" lon="12.9001626">  <ele>1779.891</ele>  <time>2018-05-01T04:26:04.996Z</time>  </trkpt>
  <trkpt lat="47.0441458" lon="12.9001626">  <ele>1781.145</ele>  <time>2018-05-01T04:26:06.996Z</time>  </trkpt>
  <trkpt lat="47.0441458" lon="12.9001626">  <ele>1781.053</ele>  <time>2018-05-01T04:26:18.044Z</time>  </trkpt>
  <trkpt lat="47.0441276" lon="12.9002993">  <ele>1780.208</ele>  <time>2018-05-01T04:26:33.166Z</time>  </trkpt>
  <trkpt lat="47.0442119" lon="12.9003656">  <ele>1779.833</ele>  <time>2018-05-01T04:26:40.509Z</time>  </trkpt>
  <trkpt lat="47.0441834" lon="12.9004987">  <ele>1780.641</ele>  <time>2018-05-01T04:26:48.009Z</time>  </trkpt>
  <trkpt lat="47.0441726" lon="12.9006393">  <ele>1781.730</ele>  <time>2018-05-01T04:26:56.432Z</time>  </trkpt>
  <trkpt lat="47.0442102" lon="12.9007596">  <ele>1782.037</ele>  <time>2018-05-01T04:27:05.433Z</time>  </trkpt>
  <trkpt lat="47.0441941" lon="12.9008898">  <ele>1781.538</ele>  <time>2018-05-01T04:27:15.949Z</time>  </trkpt>
  <trkpt lat="47.0442037" lon="12.9010230">  <ele>1780.758</ele>  <time>2018-05-01T04:27:26.859Z</time>  </trkpt>
  <trkpt lat="47.0442137" lon="12.9011642">  <ele>1779.979</ele>  <time>2018-05-01T04:27:36.385Z</time>  </trkpt>
  <trkpt lat="47.0442407" lon="12.9013005">  <ele>1779.196</ele>  <time>2018-05-01T04:27:44.957Z</time>  </trkpt>
  <trkpt lat="47.0442865" lon="12.9014157">  <ele>1778.954</ele>  <time>2018-05-01T04:27:53.196Z</time>  </trkpt>
  <trkpt lat="47.0442929" lon="12.9015476">  <ele>1779.740</ele>  <time>2018-05-01T04:28:01.702Z</time>  </trkpt>
  <trkpt lat="47.0443239" lon="12.9016767">  <ele>1780.929</ele>  <time>2018-05-01T04:28:10.513Z</time>  </trkpt>
  <trkpt lat="47.0443099" lon="12.9018125">  <ele>1781.592</ele>  <time>2018-05-01T04:28:18.891Z</time>  </trkpt>
  <trkpt lat="47.0443804" lon="12.9019030">  <ele>1780.968</ele>  <time>2018-05-01T04:28:26.013Z</time>  </trkpt>
  <trkpt lat="47.0444254" lon="12.9020435">  <ele>1778.920</ele>  <time>2018-05-01T04:28:33.609Z</time>  </trkpt>
  <trkpt lat="47.0444569" lon="12.9021732">  <ele>1776.614</ele>  <time>2018-05-01T04:28:40.888Z</time>  </trkpt>
  <trkpt lat="47.0444379" lon="12.9023161">  <ele>1775.739</ele>  <time>2018-05-01T04:28:49.612Z</time>  </trkpt>
  <trkpt lat="47.0444845" lon="12.9024367">  <ele>1776.604</ele>  <time>2018-05-01T04:28:58.492Z</time>  </trkpt>
  <trkpt lat="47.0445141" lon="12.9025716">  <ele>1777.993</ele>  <time>2018-05-01T04:29:07.983Z</time>  </trkpt>
  <trkpt lat="47.0445653" lon="12.9026888">  <ele>1778.192</ele>  <time>2018-05-01T04:29:17.030Z</time>  </trkpt>
  <trkpt lat="47.0445575" lon="12.9028262">  <ele>1777.759</ele>  <time>2018-05-01T04:29:25.125Z</time>  </trkpt>
  <trkpt lat="47.0445372" lon="12.9029633">  <ele>1779.376</ele>  <time>2018-05-01T04:29:33.535Z</time>  </trkpt>
  <trkpt lat="47.0445306" lon="12.9031043">  <ele>1783.341</ele>  <time>2018-05-01T04:29:42.999Z</time>  </trkpt>
  <trkpt lat="47.0445306" lon="12.9031043">  <ele>1788.080</ele>  <time>2018-05-01T04:29:48.999Z</time>  </trkpt>
  <trkpt lat="47.0445306" lon="12.9031043">  <ele>1790.549</ele>  <time>2018-05-01T04:29:51.838Z</time>  </trkpt>
  <trkpt lat="47.0444205" lon="12.9032406">  <ele>1789.616</ele>  <time>2018-05-01T04:30:17.244Z</time>  </trkpt>
  <trkpt lat="47.0444395" lon="12.9033881">  <ele>1788.412</ele>  <time>2018-05-01T04:30:28.029Z</time>  </trkpt>
  <trkpt lat="47.0444797" lon="12.9035131">  <ele>1789.809</ele>  <time>2018-05-01T04:30:36.515Z</time>  </trkpt>
  <trkpt lat="47.0445105" lon="12.9036415">  <ele>1792.597</ele>  <time>2018-05-01T04:30:44.915Z</time>  </trkpt>
  <trkpt lat="47.0445085" lon="12.9037800">  <ele>1794.359</ele>  <time>2018-05-01T04:30:53.692Z</time>  </trkpt>
  <trkpt lat="47.0445221" lon="12.9039196">  <ele>1793.476</ele>  <time>2018-05-01T04:31:02.807Z</time>  </trkpt>
  <trkpt lat="47.0445527" lon="12.9040549">  <ele>1793.332</ele>  <time>2018-05-01T04:31:12.577Z</time>  </trkpt>
  <trkpt lat="47.0445616" lon="12.9041886">  <ele>1797.030</ele>  <time>2018-05-01T04:31:24.504Z</time>  </trkpt>
  <trkpt lat="47.0444822" lon="12.9042618">  <ele>1802.323</ele>  <time>2018-05-01T04:31:39.674Z</time>  </trkpt>
  <trkpt lat="47.0444744" lon="12.9044025">  <ele>1807.047</ele>  <time>2018-05-01T04:31:51.033Z</time>  </trkpt>
  <trkpt lat="47.0444652" lon="12.9045376">  <ele>1811.341</ele>  <time>2018-05-01T04:31:59.392Z</time>  </trkpt>
  <trkpt lat="47.0444352" lon="12.9046714">  <ele>1815.379</ele>  <time>2018-05-01T04:32:08.131Z</time>  </trkpt>
  <trkpt lat="47.0444095" lon="12.9048065">  <ele>1817.998</ele>  <time>2018-05-01T04:32:16.455Z</time>  </trkpt>
  <trkpt lat="47.0443775" lon="12.9049346">  <ele>1819.329</ele>  <time>2018-05-01T04:32:26.077Z</time>  </trkpt>
  <trkpt lat="47.0443629" lon="12.9050654">  <ele>1820.530</ele>  <time>2018-05-01T04:32:36.996Z</time>  </trkpt>
  <trkpt lat="47.0443629" lon="12.9050654">  <ele>1821.096</ele>  <time>2018-05-01T04:32:44.996Z</time>  </trkpt>
  <trkpt lat="47.0443629" lon="12.9050654">  <ele>1820.309</ele>  <time>2018-05-01T04:32:45.096Z</time>  </trkpt>
  <trkpt lat="47.0443953" lon="12.9051936">  <ele>1818.672</ele>  <time>2018-05-01T04:33:11.218Z</time>  </trkpt>
  <trkpt lat="47.0444751" lon="12.9052621">  <ele>1816.423</ele>  <time>2018-05-01T04:33:20.369Z</time>  </trkpt>
  <trkpt lat="47.0445423" lon="12.9053750">  <ele>1810.359</ele>  <time>2018-05-01T04:33:29.323Z</time>  </trkpt>
  <trkpt lat="47.0446044" lon="12.9054908">  <ele>1803.636</ele>  <time>2018-05-01T04:33:38.053Z</time>  </trkpt>
  <trkpt lat="47.0446819" lon="12.9055894">  <ele>1799.799</ele>  <time>2018-05-01T04:33:46.953Z</time>  </trkpt>
  <trkpt lat="47.0447276" lon="12.9057140">  <ele>1797.745</ele>  <time>2018-05-01T04:33:54.990Z</time>  </trkpt>
  <trkpt lat="47.0447718" lon="12.9058385">  <ele>1797.771</ele>  <time>2018-05-01T04:34:02.810Z</time>  </trkpt>
  <trkpt lat="47.0448388" lon="12.9059508">  <ele>1798.256</ele>  <time>2018-05-01T04:34:12.171Z</time>  </trkpt>
  <trkpt lat="47.0448820" lon="12.9060701">  <ele>1798.897</ele>  <time>2018-05-01T04:34:22.752Z</time>  </trkpt>
  <trkpt lat="47.0449524" lon="12.9061792">  <ele>1797.871</ele>  <time>2018-05-01T04:34:33.297Z</time>  </trkpt>
  <trkpt lat="47.0449522" lon="12.9063137">  <ele>1796.617</ele>  <time>2018-05-01T04:34:43.389Z</time>  </trkpt>
  <trkpt lat="47.0450033" lon="12.9064242">  <ele>1795.944</ele>  <time>2018-05-01T04:34:55.564Z</time>  </trkpt>
  <trkpt lat="47.0450234" lon="12.9065567">  <ele>1796.230</ele>  <time>2018-05-01T04:35:06.440Z</time>  </trkpt>
  <trkpt lat="47.0451014" lon="12.9066438">  <ele>1798.190</ele>  <time>2018-05-01T04:35:16.087Z</time>  </trkpt>
  <trkpt lat="47.0451639" lon="12.9067392">  <ele>1801.509</ele>  <time>2018-05-01T04:35:25.841Z</time>  </trkpt>
  <trkpt lat="47.0450863" lon="12.9068430">  <ele>1804.388</ele>  <time>2018-05-01T04:35:38.110Z</time>  </trkpt>
  <trkpt lat="47.0451181" lon="12.9069841">  <ele>1806.207</ele>  <time>2018-05-01T04:35:47.433Z</time>  </trkpt>
  <trkpt lat="47.0451731" lon="12.9070913">  <ele>1808.660</ele>  <time>2018-05-01T04:35:56.606Z</time>  </trkpt>
  <trkpt lat="47.0452171" lon="12.9072090">  <ele>1812.418</ele>  <time>2018-05-01T04:36:07.000Z</time>  </trkpt>
  <trkpt lat="47.0452668" lon="12.9073267">  <ele>1816.161</ele>  <time>2018-05-01T04:36:18.915Z</time>  </trkpt>
  <trkpt lat="47.0453244" lon="12.9074406">  <ele>1818.805</ele>  <time>2018-05-01T04:36:30.813Z</time>  </trkpt>
  <trkpt lat="47.0454011" lon="12.9075294">  <ele>1819.826</ele>  <time>2018-05-01T04:36:39.952Z</time>  </trkpt>
  <trkpt lat="47.0454791" lon="12.9076040">  <ele>1818.921</ele>  <time>2018-05-01T04:36:48.383Z</time>  </trkpt>
  <trkpt lat="47.0455483" lon="12.9076933">  <ele>1815.554</ele>  <time>2018-05-01T04:36:56.975Z</time>  </trkpt>
  <trkpt lat="47.0456096" lon="12.9078141">  <ele>1814.743</ele>  <time>2018-05-01T04:37:07.984Z</time>  </trkpt>
  <trkpt lat="47.0456986" lon="12.9077736">  <ele>1814.240</ele>  <time>2018-05-01T04:37:20.102Z</time>  </trkpt>
  <trkpt lat="47.0457500" lon="12.9078842">  <ele>1814.627</ele>  <time>2018-05-01T04:37:33.105Z</time>  </trkpt>
  <trkpt lat="47.0457683" lon="12.9080365">  <ele>1814.230</ele>  <time>2018-05-01T04:37:41.141Z</time>  </trkpt>
  <trkpt lat="47.0458144" lon="12.9081698">  <ele>1814.906</ele>  <time>2018-05-01T04:37:47.490Z</time>  </trkpt>
  <trkpt lat="47.0458450" lon="12.9083057">  <ele>1818.880</ele>  <time>2018-05-01T04:37:54.468Z</time>  </trkpt>
  <trkpt lat="47.0458750" lon="12.9084372">  <ele>1828.310</ele>  <time>2018-05-01T04:38:04.524Z</time>  </trkpt>
  <trkpt lat="47.0459532" lon="12.9085113">  <ele>1831.865</ele>  <time>2018-05-01T04:38:14.413Z</time>  </trkpt>
  <trkpt lat="47.0463565" lon="12.9088425">  <ele>1836.167</ele>  <time>2018-05-01T04:39:01.906Z</time>  </trkpt>
  <trkpt lat="47.0464007" lon="12.9089710">  <ele>1836.375</ele>  <time>2018-05-01T04:39:10.997Z</time>  </trkpt>
  <trkpt lat="47.0464007" lon="12.9089710">  <ele>1840.753</ele>  <time>2018-05-01T04:39:20.997Z</time>  </trkpt>
  <trkpt lat="47.0464007" lon="12.9089710">  <ele>1841.839</ele>  <time>2018-05-01T04:41:20.627Z</time>  </trkpt>
  <trkpt lat="47.0464746" lon="12.9090522">  <ele>1839.836</ele>  <time>2018-05-01T04:41:36.648Z</time>  </trkpt>
  <trkpt lat="47.0465051" lon="12.9091780">  <ele>1841.123</ele>  <time>2018-05-01T04:41:45.433Z</time>  </trkpt>
  <trkpt lat="47.0464921" lon="12.9093235">  <ele>1847.300</ele>  <time>2018-05-01T04:41:56.021Z</time>  </trkpt>
  <trkpt lat="47.0464869" lon="12.9094589">  <ele>1854.095</ele>  <time>2018-05-01T04:42:06.624Z</time>  </trkpt>
  <trkpt lat="47.0464967" lon="12.9095970">  <ele>1857.322</ele>  <time>2018-05-01T04:42:16.795Z</time>  </trkpt>
  <trkpt lat="47.0465248" lon="12.9097260">  <ele>1856.056</ele>  <time>2018-05-01T04:42:25.272Z</time>  </trkpt>
  <trkpt lat="47.0464814" lon="12.9098452">  <ele>1858.572</ele>  <time>2018-05-01T04:42:33.571Z</time>  </trkpt>
  <trkpt lat="47.0464023" lon="12.9099134">  <ele>1864.094</ele>  <time>2018-05-01T04:42:41.129Z</time>  </trkpt>
  <trkpt lat="47.0463024" lon="12.9099397">  <ele>1870.591</ele>  <time>2018-05-01T04:42:50.240Z</time>  </trkpt>
  <trkpt lat="47.0462107" lon="12.9100586">  <ele>1875.550</ele>  <time>2018-05-01T04:43:01.925Z</time>  </trkpt>
  <trkpt lat="47.0461669" lon="12.9101794">  <ele>1877.893</ele>  <time>2018-05-01T04:43:17.831Z</time>  </trkpt>
  <trkpt lat="47.0462307" lon="12.9102759">  <ele>1876.627</ele>  <time>2018-05-01T04:43:29.992Z</time>  </trkpt>
  <trkpt lat="47.0462307" lon="12.9102759">  <ele>1872.025</ele>  <time>2018-05-01T04:43:44.997Z</time>  </trkpt>
  <trkpt lat="47.0462307" lon="12.9102759">  <ele>1867.902</ele>  <time>2018-05-01T04:45:43.538Z</time>  </trkpt>
  <trkpt lat="47.0462761" lon="12.9104141">  <ele>1867.193</ele>  <time>2018-05-01T04:47:54.824Z</time>  </trkpt>
  <trkpt lat="47.0463656" lon="12.9105088">  <ele>1867.922</ele>  <time>2018-05-01T04:48:15.051Z</time>  </trkpt>
  <trkpt lat="47.0464459" lon="12.9105781">  <ele>1867.753</ele>  <time>2018-05-01T04:48:30.244Z</time>  </trkpt>
  <trkpt lat="47.0464694" lon="12.9107152">  <ele>1867.030</ele>  <time>2018-05-01T04:48:43.091Z</time>  </trkpt>
  <trkpt lat="47.0464987" lon="12.9108425">  <ele>1866.735</ele>  <time>2018-05-01T04:48:54.890Z</time>  </trkpt>
  <trkpt lat="47.0465914" lon="12.9109131">  <ele>1866.827</ele>  <time>2018-05-01T04:49:08.346Z</time>  </trkpt>
  <trkpt lat="47.0468406" lon="12.9114814">  <ele>1866.757</ele>  <time>2018-05-01T04:50:07.690Z</time>  </trkpt>
  <trkpt lat="47.0468575" lon="12.9116183">  <ele>1868.766</ele>  <time>2018-05-01T04:50:20.485Z</time>  </trkpt>
  <trkpt lat="47.0469037" lon="12.9117347">  <ele>1873.565</ele>  <time>2018-05-01T04:50:35.039Z</time>  </trkpt>
  <trkpt lat="47.0469755" lon="12.9118204">  <ele>1878.799</ele>  <time>2018-05-01T04:50:52.987Z</time>  </trkpt>
  <trkpt lat="47.0465297" lon="12.9121693">  <ele>1884.366</ele>  <time>2018-05-01T04:51:41.209Z</time>  </trkpt>
  <trkpt lat="47.0464478" lon="12.9120789">  <ele>1890.070</ele>  <time>2018-05-01T04:51:50.984Z</time>  </trkpt>
  <trkpt lat="47.0463372" lon="12.9120513">  <ele>1901.978</ele>  <time>2018-05-01T04:52:01.570Z</time>  </trkpt>
  <trkpt lat="47.0464101" lon="12.9121452">  <ele>1912.996</ele>  <time>2018-05-01T04:52:09.283Z</time>  </trkpt>
  <trkpt lat="47.0464544" lon="12.9122669">  <ele>1916.538</ele>  <time>2018-05-01T04:52:18.247Z</time>  </trkpt>
  <trkpt lat="47.0464902" lon="12.9123880">  <ele>1913.719</ele>  <time>2018-05-01T04:52:28.495Z</time>  </trkpt>
  <trkpt lat="47.0465319" lon="12.9125156">  <ele>1908.347</ele>  <time>2018-05-01T04:52:40.936Z</time>  </trkpt>
  <trkpt lat="47.0465982" lon="12.9126307">  <ele>1904.396</ele>  <time>2018-05-01T04:52:53.986Z</time>  </trkpt>
  <trkpt lat="47.0465764" lon="12.9127698">  <ele>1903.544</ele>  <time>2018-05-01T04:53:06.876Z</time>  </trkpt>
  <trkpt lat="47.0465364" lon="12.9128971">  <ele>1904.640</ele>  <time>2018-05-01T04:53:19.777Z</time>  </trkpt>
  <trkpt lat="47.0465550" lon="12.9130333">  <ele>1906.074</ele>  <time>2018-05-01T04:53:33.198Z</time>  </trkpt>
  <trkpt lat="47.0465896" lon="12.9131610">  <ele>1907.095</ele>  <time>2018-05-01T04:53:48.823Z</time>  </trkpt>
  <trkpt lat="47.0466086" lon="12.9132984">  <ele>1907.911</ele>  <time>2018-05-01T04:54:04.305Z</time>  </trkpt>
  <trkpt lat="47.0466013" lon="12.9134332">  <ele>1908.948</ele>  <time>2018-05-01T04:54:18.461Z</time>  </trkpt>
  <trkpt lat="47.0465905" lon="12.9135684">  <ele>1910.346</ele>  <time>2018-05-01T04:54:35.211Z</time>  </trkpt>
  <trkpt lat="47.0465951" lon="12.9137019">  <ele>1912.172</ele>  <time>2018-05-01T04:54:53.813Z</time>  </trkpt>
  <trkpt lat="47.0466773" lon="12.9137794">  <ele>1914.618</ele>  <time>2018-05-01T04:55:17.409Z</time>  </trkpt>
  <trkpt lat="47.0467691" lon="12.9137899">  <ele>1917.244</ele>  <time>2018-05-01T04:55:34.994Z</time>  </trkpt>
  <trkpt lat="47.0467691" lon="12.9137899">  <ele>1919.086</ele>  <time>2018-05-01T04:55:52.994Z</time>  </trkpt>
  <trkpt lat="47.0467691" lon="12.9137899">  <ele>1919.416</ele>  <time>2018-05-01T04:56:12.126Z</time>  </trkpt>
  <trkpt lat="47.0469149" lon="12.9138167">  <ele>1918.501</ele>  <time>2018-05-01T04:56:34.554Z</time>  </trkpt>
  <trkpt lat="47.0470092" lon="12.9138543">  <ele>1919.820</ele>  <time>2018-05-01T04:56:40.752Z</time>  </trkpt>
  <trkpt lat="47.0471024" lon="12.9138876">  <ele>1925.628</ele>  <time>2018-05-01T04:56:48.241Z</time>  </trkpt>
  <trkpt lat="47.0472214" lon="12.9139273">  <ele>1932.540</ele>  <time>2018-05-01T04:57:02.091Z</time>  </trkpt>
  <trkpt lat="47.0471366" lon="12.9139790">  <ele>1937.182</ele>  <time>2018-05-01T04:57:10.926Z</time>  </trkpt>
  <trkpt lat="47.0472122" lon="12.9138883">  <ele>1939.800</ele>  <time>2018-05-01T04:57:17.271Z</time>  </trkpt>
  <trkpt lat="47.0473031" lon="12.9139190">  <ele>1941.002</ele>  <time>2018-05-01T04:57:23.584Z</time>  </trkpt>
  <trkpt lat="47.0473969" lon="12.9139939">  <ele>1941.310</ele>  <time>2018-05-01T04:57:35.761Z</time>  </trkpt>
  <trkpt lat="47.0474891" lon="12.9140622">  <ele>1941.253</ele>  <time>2018-05-01T04:57:54.806Z</time>  </trkpt>
  <trkpt lat="47.0475852" lon="12.9140699">  <ele>1941.622</ele>  <time>2018-05-01T04:58:13.875Z</time>  </trkpt>
  <trkpt lat="47.0476425" lon="12.9139558">  <ele>1942.931</ele>  <time>2018-05-01T04:58:20.388Z</time>  </trkpt>
  <trkpt lat="47.0477229" lon="12.9138792">  <ele>1945.436</ele>  <time>2018-05-01T04:58:25.103Z</time>  </trkpt>
  <trkpt lat="47.0478225" lon="12.9138634">  <ele>1948.817</ele>  <time>2018-05-01T04:58:33.045Z</time>  </trkpt>
  <trkpt lat="47.0479108" lon="12.9139123">  <ele>1951.815</ele>  <time>2018-05-01T04:58:40.530Z</time>  </trkpt>
  <trkpt lat="47.0480009" lon="12.9139729">  <ele>1953.633</ele>  <time>2018-05-01T04:58:48.394Z</time>  </trkpt>
  <trkpt lat="47.0481164" lon="12.9140243">  <ele>1954.626</ele>  <time>2018-05-01T04:58:57.968Z</time>  </trkpt>
  <trkpt lat="47.0481623" lon="12.9141442">  <ele>1954.290</ele>  <time>2018-05-01T04:59:07.999Z</time>  </trkpt>
  <trkpt lat="47.0481623" lon="12.9141442">  <ele>1952.327</ele>  <time>2018-05-01T04:59:11.998Z</time>  </trkpt>
  <trkpt lat="47.0481623" lon="12.9141442">  <ele>1950.278</ele>  <time>2018-05-01T04:59:31.250Z</time>  </trkpt>
  <trkpt lat="47.0482274" lon="12.9143051">  <ele>1949.716</ele>  <time>2018-05-01T04:59:56.761Z</time>  </trkpt>
  <trkpt lat="47.0482326" lon="12.9144444">  <ele>1950.174</ele>  <time>2018-05-01T05:00:06.986Z</time>  </trkpt>
  <trkpt lat="47.0481643" lon="12.9145345">  <ele>1950.712</ele>  <time>2018-05-01T05:00:15.670Z</time>  </trkpt>
  <trkpt lat="47.0481008" lon="12.9146308">  <ele>1951.919</ele>  <time>2018-05-01T05:00:24.260Z</time>  </trkpt>
  <trkpt lat="47.0480422" lon="12.9147321">  <ele>1954.308</ele>  <time>2018-05-01T05:00:32.952Z</time>  </trkpt>
  <trkpt lat="47.0479882" lon="12.9148512">  <ele>1956.572</ele>  <time>2018-05-01T05:00:41.824Z</time>  </trkpt>
  <trkpt lat="47.0479090" lon="12.9149387">  <ele>1957.835</ele>  <time>2018-05-01T05:00:52.080Z</time>  </trkpt>
  <trkpt lat="47.0478748" lon="12.9150734">  <ele>1958.584</ele>  <time>2018-05-01T05:01:04.003Z</time>  </trkpt>
  <trkpt lat="47.0478159" lon="12.9151817">  <ele>1960.222</ele>  <time>2018-05-01T05:01:19.996Z</time>  </trkpt>
  <trkpt lat="47.0478159" lon="12.9151817">  <ele>1963.349</ele>  <time>2018-05-01T05:01:19.996Z</time>  </trkpt>
  <trkpt lat="47.0478159" lon="12.9151817">  <ele>1965.478</ele>  <time>2018-05-01T05:01:20.096Z</time>  </trkpt>
  <trkpt lat="47.0477588" lon="12.9152843">  <ele>1962.480</ele>  <time>2018-05-01T05:01:43.903Z</time>  </trkpt>
  <trkpt lat="47.0476223" lon="12.9153542">  <ele>1963.132</ele>  <time>2018-05-01T05:02:01.876Z</time>  </trkpt>
  <trkpt lat="47.0475145" lon="12.9153908">  <ele>1969.322</ele>  <time>2018-05-01T05:02:09.000Z</time>  </trkpt>
  <trkpt lat="47.0474663" lon="12.9155282">  <ele>1978.626</ele>  <time>2018-05-01T05:02:18.728Z</time>  </trkpt>
  <trkpt lat="47.0473889" lon="12.9156139">  <ele>1985.822</ele>  <time>2018-05-01T05:02:28.786Z</time>  </trkpt>
  <trkpt lat="47.0472885" lon="12.9156503">  <ele>1989.412</ele>  <time>2018-05-01T05:02:37.498Z</time>  </trkpt>
  <trkpt lat="47.0472058" lon="12.9157365">  <ele>1990.890</ele>  <time>2018-05-01T05:02:46.411Z</time>  </trkpt>
  <trkpt lat="47.0471492" lon="12.9158433">  <ele>1991.339</ele>  <time>2018-05-01T05:02:54.519Z</time>  </trkpt>
  <trkpt lat="47.0472496" lon="12.9158761">  <ele>1990.001</ele>  <time>2018-05-01T05:03:06.203Z</time>  </trkpt>
  <trkpt lat="47.0473586" lon="12.9158876">  <ele>1986.259</ele>  <time>2018-05-01T05:03:21.391Z</time>  </trkpt>
  <trkpt lat="47.0474525" lon="12.9159485">  <ele>1981.955</ele>  <time>2018-05-01T05:03:32.968Z</time>  </trkpt>
  <trkpt lat="47.0475614" lon="12.9159520">  <ele>1979.856</ele>  <time>2018-05-01T05:03:51.870Z</time>  </trkpt>
  <trkpt lat="47.0476576" lon="12.9160183">  <ele>1981.402</ele>  <time>2018-05-01T05:04:14.732Z</time>  </trkpt>
  <trkpt lat="47.0477514" lon="12.9160434">  <ele>1985.627</ele>  <time>2018-05-01T05:04:23.962Z</time>  </trkpt>
  <trkpt lat="47.0478211" lon="12.9161488">  <ele>1989.463</ele>  <time>2018-05-01T05:04:39.992Z</time>  </trkpt>
  <trkpt lat="47.0478211" lon="12.9161488">  <ele>1990.667</ele>  <time>2018-05-01T05:05:22.997Z</time>  </trkpt>
  <trkpt lat="47.0478211" lon="12.9161488">  <ele>1989.609</ele>  <time>2018-05-01T05:05:24.235Z</time>  </trkpt>
  <trkpt lat="47.0479989" lon="12.9162069">  <ele>1988.009</ele>  <time>2018-05-01T05:05:51.750Z</time>  </trkpt>
  <trkpt lat="47.0480980" lon="12.9161878">  <ele>1987.247</ele>  <time>2018-05-01T05:05:58.780Z</time>  </trkpt>
  <trkpt lat="47.0482030" lon="12.9161847">  <ele>1987.386</ele>  <time>2018-05-01T05:06:07.277Z</time>  </trkpt>
  <trkpt lat="47.0482799" lon="12.9162571">  <ele>1987.846</ele>  <time>2018-05-01T05:06:16.527Z</time>  </trkpt>
  <trkpt lat="47.0482379" lon="12.9163773">  <ele>1988.080</ele>  <time>2018-05-01T05:06:32.278Z</time>  </trkpt>
  <trkpt lat="47.0481700" lon="12.9164670">  <ele>1987.773</ele>  <time>2018-05-01T05:06:43.973Z</time>  </trkpt>
  <trkpt lat="47.0480902" lon="12.9165356">  <ele>1986.999</ele>  <time>2018-05-01T05:06:52.589Z</time>  </trkpt>
  <trkpt lat="47.0480203" lon="12.9166342">  <ele>1986.973</ele>  <time>2018-05-01T05:07:00.998Z</time>  </trkpt>
  <trkpt lat="47.0480203" lon="12.9166342">  <ele>1988.447</ele>  <time>2018-05-01T05:07:06.998Z</time>  </trkpt>
  <trkpt lat="47.0480203" lon="12.9166342">  <ele>1989.573</ele>  <time>2018-05-01T05:07:07.098Z</time>  </trkpt>
  <trkpt lat="47.0479741" lon="12.9167839">  <ele>1987.134</ele>  <time>2018-05-01T05:07:20.166Z</time>  </trkpt>
  <trkpt lat="47.0478819" lon="12.9168057">  <ele>1987.594</ele>  <time>2018-05-01T05:07:28.268Z</time>  </trkpt>
  <trkpt lat="47.0478333" lon="12.9169232">  <ele>1991.066</ele>  <time>2018-05-01T05:07:36.997Z</time>  </trkpt>
  <trkpt lat="47.0478333" lon="12.9169232">  <ele>1994.714</ele>  <time>2018-05-01T05:07:42.997Z</time>  </trkpt>
  <trkpt lat="47.0478333" lon="12.9169232">  <ele>1995.662</ele>  <time>2018-05-01T05:07:43.097Z</time>  </trkpt>
  <trkpt lat="47.0477107" lon="12.9170129">  <ele>1994.505</ele>  <time>2018-05-01T05:08:06.787Z</time>  </trkpt>
  <trkpt lat="47.0476318" lon="12.9170906">  <ele>1994.200</ele>  <time>2018-05-01T05:08:18.999Z</time>  </trkpt>
  <trkpt lat="47.0475277" lon="12.9171364">  <ele>1996.406</ele>  <time>2018-05-01T05:08:32.366Z</time>  </trkpt>
  <trkpt lat="47.0474247" lon="12.9171522">  <ele>1999.657</ele>  <time>2018-05-01T05:08:44.365Z</time>  </trkpt>
  <trkpt lat="47.0473392" lon="12.9172049">  <ele>2002.805</ele>  <time>2018-05-01T05:08:51.996Z</time>  </trkpt>
  <trkpt lat="47.0473392" lon="12.9172049">  <ele>2005.819</ele>  <time>2018-05-01T05:08:55.996Z</time>  </trkpt>
  <trkpt lat="47.0473392" lon="12.9172049">  <ele>2007.219</ele>  <time>2018-05-01T05:08:56.096Z</time>  </trkpt>
  <trkpt lat="47.0474712" lon="12.9172600">  <ele>2004.524</ele>  <time>2018-05-01T05:10:04.987Z</time>  </trkpt>
  <trkpt lat="47.0475635" lon="12.9173107">  <ele>2003.824</ele>  <time>2018-05-01T05:10:14.386Z</time>  </trkpt>
  <trkpt lat="47.0476550" lon="12.9173669">  <ele>2004.691</ele>  <time>2018-05-01T05:10:22.573Z</time>  </trkpt>
  <trkpt lat="47.0477565" lon="12.9173460">  <ele>2006.432</ele>  <time>2018-05-01T05:10:28.492Z</time>  </trkpt>
  <trkpt lat="47.0478444" lon="12.9174026">  <ele>2008.113</ele>  <time>2018-05-01T05:10:33.914Z</time>  </trkpt>
  <trkpt lat="47.0479345" lon="12.9174041">  <ele>2010.011</ele>  <time>2018-05-01T05:10:39.330Z</time>  </trkpt>
  <trkpt lat="47.0480201" lon="12.9174643">  <ele>2012.753</ele>  <time>2018-05-01T05:10:45.821Z</time>  </trkpt>
  <trkpt lat="47.0480978" lon="12.9175388">  <ele>2015.676</ele>  <time>2018-05-01T05:10:53.257Z</time>  </trkpt>
  <trkpt lat="47.0481889" lon="12.9175069">  <ele>2017.564</ele>  <time>2018-05-01T05:11:01.963Z</time>  </trkpt>
  <trkpt lat="47.0482868" lon="12.9175054">  <ele>2018.387</ele>  <time>2018-05-01T05:11:13.477Z</time>  </trkpt>
  <trkpt lat="47.0483997" lon="12.9174941">  <ele>2019.046</ele>  <time>2018-05-01T05:11:30.195Z</time>  </trkpt>
  <trkpt lat="47.0484991" lon="12.9174974">  <ele>2019.895</ele>  <time>2018-05-01T05:11:36.903Z</time>  </trkpt>
  <trkpt lat="47.0484049" lon="12.9175506">  <ele>2020.666</ele>  <time>2018-05-01T05:11:44.320Z</time>  </trkpt>
  <trkpt lat="47.0484227" lon="12.9176798">  <ele>2021.264</ele>  <time>2018-05-01T05:11:56.992Z</time>  </trkpt>
  <trkpt lat="47.0484227" lon="12.9176798">  <ele>2021.724</ele>  <time>2018-05-01T05:12:03.992Z</time>  </trkpt>
  <trkpt lat="47.0484227" lon="12.9176798">  <ele>2021.617</ele>  <time>2018-05-01T05:12:11.637Z</time>  </trkpt>
  <trkpt lat="47.0484136" lon="12.9178158">  <ele>2019.786</ele>  <time>2018-05-01T05:12:39.376Z</time>  </trkpt>
  <trkpt lat="47.0483902" lon="12.9179450">  <ele>2020.284</ele>  <time>2018-05-01T05:12:52.999Z</time>  </trkpt>
  <trkpt lat="47.0483902" lon="12.9179450">  <ele>2022.753</ele>  <time>2018-05-01T05:13:25.999Z</time>  </trkpt>
  <trkpt lat="47.0483902" lon="12.9179450">  <ele>2024.609</ele>  <time>2018-05-01T05:13:28.466Z</time>  </trkpt>
  <trkpt lat="47.0482937" lon="12.9182074">  <ele>2023.747</ele>  <time>2018-05-01T05:13:59.540Z</time>  </trkpt>
  <trkpt lat="47.0482412" lon="12.9183351">  <ele>2024.603</ele>  <time>2018-05-01T05:14:10.219Z</time>  </trkpt>
  <trkpt lat="47.0485963" lon="12.9187409">  <ele>2038.108</ele>  <time>2018-05-01T05:15:46.996Z</time>  </trkpt>
  <trkpt lat="47.0485963" lon="12.9187409">  <ele>2043.066</ele>  <time>2018-05-01T05:15:46.997Z</time>  </trkpt>
  <trkpt lat="47.0485963" lon="12.9187409">  <ele>2047.013</ele>  <time>2018-05-01T05:15:47.097Z</time>  </trkpt>
  <trkpt lat="47.0486616" lon="12.9188583">  <ele>2046.082</ele>  <time>2018-05-01T05:16:05.842Z</time>  </trkpt>
  <trkpt lat="47.0487588" lon="12.9189101">  <ele>2044.255</ele>  <time>2018-05-01T05:16:14.997Z</time>  </trkpt>
  <trkpt lat="47.0486586" lon="12.9189573">  <ele>2046.909</ele>  <time>2018-05-01T05:16:29.123Z</time>  </trkpt>
  <trkpt lat="47.0486881" lon="12.9190911">  <ele>2052.031</ele>  <time>2018-05-01T05:16:41.995Z</time>  </trkpt>
  <trkpt lat="47.0486881" lon="12.9190911">  <ele>2056.406</ele>  <time>2018-05-01T05:16:57.995Z</time>  </trkpt>
  <trkpt lat="47.0486881" lon="12.9190911">  <ele>2058.209</ele>  <time>2018-05-01T05:16:58.095Z</time>  </trkpt>
  <trkpt lat="47.0486252" lon="12.9192883">  <ele>2057.138</ele>  <time>2018-05-01T05:17:21.507Z</time>  </trkpt>
  <trkpt lat="47.0485327" lon="12.9192912">  <ele>2057.476</ele>  <time>2018-05-01T05:17:26.994Z</time>  </trkpt>
  <trkpt lat="47.0485327" lon="12.9192912">  <ele>2062.286</ele>  <time>2018-05-01T05:17:26.994Z</time>  </trkpt>
  <trkpt lat="47.0485327" lon="12.9192912">  <ele>2066.619</ele>  <time>2018-05-01T05:18:39.389Z</time>  </trkpt>
  <trkpt lat="47.0486016" lon="12.9195182">  <ele>2065.761</ele>  <time>2018-05-01T05:18:55.992Z</time>  </trkpt>
  <trkpt lat="47.0486016" lon="12.9195182">  <ele>2062.880</ele>  <time>2018-05-01T05:19:02.992Z</time>  </trkpt>
  <trkpt lat="47.0486016" lon="12.9195182">  <ele>2061.848</ele>  <time>2018-05-01T05:19:04.991Z</time>  </trkpt>
  <trkpt lat="47.0486588" lon="12.9196655">  <ele>2062.373</ele>  <time>2018-05-01T05:19:20.992Z</time>  </trkpt>
  <trkpt lat="47.0486588" lon="12.9196655">  <ele>2062.663</ele>  <time>2018-05-01T05:19:31.992Z</time>  </trkpt>
  <trkpt lat="47.0486588" lon="12.9196655">  <ele>2061.965</ele>  <time>2018-05-01T05:19:46.140Z</time>  </trkpt>
  <trkpt lat="47.0486857" lon="12.9198072">  <ele>2060.903</ele>  <time>2018-05-01T05:19:56.998Z</time>  </trkpt>
  <trkpt lat="47.0486857" lon="12.9198072">  <ele>2060.274</ele>  <time>2018-05-01T05:20:07.999Z</time>  </trkpt>
  <trkpt lat="47.0486857" lon="12.9198072">  <ele>2059.860</ele>  <time>2018-05-01T05:20:11.511Z</time>  </trkpt>
  <trkpt lat="47.0486342" lon="12.9199335">  <ele>2058.401</ele>  <time>2018-05-01T05:20:29.999Z</time>  </trkpt>
  <trkpt lat="47.0486342" lon="12.9199335">  <ele>2057.910</ele>  <time>2018-05-01T05:20:32.999Z</time>  </trkpt>
  <trkpt lat="47.0486342" lon="12.9199335">  <ele>2057.508</ele>  <time>2018-05-01T05:20:33.286Z</time>  </trkpt>
  <trkpt lat="47.0486948" lon="12.9200424">  <ele>2055.994</ele>  <time>2018-05-01T05:20:47.998Z</time>  </trkpt>
  <trkpt lat="47.0486948" lon="12.9200424">  <ele>2055.524</ele>  <time>2018-05-01T05:20:56.998Z</time>  </trkpt>
  <trkpt lat="47.0486948" lon="12.9200424">  <ele>2055.135</ele>  <time>2018-05-01T05:21:23.309Z</time>  </trkpt>
  <trkpt lat="47.0486774" lon="12.9201745">  <ele>2053.610</ele>  <time>2018-05-01T05:21:48.554Z</time>  </trkpt>
  <trkpt lat="47.0486880" lon="12.9203095">  <ele>2059.580</ele>  <time>2018-05-01T05:22:05.997Z</time>  </trkpt>
  <trkpt lat="47.0486880" lon="12.9203095">  <ele>2076.233</ele>  <time>2018-05-01T05:22:12.997Z</time>  </trkpt>
  <trkpt lat="47.0486880" lon="12.9203095">  <ele>2089.916</ele>  <time>2018-05-01T05:22:13.097Z</time>  </trkpt>
  <trkpt lat="47.0486016" lon="12.9203590">  <ele>2080.532</ele>  <time>2018-05-01T05:23:42.397Z</time>  </trkpt>
  <trkpt lat="47.0485074" lon="12.9203794">  <ele>2079.515</ele>  <time>2018-05-01T05:24:23.310Z</time>  </trkpt>
  <trkpt lat="47.0484437" lon="12.9204733">  <ele>2090.213</ele>  <time>2018-05-01T05:24:42.479Z</time>  </trkpt>
  <trkpt lat="47.0483879" lon="12.9205833">  <ele>2103.788</ele>  <time>2018-05-01T05:25:02.085Z</time>  </trkpt>
  <trkpt lat="47.0483187" lon="12.9206681">  <ele>2111.561</ele>  <time>2018-05-01T05:25:20.993Z</time>  </trkpt>
  <trkpt lat="47.0483187" lon="12.9206681">  <ele>2113.869</ele>  <time>2018-05-01T05:25:27.993Z</time>  </trkpt>
  <trkpt lat="47.0483187" lon="12.9206681">  <ele>2113.348</ele>  <time>2018-05-01T05:25:33.167Z</time>  </trkpt>
  <trkpt lat="47.0482092" lon="12.9207299">  <ele>2112.222</ele>  <time>2018-05-01T05:25:43.993Z</time>  </trkpt>
  <trkpt lat="47.0482092" lon="12.9207299">  <ele>2111.482</ele>  <time>2018-05-01T05:25:52.992Z</time>  </trkpt>
  <trkpt lat="47.0482092" lon="12.9207299">  <ele>2111.020</ele>  <time>2018-05-01T05:25:53.092Z</time>  </trkpt>
  <trkpt lat="47.0481234" lon="12.9207871">  <ele>2109.576</ele>  <time>2018-05-01T05:26:06.992Z</time>  </trkpt>
  <trkpt lat="47.0481234" lon="12.9207871">  <ele>2109.075</ele>  <time>2018-05-01T05:26:06.992Z</time>  </trkpt>
  <trkpt lat="47.0481234" lon="12.9207871">  <ele>2108.657</ele>  <time>2018-05-01T05:26:07.092Z</time>  </trkpt>
  <trkpt lat="47.0480243" lon="12.9207910">  <ele>2107.108</ele>  <time>2018-05-01T05:26:31.098Z</time>  </trkpt>
  <trkpt lat="47.0479947" lon="12.9209244">  <ele>2108.962</ele>  <time>2018-05-01T05:26:55.022Z</time>  </trkpt>
  <trkpt lat="47.0478865" lon="12.9208941">  <ele>2114.981</ele>  <time>2018-05-01T05:27:39.115Z</time>  </trkpt>
  <trkpt lat="47.0479246" lon="12.9210194">  <ele>2122.562</ele>  <time>2018-05-01T05:28:07.513Z</time>  </trkpt>
  <trkpt lat="47.0479870" lon="12.9211244">  <ele>2129.406</ele>  <time>2018-05-01T05:28:30.690Z</time>  </trkpt>
  <trkpt lat="47.0480376" lon="12.9212436">  <ele>2135.191</ele>  <time>2018-05-01T05:29:20.346Z</time>  </trkpt>
  <trkpt lat="47.0479735" lon="12.9213672">  <ele>2139.256</ele>  <time>2018-05-01T05:30:18.748Z</time>  </trkpt>
  <trkpt lat="47.0479085" lon="12.9214676">  <ele>2142.990</ele>  <time>2018-05-01T05:30:54.590Z</time>  </trkpt>
  <trkpt lat="47.0478506" lon="12.9215780">  <ele>2147.674</ele>  <time>2018-05-01T05:31:30.057Z</time>  </trkpt>
  <trkpt lat="47.0477759" lon="12.9216520">  <ele>2152.392</ele>  <time>2018-05-01T05:32:17.311Z</time>  </trkpt>
  <trkpt lat="47.0477056" lon="12.9217442">  <ele>2156.083</ele>  <time>2018-05-01T05:33:04.685Z</time>  </trkpt>
  <trkpt lat="47.0477518" lon="12.9218762">  <ele>2158.921</ele>  <time>2018-05-01T05:33:53.991Z</time>  </trkpt>
  <trkpt lat="47.0477518" lon="12.9218762">  <ele>2160.981</ele>  <time>2018-05-01T05:33:54.991Z</time>  </trkpt>
  <trkpt lat="47.0477518" lon="12.9218762">  <ele>2161.658</ele>  <time>2018-05-01T05:34:05.065Z</time>  </trkpt>
  <trkpt lat="47.0477494" lon="12.9220360">  <ele>2160.661</ele>  <time>2018-05-01T05:34:12.998Z</time>  </trkpt>
  <trkpt lat="47.0477494" lon="12.9220360">  <ele>2159.223</ele>  <time>2018-05-01T05:34:20.998Z</time>  </trkpt>
  <trkpt lat="47.0477494" lon="12.9220360">  <ele>2158.380</ele>  <time>2018-05-01T05:34:43.999Z</time>  </trkpt>
  <trkpt lat="47.0477494" lon="12.9220360">  <ele>2157.877</ele>  <time>2018-05-01T05:34:44.099Z</time>  </trkpt>
  <trkpt lat="47.0476356" lon="12.9222128">  <ele>2157.325</ele>  <time>2018-05-01T05:35:12.032Z</time>  </trkpt>
  <trkpt lat="47.0475510" lon="12.9222828">  <ele>2158.529</ele>  <time>2018-05-01T05:35:20.998Z</time>  </trkpt>
  <trkpt lat="47.0475510" lon="12.9222828">  <ele>2162.694</ele>  <time>2018-05-01T05:35:28.998Z</time>  </trkpt>
  <trkpt lat="47.0475510" lon="12.9222828">  <ele>2165.962</ele>  <time>2018-05-01T05:35:29.098Z</time>  </trkpt>
  <trkpt lat="47.0476467" lon="12.9222394">  <ele>2162.186</ele>  <time>2018-05-01T05:35:55.998Z</time>  </trkpt>
  <trkpt lat="47.0476467" lon="12.9222394">  <ele>2160.323</ele>  <time>2018-05-01T05:35:58.997Z</time>  </trkpt>
  <trkpt lat="47.0476467" lon="12.9222394">  <ele>2159.659</ele>  <time>2018-05-01T05:35:59.097Z</time>  </trkpt>
  <trkpt lat="47.0477343" lon="12.9223117">  <ele>2158.678</ele>  <time>2018-05-01T05:36:18.998Z</time>  </trkpt>
  <trkpt lat="47.0477343" lon="12.9223117">  <ele>2158.052</ele>  <time>2018-05-01T05:36:26.997Z</time>  </trkpt>
  <trkpt lat="47.0477343" lon="12.9223117">  <ele>2157.532</ele>  <time>2018-05-01T05:36:31.114Z</time>  </trkpt>
  <trkpt lat="47.0476856" lon="12.9224705">  <ele>2156.898</ele>  <time>2018-05-01T05:37:22.996Z</time>  </trkpt>
  <trkpt lat="47.0476856" lon="12.9224705">  <ele>2156.256</ele>  <time>2018-05-01T05:37:31.996Z</time>  </trkpt>
  <trkpt lat="47.0476856" lon="12.9224705">  <ele>2155.634</ele>  <time>2018-05-01T05:37:32.096Z</time>  </trkpt>
  <trkpt lat="47.0475654" lon="12.9225935">  <ele>2154.967</ele>  <time>2018-05-01T05:38:22.996Z</time>  </trkpt>
  <trkpt lat="47.0475654" lon="12.9225935">  <ele>2154.395</ele>  <time>2018-05-01T05:38:25.996Z</time>  </trkpt>
  <trkpt lat="47.0475654" lon="12.9225935">  <ele>2153.812</ele>  <time>2018-05-01T05:38:31.588Z</time>  </trkpt>
  <trkpt lat="47.0475654" lon="12.9225935">  <ele>2152.299</ele>  <time>2018-05-01T05:39:04.996Z</time>  </trkpt>
  <trkpt lat="47.0475654" lon="12.9225935">  <ele>2151.697</ele>  <time>2018-05-01T05:39:05.096Z</time>  </trkpt>
  <trkpt lat="47.0474381" lon="12.9227457">  <ele>2151.107</ele>  <time>2018-05-01T05:39:46.995Z</time>  </trkpt>
  <trkpt lat="47.0474381" lon="12.9227457">  <ele>2150.546</ele>  <time>2018-05-01T05:39:51.995Z</time>  </trkpt>
  <trkpt lat="47.0474381" lon="12.9227457">  <ele>2149.938</ele>  <time>2018-05-01T05:39:52.095Z</time>  </trkpt>
  <trkpt lat="47.0474360" lon="12.9228986">  <ele>2148.433</ele>  <time>2018-05-01T05:40:24.578Z</time>  </trkpt>
  <trkpt lat="47.0474794" lon="12.9230189">  <ele>2155.069</ele>  <time>2018-05-01T05:40:44.743Z</time>  </trkpt>
  <trkpt lat="47.0475647" lon="12.9230729">  <ele>2173.348</ele>  <time>2018-05-01T05:41:03.994Z</time>  </trkpt>
  <trkpt lat="47.0475647" lon="12.9230729">  <ele>2192.280</ele>  <time>2018-05-01T05:41:18.999Z</time>  </trkpt>
  <trkpt lat="47.0475647" lon="12.9230729">  <ele>2199.997</ele>  <time>2018-05-01T05:41:19.099Z</time>  </trkpt>
  <trkpt lat="47.0475339" lon="12.9232664">  <ele>2198.006</ele>  <time>2018-05-01T05:41:52.999Z</time>  </trkpt>
  <trkpt lat="47.0475339" lon="12.9232664">  <ele>2193.834</ele>  <time>2018-05-01T05:42:01.999Z</time>  </trkpt>
  <trkpt lat="47.0475339" lon="12.9232664">  <ele>2192.730</ele>  <time>2018-05-01T05:42:04.334Z</time>  </trkpt>
  <trkpt lat="47.0474949" lon="12.9233878">  <ele>2192.980</ele>  <time>2018-05-01T05:43:35.743Z</time>  </trkpt>
  <trkpt lat="47.0475370" lon="12.9235134">  <ele>2195.625</ele>  <time>2018-05-01T05:43:48.933Z</time>  </trkpt>
  <trkpt lat="47.0476185" lon="12.9235797">  <ele>2204.768</ele>  <time>2018-05-01T05:43:59.996Z</time>  </trkpt>
  <trkpt lat="47.0476185" lon="12.9235797">  <ele>2215.155</ele>  <time>2018-05-01T05:44:00.996Z</time>  </trkpt>
  <trkpt lat="47.0476185" lon="12.9235797">  <ele>2219.680</ele>  <time>2018-05-01T05:44:01.096Z</time>  </trkpt>
  <trkpt lat="47.0477742" lon="12.9242029">  <ele>2213.090</ele>  <time>2018-05-01T05:50:01.998Z</time>  </trkpt>
  <trkpt lat="47.0477742" lon="12.9242029">  <ele>2219.790</ele>  <time>2018-05-01T05:50:01.999Z</time>  </trkpt>
  <trkpt lat="47.0477742" lon="12.9242029">  <ele>2237.301</ele>  <time>2018-05-01T05:51:36.965Z</time>  </trkpt>
  <trkpt lat="47.0477654" lon="12.9243679">  <ele>2254.799</ele>  <time>2018-05-01T05:51:57.129Z</time>  </trkpt>
  <trkpt lat="47.0477008" lon="12.9244602">  <ele>2263.162</ele>  <time>2018-05-01T05:52:04.996Z</time>  </trkpt>
  <trkpt lat="47.0477008" lon="12.9244602">  <ele>2264.827</ele>  <time>2018-05-01T05:52:20.996Z</time>  </trkpt>
  <trkpt lat="47.0477008" lon="12.9244602">  <ele>2263.890</ele>  <time>2018-05-01T05:52:37.372Z</time>  </trkpt>
  <trkpt lat="47.0477269" lon="12.9245891">  <ele>2262.717</ele>  <time>2018-05-01T05:53:21.510Z</time>  </trkpt>
  <trkpt lat="47.0478199" lon="12.9246343">  <ele>2263.793</ele>  <time>2018-05-01T05:53:40.994Z</time>  </trkpt>
  <trkpt lat="47.0478199" lon="12.9246343">  <ele>2268.053</ele>  <time>2018-05-01T05:53:50.994Z</time>  </trkpt>
  <trkpt lat="47.0478199" lon="12.9246343">  <ele>2271.397</ele>  <time>2018-05-01T05:54:01.263Z</time>  </trkpt>
  <trkpt lat="47.0478440" lon="12.9248136">  <ele>2270.411</ele>  <time>2018-05-01T05:54:39.993Z</time>  </trkpt>
  <trkpt lat="47.0478440" lon="12.9248136">  <ele>2267.808</ele>  <time>2018-05-01T05:54:54.993Z</time>  </trkpt>
  <trkpt lat="47.0478440" lon="12.9248136">  <ele>2266.736</ele>  <time>2018-05-01T05:55:24.883Z</time>  </trkpt>
  <trkpt lat="47.0476782" lon="12.9249311">  <ele>2266.997</ele>  <time>2018-05-01T05:55:53.999Z</time>  </trkpt>
  <trkpt lat="47.0476782" lon="12.9249311">  <ele>2267.139</ele>  <time>2018-05-01T05:56:02.999Z</time>  </trkpt>
  <trkpt lat="47.0476782" lon="12.9249311">  <ele>2266.412</ele>  <time>2018-05-01T05:56:03.099Z</time>  </trkpt>
  <trkpt lat="47.0477937" lon="12.9249773">  <ele>2265.295</ele>  <time>2018-05-01T05:56:31.999Z</time>  </trkpt>
  <trkpt lat="47.0477937" lon="12.9249773">  <ele>2264.569</ele>  <time>2018-05-01T05:56:38.998Z</time>  </trkpt>
  <trkpt lat="47.0477937" lon="12.9249773">  <ele>2264.086</ele>  <time>2018-05-01T05:58:05.120Z</time>  </trkpt>
  <trkpt lat="47.0479281" lon="12.9251589">  <ele>2263.459</ele>  <time>2018-05-01T05:58:31.996Z</time>  </trkpt>
  <trkpt lat="47.0479281" lon="12.9251589">  <ele>2262.769</ele>  <time>2018-05-01T05:59:00.996Z</time>  </trkpt>
  <trkpt lat="47.0479281" lon="12.9251589">  <ele>2262.090</ele>  <time>2018-05-01T05:59:01.096Z</time>  </trkpt>
  <trkpt lat="47.0479876" lon="12.9253548">  <ele>2261.391</ele>  <time>2018-05-01T06:01:09.761Z</time>  </trkpt>
  <trkpt lat="47.0479956" lon="12.9254916">  <ele>2267.595</ele>  <time>2018-05-01T06:02:21.540Z</time>  </trkpt>
  <trkpt lat="47.0480134" lon="12.9256293">  <ele>2285.566</ele>  <time>2018-05-01T06:03:14.999Z</time>  </trkpt>
  <trkpt lat="47.0480134" lon="12.9256293">  <ele>2305.321</ele>  <time>2018-05-01T06:03:35.999Z</time>  </trkpt>
  <trkpt lat="47.0480134" lon="12.9256293">  <ele>2314.151</ele>  <time>2018-05-01T06:03:36.099Z</time>  </trkpt>
  <trkpt lat="47.0480714" lon="12.9258341">  <ele>2312.165</ele>  <time>2018-05-01T06:04:18.998Z</time>  </trkpt>
  <trkpt lat="47.0480714" lon="12.9258341">  <ele>2307.484</ele>  <time>2018-05-01T06:04:27.998Z</time>  </trkpt>
  <trkpt lat="47.0480714" lon="12.9258341">  <ele>2306.281</ele>  <time>2018-05-01T06:04:28.098Z</time>  </trkpt>
  <trkpt lat="47.0480700" lon="12.9259972">  <ele>2307.656</ele>  <time>2018-05-01T06:05:04.997Z</time>  </trkpt>
  <trkpt lat="47.0480700" lon="12.9259972">  <ele>2308.410</ele>  <time>2018-05-01T06:05:23.997Z</time>  </trkpt>
  <trkpt lat="47.0480700" lon="12.9259972">  <ele>2307.535</ele>  <time>2018-05-01T06:06:59.100Z</time>  </trkpt>
  <trkpt lat="47.0479191" lon="12.9262304">  <ele>2306.233</ele>  <time>2018-05-01T06:07:40.138Z</time>  </trkpt>
  <trkpt lat="47.0478255" lon="12.9262368">  <ele>2310.687</ele>  <time>2018-05-01T06:07:48.994Z</time>  </trkpt>
  <trkpt lat="47.0478255" lon="12.9262368">  <ele>2323.819</ele>  <time>2018-05-01T06:08:00.994Z</time>  </trkpt>
  <trkpt lat="47.0478255" lon="12.9262368">  <ele>2334.554</ele>  <time>2018-05-01T06:08:20.993Z</time>  </trkpt>
  <trkpt lat="47.0478255" lon="12.9262368">  <ele>2333.418</ele>  <time>2018-05-01T06:08:21.093Z</time>  </trkpt>
  <trkpt lat="47.0476542" lon="12.9261910">  <ele>2328.037</ele>  <time>2018-05-01T06:10:29.561Z</time>  </trkpt>
  <trkpt lat="47.0477145" lon="12.9262968">  <ele>2329.170</ele>  <time>2018-05-01T06:11:06.826Z</time>  </trkpt>
  <trkpt lat="47.0477240" lon="12.9264300">  <ele>2337.133</ele>  <time>2018-05-01T06:11:34.677Z</time>  </trkpt>
  <trkpt lat="47.0476305" lon="12.9264225">  <ele>2345.879</ele>  <time>2018-05-01T06:12:03.269Z</time>  </trkpt>
  <trkpt lat="47.0475949" lon="12.9265473">  <ele>2352.171</ele>  <time>2018-05-01T06:12:31.422Z</time>  </trkpt>
  <trkpt lat="47.0474913" lon="12.9265781">  <ele>2356.875</ele>  <time>2018-05-01T06:13:10.996Z</time>  </trkpt>
  <trkpt lat="47.0474913" lon="12.9265781">  <ele>2360.474</ele>  <time>2018-05-01T06:13:42.995Z</time>  </trkpt>
  <trkpt lat="47.0474913" lon="12.9265781">  <ele>2361.861</ele>  <time>2018-05-01T06:15:26.653Z</time>  </trkpt>
  <trkpt lat="47.0472788" lon="12.9266535">  <ele>2360.703</ele>  <time>2018-05-01T06:18:00.999Z</time>  </trkpt>
  <trkpt lat="47.0472788" lon="12.9266535">  <ele>2358.835</ele>  <time>2018-05-01T06:18:04.999Z</time>  </trkpt>
  <trkpt lat="47.0472788" lon="12.9266535">  <ele>2357.819</ele>  <time>2018-05-01T06:18:08.290Z</time>  </trkpt>
  <trkpt lat="47.0471993" lon="12.9267318">  <ele>2356.828</ele>  <time>2018-05-01T06:18:52.998Z</time>  </trkpt>
  <trkpt lat="47.0471993" lon="12.9267318">  <ele>2356.299</ele>  <time>2018-05-01T06:19:01.998Z</time>  </trkpt>
  <trkpt lat="47.0471993" lon="12.9267318">  <ele>2355.777</ele>  <time>2018-05-01T06:19:02.098Z</time>  </trkpt>
  <trkpt lat="47.0471762" lon="12.9270106">  <ele>2355.020</ele>  <time>2018-05-01T06:22:34.993Z</time>  </trkpt>
  <trkpt lat="47.0471762" lon="12.9270106">  <ele>2354.250</ele>  <time>2018-05-01T06:22:38.993Z</time>  </trkpt>
  <trkpt lat="47.0471762" lon="12.9270106">  <ele>2353.574</ele>  <time>2018-05-01T06:23:35.412Z</time>  </trkpt>
  <trkpt lat="47.0470698" lon="12.9271634">  <ele>2352.885</ele>  <time>2018-05-01T06:23:51.992Z</time>  </trkpt>
  <trkpt lat="47.0470698" lon="12.9271634">  <ele>2352.276</ele>  <time>2018-05-01T06:24:06.991Z</time>  </trkpt>
  <trkpt lat="47.0470698" lon="12.9271634">  <ele>2351.628</ele>  <time>2018-05-01T06:24:52.523Z</time>  </trkpt>
  <trkpt lat="47.0468947" lon="12.9272363">  <ele>2350.859</ele>  <time>2018-05-01T06:25:04.999Z</time>  </trkpt>
  <trkpt lat="47.0468947" lon="12.9272363">  <ele>2350.192</ele>  <time>2018-05-01T06:25:23.998Z</time>  </trkpt>
  <trkpt lat="47.0468947" lon="12.9272363">  <ele>2349.559</ele>  <time>2018-05-01T06:26:10.554Z</time>  </trkpt>
  <trkpt lat="47.0469648" lon="12.9274192">  <ele>2348.825</ele>  <time>2018-05-01T06:26:51.648Z</time>  </trkpt>
  <trkpt lat="47.0470184" lon="12.9275292">  <ele>2358.143</ele>  <time>2018-05-01T06:27:07.880Z</time>  </trkpt>
  <trkpt lat="47.0470943" lon="12.9276165">  <ele>2383.763</ele>  <time>2018-05-01T06:27:22.996Z</time>  </trkpt>
  <trkpt lat="47.0470943" lon="12.9276165">  <ele>2410.429</ele>  <time>2018-05-01T06:27:48.996Z</time>  </trkpt>
  <trkpt lat="47.0470943" lon="12.9276165">  <ele>2421.529</ele>  <time>2018-05-01T06:27:49.096Z</time>  </trkpt>
  <trkpt lat="47.0472141" lon="12.9277017">  <ele>2419.043</ele>  <time>2018-05-01T06:27:58.996Z</time>  </trkpt>
  <trkpt lat="47.0472141" lon="12.9277017">  <ele>2413.456</ele>  <time>2018-05-01T06:28:11.995Z</time>  </trkpt>
  <trkpt lat="47.0472141" lon="12.9277017">  <ele>2412.168</ele>  <time>2018-05-01T06:28:12.095Z</time>  </trkpt>
  <trkpt lat="47.0473148" lon="12.9277660">  <ele>2413.982</ele>  <time>2018-05-01T06:29:27.994Z</time>  </trkpt>
  <trkpt lat="47.0473148" lon="12.9277660">  <ele>2415.013</ele>  <time>2018-05-01T06:29:28.994Z</time>  </trkpt>
  <trkpt lat="47.0473148" lon="12.9277660">  <ele>2414.119</ele>  <time>2018-05-01T06:29:29.094Z</time>  </trkpt>
  <trkpt lat="47.0473148" lon="12.9277660">  <ele>2412.060</ele>  <time>2018-05-01T06:29:48.993Z</time>  </trkpt>
  <trkpt lat="47.0473148" lon="12.9277660">  <ele>2411.649</ele>  <time>2018-05-01T06:29:49.923Z</time>  </trkpt>
  <trkpt lat="47.0472564" lon="12.9278945">  <ele>2409.877</ele>  <time>2018-05-01T06:30:02.993Z</time>  </trkpt>
  <trkpt lat="47.0472564" lon="12.9278945">  <ele>2409.285</ele>  <time>2018-05-01T06:30:07.993Z</time>  </trkpt>
  <trkpt lat="47.0472564" lon="12.9278945">  <ele>2408.815</ele>  <time>2018-05-01T06:30:08.093Z</time>  </trkpt>
  <trkpt lat="47.0471718" lon="12.9279710">  <ele>2407.049</ele>  <time>2018-05-01T06:30:29.703Z</time>  </trkpt>
  <trkpt lat="47.0470901" lon="12.9280272">  <ele>2411.231</ele>  <time>2018-05-01T06:30:47.870Z</time>  </trkpt>
  <trkpt lat="47.0470140" lon="12.9281222">  <ele>2423.891</ele>  <time>2018-05-01T06:31:07.992Z</time>  </trkpt>
  <trkpt lat="47.0470140" lon="12.9281222">  <ele>2437.836</ele>  <time>2018-05-01T06:31:59.999Z</time>  </trkpt>
  <trkpt lat="47.0470140" lon="12.9281222">  <ele>2443.925</ele>  <time>2018-05-01T06:32:02.131Z</time>  </trkpt>
  <trkpt lat="47.0470870" lon="12.9282066">  <ele>2437.877</ele>  <time>2018-05-01T06:32:19.999Z</time>  </trkpt>
  <trkpt lat="47.0470870" lon="12.9282066">  <ele>2435.138</ele>  <time>2018-05-01T06:32:33.999Z</time>  </trkpt>
  <trkpt lat="47.0470870" lon="12.9282066">  <ele>2434.317</ele>  <time>2018-05-01T06:32:34.099Z</time>  </trkpt>
  <trkpt lat="47.0471953" lon="12.9282673">  <ele>2434.485</ele>  <time>2018-05-01T06:32:43.998Z</time>  </trkpt>
  <trkpt lat="47.0471953" lon="12.9282673">  <ele>2434.467</ele>  <time>2018-05-01T06:32:50.998Z</time>  </trkpt>
  <trkpt lat="47.0471953" lon="12.9282673">  <ele>2433.615</ele>  <time>2018-05-01T06:32:51.098Z</time>  </trkpt>
  <trkpt lat="47.0470239" lon="12.9283653">  <ele>2432.433</ele>  <time>2018-05-01T06:33:06.998Z</time>  </trkpt>
  <trkpt lat="47.0470239" lon="12.9283653">  <ele>2431.694</ele>  <time>2018-05-01T06:33:15.998Z</time>  </trkpt>
  <trkpt lat="47.0470239" lon="12.9283653">  <ele>2431.190</ele>  <time>2018-05-01T06:33:58.662Z</time>  </trkpt>
  <trkpt lat="47.0470567" lon="12.9285098">  <ele>2429.473</ele>  <time>2018-05-01T06:34:34.996Z</time>  </trkpt>
  <trkpt lat="47.0470567" lon="12.9285098">  <ele>2428.902</ele>  <time>2018-05-01T06:34:37.996Z</time>  </trkpt>
  <trkpt lat="47.0470567" lon="12.9285098">  <ele>2428.430</ele>  <time>2018-05-01T06:35:03.996Z</time>  </trkpt>
  <trkpt lat="47.0470567" lon="12.9285098">  <ele>2427.589</ele>  <time>2018-05-01T06:35:04.096Z</time>  </trkpt>
  <trkpt lat="47.0470567" lon="12.9285098">  <ele>2425.850</ele>  <time>2018-05-01T06:35:45.995Z</time>  </trkpt>
  <trkpt lat="47.0470567" lon="12.9285098">  <ele>2425.273</ele>  <time>2018-05-01T06:35:46.095Z</time>  </trkpt>
  <trkpt lat="47.0469217" lon="12.9287084">  <ele>2424.570</ele>  <time>2018-05-01T06:36:34.994Z</time>  </trkpt>
  <trkpt lat="47.0469217" lon="12.9287084">  <ele>2423.850</ele>  <time>2018-05-01T06:36:35.994Z</time>  </trkpt>
  <trkpt lat="47.0469217" lon="12.9287084">  <ele>2423.146</ele>  <time>2018-05-01T06:36:39.578Z</time>  </trkpt>
  <trkpt lat="47.0467210" lon="12.9287885">  <ele>2422.394</ele>  <time>2018-05-01T06:37:02.813Z</time>  </trkpt>
  <trkpt lat="47.0466682" lon="12.9286765">  <ele>2428.767</ele>  <time>2018-05-01T06:37:08.993Z</time>  </trkpt>
  <trkpt lat="47.0466682" lon="12.9286765">  <ele>2446.582</ele>  <time>2018-05-01T06:37:18.993Z</time>  </trkpt>
  <trkpt lat="47.0466682" lon="12.9286765">  <ele>2461.203</ele>  <time>2018-05-01T06:37:19.093Z</time>  </trkpt>
  <trkpt lat="47.0467904" lon="12.9287717">  <ele>2459.949</ele>  <time>2018-05-01T06:37:26.993Z</time>  </trkpt>
  <trkpt lat="47.0467904" lon="12.9287717">  <ele>2452.814</ele>  <time>2018-05-01T06:37:33.993Z</time>  </trkpt>
  <trkpt lat="47.0467904" lon="12.9287717">  <ele>2451.228</ele>  <time>2018-05-01T06:37:34.093Z</time>  </trkpt>
  <trkpt lat="47.0469523" lon="12.9289228">  <ele>2453.915</ele>  <time>2018-05-01T06:38:37.183Z</time>  </trkpt>
  <trkpt lat="47.0470241" lon="12.9290118">  <ele>2459.682</ele>  <time>2018-05-01T06:38:53.998Z</time>  </trkpt>
  <trkpt lat="47.0470241" lon="12.9290118">  <ele>2469.354</ele>  <time>2018-05-01T06:39:02.999Z</time>  </trkpt>
  <trkpt lat="47.0470241" lon="12.9290118">  <ele>2476.284</ele>  <time>2018-05-01T06:39:03.099Z</time>  </trkpt>
  <trkpt lat="47.0471211" lon="12.9290582">  <ele>2475.045</ele>  <time>2018-05-01T06:39:20.999Z</time>  </trkpt>
  <trkpt lat="47.0471211" lon="12.9290582">  <ele>2470.931</ele>  <time>2018-05-01T06:39:31.999Z</time>  </trkpt>
  <trkpt lat="47.0471211" lon="12.9290582">  <ele>2469.647</ele>  <time>2018-05-01T06:39:50.387Z</time>  </trkpt>
  <trkpt lat="47.0472156" lon="12.9291707">  <ele>2470.640</ele>  <time>2018-05-01T06:40:15.998Z</time>  </trkpt>
  <trkpt lat="47.0472156" lon="12.9291707">  <ele>2471.184</ele>  <time>2018-05-01T06:40:25.998Z</time>  </trkpt>
  <trkpt lat="47.0472156" lon="12.9291707">  <ele>2470.292</ele>  <time>2018-05-01T06:40:26.098Z</time>  </trkpt>
  <trkpt lat="47.0471298" lon="12.9292265">  <ele>2468.963</ele>  <time>2018-05-01T06:40:40.997Z</time>  </trkpt>
  <trkpt lat="47.0471298" lon="12.9292265">  <ele>2468.253</ele>  <time>2018-05-01T06:40:45.997Z</time>  </trkpt>
  <trkpt lat="47.0471298" lon="12.9292265">  <ele>2467.790</ele>  <time>2018-05-01T06:40:46.097Z</time>  </trkpt>
  <trkpt lat="47.0470460" lon="12.9293012">  <ele>2466.011</ele>  <time>2018-05-01T06:41:46.996Z</time>  </trkpt>
  <trkpt lat="47.0470460" lon="12.9293012">  <ele>2465.416</ele>  <time>2018-05-01T06:41:53.996Z</time>  </trkpt>
  <trkpt lat="47.0470460" lon="12.9293012">  <ele>2464.935</ele>  <time>2018-05-01T06:42:19.665Z</time>  </trkpt>
  <trkpt lat="47.0469452" lon="12.9295308">  <ele>2464.169</ele>  <time>2018-05-01T06:43:23.483Z</time>  </trkpt>
  <trkpt lat="47.0470275" lon="12.9295956">  <ele>2469.335</ele>  <time>2018-05-01T06:43:35.951Z</time>  </trkpt>
  <trkpt lat="47.0471128" lon="12.9296633">  <ele>2484.466</ele>  <time>2018-05-01T06:43:47.803Z</time>  </trkpt>
  <trkpt lat="47.0471935" lon="12.9297256">  <ele>2501.033</ele>  <time>2018-05-01T06:43:58.994Z</time>  </trkpt>
  <trkpt lat="47.0471935" lon="12.9297256">  <ele>2510.399</ele>  <time>2018-05-01T06:44:12.993Z</time>  </trkpt>
  <trkpt lat="47.0471935" lon="12.9297256">  <ele>2512.871</ele>  <time>2018-05-01T06:48:43.816Z</time>  </trkpt>
  <trkpt lat="47.0473393" lon="12.9299731">  <ele>2511.189</ele>  <time>2018-05-01T06:53:29.881Z</time>  </trkpt>
  <trkpt lat="47.0473501" lon="12.9301061">  <ele>2509.265</ele>  <time>2018-05-01T06:53:43.265Z</time>  </trkpt>
  <trkpt lat="47.0473979" lon="12.9302276">  <ele>2509.251</ele>  <time>2018-05-01T06:53:57.349Z</time>  </trkpt>
  <trkpt lat="47.0474312" lon="12.9303518">  <ele>2509.731</ele>  <time>2018-05-01T06:54:11.004Z</time>  </trkpt>
  <trkpt lat="47.0474502" lon="12.9304873">  <ele>2508.901</ele>  <time>2018-05-01T06:54:23.954Z</time>  </trkpt>
  <trkpt lat="47.0475121" lon="12.9305936">  <ele>2507.321</ele>  <time>2018-05-01T06:54:34.056Z</time>  </trkpt>
  <trkpt lat="47.0475813" lon="12.9306909">  <ele>2506.230</ele>  <time>2018-05-01T06:54:45.016Z</time>  </trkpt>
  <trkpt lat="47.0475964" lon="12.9308277">  <ele>2505.869</ele>  <time>2018-05-01T06:54:57.125Z</time>  </trkpt>
  <trkpt lat="47.0476344" lon="12.9309554">  <ele>2506.054</ele>  <time>2018-05-01T06:55:10.286Z</time>  </trkpt>
  <trkpt lat="47.0476874" lon="12.9310725">  <ele>2506.687</ele>  <time>2018-05-01T06:55:23.918Z</time>  </trkpt>
  <trkpt lat="47.0477157" lon="12.9311980">  <ele>2507.507</ele>  <time>2018-05-01T06:55:37.997Z</time>  </trkpt>
  <trkpt lat="47.0477157" lon="12.9311980">  <ele>2507.943</ele>  <time>2018-05-01T06:55:49.997Z</time>  </trkpt>
  <trkpt lat="47.0477157" lon="12.9311980">  <ele>2507.480</ele>  <time>2018-05-01T06:57:08.629Z</time>  </trkpt>
  <trkpt lat="47.0478079" lon="12.9313494">  <ele>2506.339</ele>  <time>2018-05-01T06:57:23.937Z</time>  </trkpt>
  <trkpt lat="47.0477891" lon="12.9314846">  <ele>2506.806</ele>  <time>2018-05-01T06:57:33.237Z</time>  </trkpt>
  <trkpt lat="47.0478671" lon="12.9315525">  <ele>2510.265</ele>  <time>2018-05-01T06:57:44.022Z</time>  </trkpt>
  <trkpt lat="47.0478587" lon="12.9316901">  <ele>2514.251</ele>  <time>2018-05-01T06:57:55.230Z</time>  </trkpt>
  <trkpt lat="47.0479069" lon="12.9318101">  <ele>2516.239</ele>  <time>2018-05-01T06:58:06.283Z</time>  </trkpt>
  <trkpt lat="47.0479820" lon="12.9318955">  <ele>2516.434</ele>  <time>2018-05-01T06:58:17.876Z</time>  </trkpt>
  <trkpt lat="47.0479937" lon="12.9320345">  <ele>2515.906</ele>  <time>2018-05-01T06:58:33.154Z</time>  </trkpt>
  <trkpt lat="47.0480221" lon="12.9321643">  <ele>2516.035</ele>  <time>2018-05-01T06:58:46.753Z</time>  </trkpt>
  <trkpt lat="47.0480466" lon="12.9322950">  <ele>2517.272</ele>  <time>2018-05-01T06:58:59.845Z</time>  </trkpt>
  <trkpt lat="47.0480820" lon="12.9324176">  <ele>2518.530</ele>  <time>2018-05-01T06:59:13.993Z</time>  </trkpt>
  <trkpt lat="47.0480820" lon="12.9324176">  <ele>2518.837</ele>  <time>2018-05-01T06:59:21.993Z</time>  </trkpt>
  <trkpt lat="47.0480820" lon="12.9324176">  <ele>2518.168</ele>  <time>2018-05-01T06:59:22.093Z</time>  </trkpt>
  <trkpt lat="47.0481348" lon="12.9325369">  <ele>2517.024</ele>  <time>2018-05-01T06:59:38.213Z</time>  </trkpt>
  <trkpt lat="47.0481710" lon="12.9326669">  <ele>2516.302</ele>  <time>2018-05-01T06:59:49.993Z</time>  </trkpt>
  <trkpt lat="47.0481710" lon="12.9326669">  <ele>2516.420</ele>  <time>2018-05-01T06:59:58.993Z</time>  </trkpt>
  <trkpt lat="47.0481710" lon="12.9326669">  <ele>2516.381</ele>  <time>2018-05-01T07:00:32.613Z</time>  </trkpt>
  <trkpt lat="47.0482369" lon="12.9328838">  <ele>2515.363</ele>  <time>2018-05-01T07:01:01.086Z</time>  </trkpt>
  <trkpt lat="47.0482972" lon="12.9329917">  <ele>2514.633</ele>  <time>2018-05-01T07:01:12.504Z</time>  </trkpt>
  <trkpt lat="47.0483453" lon="12.9331103">  <ele>2515.708</ele>  <time>2018-05-01T07:01:23.566Z</time>  </trkpt>
  <trkpt lat="47.0484025" lon="12.9332143">  <ele>2517.885</ele>  <time>2018-05-01T07:01:33.910Z</time>  </trkpt>
  <trkpt lat="47.0484767" lon="12.9333074">  <ele>2519.749</ele>  <time>2018-05-01T07:01:46.365Z</time>  </trkpt>
  <trkpt lat="47.0485455" lon="12.9334029">  <ele>2521.121</ele>  <time>2018-05-01T07:02:00.726Z</time>  </trkpt>
  <trkpt lat="47.0486249" lon="12.9334723">  <ele>2522.362</ele>  <time>2018-05-01T07:02:15.809Z</time>  </trkpt>
  <trkpt lat="47.0487057" lon="12.9335344">  <ele>2523.384</ele>  <time>2018-05-01T07:02:29.314Z</time>  </trkpt>
  <trkpt lat="47.0487956" lon="12.9335774">  <ele>2524.083</ele>  <time>2018-05-01T07:02:42.843Z</time>  </trkpt>
  <trkpt lat="47.0488797" lon="12.9336389">  <ele>2524.708</ele>  <time>2018-05-01T07:02:56.111Z</time>  </trkpt>
  <trkpt lat="47.0489689" lon="12.9336901">  <ele>2525.430</ele>  <time>2018-05-01T07:03:09.287Z</time>  </trkpt>
  <trkpt lat="47.0490587" lon="12.9337384">  <ele>2526.117</ele>  <time>2018-05-01T07:03:22.358Z</time>  </trkpt>
  <trkpt lat="47.0491404" lon="12.9337941">  <ele>2527.074</ele>  <time>2018-05-01T07:03:34.763Z</time>  </trkpt>
  <trkpt lat="47.0492323" lon="12.9338176">  <ele>2528.747</ele>  <time>2018-05-01T07:03:48.244Z</time>  </trkpt>
  <trkpt lat="47.0493235" lon="12.9338366">  <ele>2531.152</ele>  <time>2018-05-01T07:04:01.567Z</time>  </trkpt>
  <trkpt lat="47.0494180" lon="12.9338164">  <ele>2533.907</ele>  <time>2018-05-01T07:04:13.996Z</time>  </trkpt>
  <trkpt lat="47.0494180" lon="12.9338164">  <ele>2536.210</ele>  <time>2018-05-01T07:04:27.995Z</time>  </trkpt>
  <trkpt lat="47.0494180" lon="12.9338164">  <ele>2536.830</ele>  <time>2018-05-01T07:04:28.095Z</time>  </trkpt>
  <trkpt lat="47.0495656" lon="12.9338390">  <ele>2535.654</ele>  <time>2018-05-01T07:04:35.995Z</time>  </trkpt>
  <trkpt lat="47.0495656" lon="12.9338390">  <ele>2534.060</ele>  <time>2018-05-01T07:04:37.995Z</time>  </trkpt>
  <trkpt lat="47.0495656" lon="12.9338390">  <ele>2533.119</ele>  <time>2018-05-01T07:04:38.095Z</time>  </trkpt>
  <trkpt lat="47.0496744" lon="12.9339144">  <ele>2532.724</ele>  <time>2018-05-01T07:05:32.348Z</time>  </trkpt>
  <trkpt lat="47.0497660" lon="12.9338857">  <ele>2533.767</ele>  <time>2018-05-01T07:05:46.477Z</time>  </trkpt>
  <trkpt lat="47.0498525" lon="12.9339427">  <ele>2537.467</ele>  <time>2018-05-01T07:05:55.636Z</time>  </trkpt>
  <trkpt lat="47.0499344" lon="12.9338871">  <ele>2542.347</ele>  <time>2018-05-01T07:06:05.573Z</time>  </trkpt>
  <trkpt lat="47.0500253" lon="12.9339103">  <ele>2545.838</ele>  <time>2018-05-01T07:06:17.664Z</time>  </trkpt>
  <trkpt lat="47.0501289" lon="12.9339746">  <ele>2547.451</ele>  <time>2018-05-01T07:06:40.328Z</time>  </trkpt>
  <trkpt lat="47.0502171" lon="12.9340079">  <ele>2548.581</ele>  <time>2018-05-01T07:06:58.993Z</time>  </trkpt>
  <trkpt lat="47.0502171" lon="12.9340079">  <ele>2550.284</ele>  <time>2018-05-01T07:06:58.993Z</time>  </trkpt>
  <trkpt lat="47.0502171" lon="12.9340079">  <ele>2551.238</ele>  <time>2018-05-01T07:07:08.193Z</time>  </trkpt>
  <trkpt lat="47.0502945" lon="12.9340823">  <ele>2548.347</ele>  <time>2018-05-01T07:07:33.998Z</time>  </trkpt>
  <trkpt lat="47.0502945" lon="12.9340823">  <ele>2547.302</ele>  <time>2018-05-01T07:07:41.999Z</time>  </trkpt>
  <trkpt lat="47.0502945" lon="12.9340823">  <ele>2546.762</ele>  <time>2018-05-01T07:07:42.099Z</time>  </trkpt>
  <trkpt lat="47.0504409" lon="12.9342064">  <ele>2546.158</ele>  <time>2018-05-01T07:07:54.999Z</time>  </trkpt>
  <trkpt lat="47.0504409" lon="12.9342064">  <ele>2545.445</ele>  <time>2018-05-01T07:08:07.999Z</time>  </trkpt>
  <trkpt lat="47.0504409" lon="12.9342064">  <ele>2544.656</ele>  <time>2018-05-01T07:08:08.099Z</time>  </trkpt>
  <trkpt lat="47.0506387" lon="12.9341672">  <ele>2543.828</ele>  <time>2018-05-01T07:09:11.998Z</time>  </trkpt>
  <trkpt lat="47.0506387" lon="12.9341672">  <ele>2543.174</ele>  <time>2018-05-01T07:09:15.998Z</time>  </trkpt>
  <trkpt lat="47.0506387" lon="12.9341672">  <ele>2542.512</ele>  <time>2018-05-01T07:09:22.631Z</time>  </trkpt>
  <trkpt lat="47.0507717" lon="12.9342693">  <ele>2541.688</ele>  <time>2018-05-01T07:10:07.370Z</time>  </trkpt>
  <trkpt lat="47.0508618" lon="12.9343146">  <ele>2546.215</ele>  <time>2018-05-01T07:10:32.723Z</time>  </trkpt>
  <trkpt lat="47.0509481" lon="12.9343556">  <ele>2560.077</ele>  <time>2018-05-01T07:10:54.848Z</time>  </trkpt>
  <trkpt lat="47.0510386" lon="12.9343970">  <ele>2575.872</ele>  <time>2018-05-01T07:11:18.107Z</time>  </trkpt>
  <trkpt lat="47.0511076" lon="12.9344916">  <ele>2585.944</ele>  <time>2018-05-01T07:11:41.256Z</time>  </trkpt>
  <trkpt lat="47.0511512" lon="12.9346194">  <ele>2591.485</ele>  <time>2018-05-01T07:12:01.299Z</time>  </trkpt>
  <trkpt lat="47.0512362" lon="12.9346698">  <ele>2594.532</ele>  <time>2018-05-01T07:12:18.995Z</time>  </trkpt>
  <trkpt lat="47.0512362" lon="12.9346698">  <ele>2595.698</ele>  <time>2018-05-01T07:12:19.995Z</time>  </trkpt>
  <trkpt lat="47.0512362" lon="12.9346698">  <ele>2595.371</ele>  <time>2018-05-01T07:12:20.309Z</time>  </trkpt>
  <trkpt lat="47.0513075" lon="12.9347701">  <ele>2593.058</ele>  <time>2018-05-01T07:12:31.366Z</time>  </trkpt>
  <trkpt lat="47.0513969" lon="12.9347942">  <ele>2593.788</ele>  <time>2018-05-01T07:12:36.994Z</time>  </trkpt>
  <trkpt lat="47.0513969" lon="12.9347942">  <ele>2596.945</ele>  <time>2018-05-01T07:12:39.994Z</time>  </trkpt>
  <trkpt lat="47.0513969" lon="12.9347942">  <ele>2599.282</ele>  <time>2018-05-01T07:12:59.693Z</time>  </trkpt>
  <trkpt lat="47.0515143" lon="12.9350363">  <ele>2598.172</ele>  <time>2018-05-01T07:13:12.994Z</time>  </trkpt>
  <trkpt lat="47.0515143" lon="12.9350363">  <ele>2595.779</ele>  <time>2018-05-01T07:13:22.993Z</time>  </trkpt>
  <trkpt lat="47.0515143" lon="12.9350363">  <ele>2594.610</ele>  <time>2018-05-01T07:13:50.909Z</time>  </trkpt>
  <trkpt lat="47.0515841" lon="12.9351193">  <ele>2593.702</ele>  <time>2018-05-01T07:14:08.782Z</time>  </trkpt>
  <trkpt lat="47.0515114" lon="12.9352081">  <ele>2595.307</ele>  <time>2018-05-01T07:14:21.711Z</time>  </trkpt>
  <trkpt lat="47.0515047" lon="12.9353413">  <ele>2600.832</ele>  <time>2018-05-01T07:14:34.765Z</time>  </trkpt>
  <trkpt lat="47.0515897" lon="12.9353865">  <ele>2606.916</ele>  <time>2018-05-01T07:14:45.998Z</time>  </trkpt>
  <trkpt lat="47.0515897" lon="12.9353865">  <ele>2609.741</ele>  <time>2018-05-01T07:14:53.999Z</time>  </trkpt>
  <trkpt lat="47.0515897" lon="12.9353865">  <ele>2609.443</ele>  <time>2018-05-01T07:15:43.665Z</time>  </trkpt>
  <trkpt lat="47.0516469" lon="12.9356408">  <ele>2607.938</ele>  <time>2018-05-01T07:16:04.998Z</time>  </trkpt>
  <trkpt lat="47.0516469" lon="12.9356408">  <ele>2606.870</ele>  <time>2018-05-01T07:16:13.998Z</time>  </trkpt>
  <trkpt lat="47.0516469" lon="12.9356408">  <ele>2606.246</ele>  <time>2018-05-01T07:16:14.098Z</time>  </trkpt>
  <trkpt lat="47.0517295" lon="12.9357092">  <ele>2604.545</ele>  <time>2018-05-01T07:17:04.944Z</time>  </trkpt>
  <trkpt lat="47.0517769" lon="12.9355971">  <ele>2606.176</ele>  <time>2018-05-01T07:17:10.276Z</time>  </trkpt>
  <trkpt lat="47.0518466" lon="12.9354779">  <ele>2612.106</ele>  <time>2018-05-01T07:17:15.997Z</time>  </trkpt>
  <trkpt lat="47.0518466" lon="12.9354779">  <ele>2618.840</ele>  <time>2018-05-01T07:17:34.997Z</time>  </trkpt>
  <trkpt lat="47.0518466" lon="12.9354779">  <ele>2621.615</ele>  <time>2018-05-01T07:17:42.244Z</time>  </trkpt>
  <trkpt lat="47.0519352" lon="12.9353422">  <ele>2620.183</ele>  <time>2018-05-01T07:17:56.996Z</time>  </trkpt>
  <trkpt lat="47.0519352" lon="12.9353422">  <ele>2617.639</ele>  <time>2018-05-01T07:18:19.996Z</time>  </trkpt>
  <trkpt lat="47.0519352" lon="12.9353422">  <ele>2616.478</ele>  <time>2018-05-01T07:18:20.096Z</time>  </trkpt>
  <trkpt lat="47.0520301" lon="12.9354314">  <ele>2616.515</ele>  <time>2018-05-01T07:18:52.995Z</time>  </trkpt>
  <trkpt lat="47.0520301" lon="12.9354314">  <ele>2616.522</ele>  <time>2018-05-01T07:19:04.995Z</time>  </trkpt>
  <trkpt lat="47.0520301" lon="12.9354314">  <ele>2615.712</ele>  <time>2018-05-01T07:19:05.095Z</time>  </trkpt>
  <trkpt lat="47.0520749" lon="12.9356090">  <ele>2614.463</ele>  <time>2018-05-01T07:19:31.995Z</time>  </trkpt>
  <trkpt lat="47.0520749" lon="12.9356090">  <ele>2613.600</ele>  <time>2018-05-01T07:19:42.994Z</time>  </trkpt>
  <trkpt lat="47.0520749" lon="12.9356090">  <ele>2613.022</ele>  <time>2018-05-01T07:19:43.004Z</time>  </trkpt>
  <trkpt lat="47.0521410" lon="12.9357186">  <ele>2611.219</ele>  <time>2018-05-01T07:19:54.994Z</time>  </trkpt>
  <trkpt lat="47.0521410" lon="12.9357186">  <ele>2610.609</ele>  <time>2018-05-01T07:20:08.994Z</time>  </trkpt>
  <trkpt lat="47.0521410" lon="12.9357186">  <ele>2610.098</ele>  <time>2018-05-01T07:20:09.094Z</time>  </trkpt>
  <trkpt lat="47.0521410" lon="12.9357186">  <ele>2608.173</ele>  <time>2018-05-01T07:20:43.993Z</time>  </trkpt>
  <trkpt lat="47.0521410" lon="12.9357186">  <ele>2607.384</ele>  <time>2018-05-01T07:20:44.093Z</time>  </trkpt>
  <trkpt lat="47.0521846" lon="12.9358392">  <ele>2606.719</ele>  <time>2018-05-01T07:20:44.993Z</time>  </trkpt>
  <trkpt lat="47.0521846" lon="12.9358392">  <ele>2606.107</ele>  <time>2018-05-01T07:20:47.993Z</time>  </trkpt>
  <trkpt lat="47.0521846" lon="12.9358392">  <ele>2605.374</ele>  <time>2018-05-01T07:20:48.093Z</time>  </trkpt>
  <trkpt lat="47.0522919" lon="12.9359959">  <ele>2604.485</ele>  <time>2018-05-01T07:21:52.512Z</time>  </trkpt>
  <trkpt lat="47.0523626" lon="12.9360795">  <ele>2611.134</ele>  <time>2018-05-01T07:22:08.999Z</time>  </trkpt>
  <trkpt lat="47.0523626" lon="12.9360795">  <ele>2629.930</ele>  <time>2018-05-01T07:22:15.999Z</time>  </trkpt>
  <trkpt lat="47.0523626" lon="12.9360795">  <ele>2645.377</ele>  <time>2018-05-01T07:22:23.560Z</time>  </trkpt>
  <trkpt lat="47.0524401" lon="12.9361567">  <ele>2634.523</ele>  <time>2018-05-01T07:22:55.879Z</time>  </trkpt>
  <trkpt lat="47.0525191" lon="12.9362452">  <ele>2632.692</ele>  <time>2018-05-01T07:23:06.459Z</time>  </trkpt>
  <trkpt lat="47.0526106" lon="12.9362900">  <ele>2643.311</ele>  <time>2018-05-01T07:23:15.998Z</time>  </trkpt>
  <trkpt lat="47.0526106" lon="12.9362900">  <ele>2657.007</ele>  <time>2018-05-01T07:23:29.998Z</time>  </trkpt>
  <trkpt lat="47.0526106" lon="12.9362900">  <ele>2663.081</ele>  <time>2018-05-01T07:24:00.997Z</time>  </trkpt>
  <trkpt lat="47.0526106" lon="12.9362900">  <ele>2661.278</ele>  <time>2018-05-01T07:24:02.641Z</time>  </trkpt>
  <trkpt lat="47.0527141" lon="12.9363167">  <ele>2657.074</ele>  <time>2018-05-01T07:24:28.578Z</time>  </trkpt>
  <trkpt lat="47.0528052" lon="12.9363153">  <ele>2660.135</ele>  <time>2018-05-01T07:24:41.027Z</time>  </trkpt>
  <trkpt lat="47.0529008" lon="12.9363426">  <ele>2666.311</ele>  <time>2018-05-01T07:24:47.997Z</time>  </trkpt>
  <trkpt lat="47.0529008" lon="12.9363426">  <ele>2672.872</ele>  <time>2018-05-01T07:25:18.996Z</time>  </trkpt>
  <trkpt lat="47.0529008" lon="12.9363426">  <ele>2675.730</ele>  <time>2018-05-01T07:25:19.096Z</time>  </trkpt>
  <trkpt lat="47.0530002" lon="12.9364462">  <ele>2674.303</ele>  <time>2018-05-01T07:25:50.996Z</time>  </trkpt>
  <trkpt lat="47.0530002" lon="12.9364462">  <ele>2671.693</ele>  <time>2018-05-01T07:26:08.995Z</time>  </trkpt>
  <trkpt lat="47.0530002" lon="12.9364462">  <ele>2670.502</ele>  <time>2018-05-01T07:26:09.095Z</time>  </trkpt>
  <trkpt lat="47.0529562" lon="12.9366919">  <ele>2670.549</ele>  <time>2018-05-01T07:27:18.994Z</time>  </trkpt>
  <trkpt lat="47.0529562" lon="12.9366919">  <ele>2670.562</ele>  <time>2018-05-01T07:27:37.994Z</time>  </trkpt>
  <trkpt lat="47.0529562" lon="12.9366919">  <ele>2669.734</ele>  <time>2018-05-01T07:27:38.635Z</time>  </trkpt>
  <trkpt lat="47.0530561" lon="12.9366145">  <ele>2668.458</ele>  <time>2018-05-01T07:27:44.994Z</time>  </trkpt>
  <trkpt lat="47.0530561" lon="12.9366145">  <ele>2667.578</ele>  <time>2018-05-01T07:27:53.993Z</time>  </trkpt>
  <trkpt lat="47.0530561" lon="12.9366145">  <ele>2666.989</ele>  <time>2018-05-01T07:27:54.093Z</time>  </trkpt>
  <trkpt lat="47.0531047" lon="12.9367754">  <ele>2666.259</ele>  <time>2018-05-01T07:28:32.993Z</time>  </trkpt>
  <trkpt lat="47.0531047" lon="12.9367754">  <ele>2665.465</ele>  <time>2018-05-01T07:28:41.993Z</time>  </trkpt>
  <trkpt lat="47.0531047" lon="12.9367754">  <ele>2664.668</ele>  <time>2018-05-01T07:28:47.704Z</time>  </trkpt>
  <trkpt lat="47.0531079" lon="12.9369170">  <ele>2663.836</ele>  <time>2018-05-01T07:29:15.999Z</time>  </trkpt>
  <trkpt lat="47.0531079" lon="12.9369170">  <ele>2663.146</ele>  <time>2018-05-01T07:29:17.999Z</time>  </trkpt>
  <trkpt lat="47.0531079" lon="12.9369170">  <ele>2662.435</ele>  <time>2018-05-01T07:29:20.100Z</time>  </trkpt>
  <trkpt lat="47.0531997" lon="12.9368906">  <ele>2660.554</ele>  <time>2018-05-01T07:29:38.999Z</time>  </trkpt>
  <trkpt lat="47.0531997" lon="12.9368906">  <ele>2660.040</ele>  <time>2018-05-01T07:30:43.998Z</time>  </trkpt>
  <trkpt lat="47.0531997" lon="12.9368906">  <ele>2659.557</ele>  <time>2018-05-01T07:30:44.098Z</time>  </trkpt>
  <trkpt lat="47.0533494" lon="12.9369462">  <ele>2658.678</ele>  <time>2018-05-01T07:31:52.997Z</time>  </trkpt>
  <trkpt lat="47.0533494" lon="12.9369462">  <ele>2657.725</ele>  <time>2018-05-01T07:32:01.997Z</time>  </trkpt>
  <trkpt lat="47.0533494" lon="12.9369462">  <ele>2656.939</ele>  <time>2018-05-01T07:32:02.097Z</time>  </trkpt>
  <trkpt lat="47.0533777" lon="12.9370863">  <ele>2655.204</ele>  <time>2018-05-01T07:32:44.426Z</time>  </trkpt>
  <trkpt lat="47.0533312" lon="12.9372075">  <ele>2664.015</ele>  <time>2018-05-01T07:33:13.995Z</time>  </trkpt>
  <trkpt lat="47.0533312" lon="12.9372075">  <ele>2688.194</ele>  <time>2018-05-01T07:33:16.995Z</time>  </trkpt>
  <trkpt lat="47.0533312" lon="12.9372075">  <ele>2708.075</ele>  <time>2018-05-01T07:34:01.994Z</time>  </trkpt>
  <trkpt lat="47.0533312" lon="12.9372075">  <ele>2706.628</ele>  <time>2018-05-01T07:34:02.094Z</time>  </trkpt>
  <trkpt lat="47.0533099" lon="12.9373375">  <ele>2696.120</ele>  <time>2018-05-01T07:34:23.994Z</time>  </trkpt>
  <trkpt lat="47.0533099" lon="12.9373375">  <ele>2700.441</ele>  <time>2018-05-01T07:34:23.994Z</time>  </trkpt>
  <trkpt lat="47.0533099" lon="12.9373375">  <ele>2703.025</ele>  <time>2018-05-01T07:34:24.094Z</time>  </trkpt>
  <trkpt lat="47.0532870" lon="12.9374821">  <ele>2699.058</ele>  <time>2018-05-01T07:35:06.993Z</time>  </trkpt>
  <trkpt lat="47.0532870" lon="12.9374821">  <ele>2697.362</ele>  <time>2018-05-01T07:35:10.993Z</time>  </trkpt>
  <trkpt lat="47.0532870" lon="12.9374821">  <ele>2696.673</ele>  <time>2018-05-01T07:35:22.241Z</time>  </trkpt>
  <trkpt lat="47.0532985" lon="12.9378275">  <ele>2696.283</ele>  <time>2018-05-01T07:35:53.095Z</time>  </trkpt>
  <trkpt lat="47.0532510" lon="12.9379533">  <ele>2701.808</ele>  <time>2018-05-01T07:36:02.992Z</time>  </trkpt>
  <trkpt lat="47.0532510" lon="12.9379533">  <ele>2716.840</ele>  <time>2018-05-01T07:36:10.997Z</time>  </trkpt>
  <trkpt lat="47.0532510" lon="12.9379533">  <ele>2729.027</ele>  <time>2018-05-01T07:36:50.932Z</time>  </trkpt>
  <trkpt lat="47.0532351" lon="12.9382762">  <ele>2727.693</ele>  <time>2018-05-01T07:37:23.990Z</time>  </trkpt>
  <trkpt lat="47.0532157" lon="12.9384113">  <ele>2723.596</ele>  <time>2018-05-01T07:37:34.842Z</time>  </trkpt>
  <trkpt lat="47.0532401" lon="12.9385433">  <ele>2728.163</ele>  <time>2018-05-01T07:37:46.698Z</time>  </trkpt>
  <trkpt lat="47.0532763" lon="12.9386677">  <ele>2737.510</ele>  <time>2018-05-01T07:37:57.998Z</time>  </trkpt>
  <trkpt lat="47.0532763" lon="12.9386677">  <ele>2744.258</ele>  <time>2018-05-01T07:37:58.998Z</time>  </trkpt>
  <trkpt lat="47.0532763" lon="12.9386677">  <ele>2746.372</ele>  <time>2018-05-01T07:38:03.878Z</time>  </trkpt>
  <trkpt lat="47.0533016" lon="12.9388021">  <ele>2742.397</ele>  <time>2018-05-01T07:38:17.997Z</time>  </trkpt>
  <trkpt lat="47.0533016" lon="12.9388021">  <ele>2741.015</ele>  <time>2018-05-01T07:38:30.997Z</time>  </trkpt>
  <trkpt lat="47.0533016" lon="12.9388021">  <ele>2740.409</ele>  <time>2018-05-01T07:39:01.843Z</time>  </trkpt>
  <trkpt lat="47.0534012" lon="12.9388943">  <ele>2739.871</ele>  <time>2018-05-01T07:39:50.573Z</time>  </trkpt>
  <trkpt lat="47.0534762" lon="12.9389828">  <ele>2741.895</ele>  <time>2018-05-01T07:40:03.713Z</time>  </trkpt>
  <trkpt lat="47.0535565" lon="12.9390497">  <ele>2748.434</ele>  <time>2018-05-01T07:40:11.995Z</time>  </trkpt>
  <trkpt lat="47.0535565" lon="12.9390497">  <ele>2755.465</ele>  <time>2018-05-01T07:40:17.995Z</time>  </trkpt>
  <trkpt lat="47.0535565" lon="12.9390497">  <ele>2758.005</ele>  <time>2018-05-01T07:40:23.113Z</time>  </trkpt>
  <trkpt lat="47.0536713" lon="12.9390384">  <ele>2756.392</ele>  <time>2018-05-01T07:40:37.995Z</time>  </trkpt>
  <trkpt lat="47.0536713" lon="12.9390384">  <ele>2752.682</ele>  <time>2018-05-01T07:40:52.995Z</time>  </trkpt>
  <trkpt lat="47.0536713" lon="12.9390384">  <ele>2752.281</ele>  <time>2018-05-01T07:40:53.095Z</time>  </trkpt>
  <trkpt lat="47.0538129" lon="12.9390513">  <ele>2751.676</ele>  <time>2018-05-01T07:41:16.415Z</time>  </trkpt>
  <trkpt lat="47.0539012" lon="12.9390050">  <ele>2753.100</ele>  <time>2018-05-01T07:41:27.373Z</time>  </trkpt>
  <trkpt lat="47.0539973" lon="12.9390315">  <ele>2758.348</ele>  <time>2018-05-01T07:41:37.994Z</time>  </trkpt>
  <trkpt lat="47.0539973" lon="12.9390315">  <ele>2764.080</ele>  <time>2018-05-01T07:41:48.993Z</time>  </trkpt>
  <trkpt lat="47.0539973" lon="12.9390315">  <ele>2766.113</ele>  <time>2018-05-01T07:41:49.093Z</time>  </trkpt>
  <trkpt lat="47.0541027" lon="12.9391298">  <ele>2764.616</ele>  <time>2018-05-01T07:42:09.392Z</time>  </trkpt>
  <trkpt lat="47.0541938" lon="12.9391829">  <ele>2763.135</ele>  <time>2018-05-01T07:42:16.993Z</time>  </trkpt>
  <trkpt lat="47.0541938" lon="12.9391829">  <ele>2764.164</ele>  <time>2018-05-01T07:42:16.993Z</time>  </trkpt>
  <trkpt lat="47.0541938" lon="12.9391829">  <ele>2765.372</ele>  <time>2018-05-01T07:42:17.610Z</time>  </trkpt>
  <trkpt lat="47.0543363" lon="12.9392569">  <ele>2764.292</ele>  <time>2018-05-01T07:42:32.993Z</time>  </trkpt>
  <trkpt lat="47.0543363" lon="12.9392569">  <ele>2762.239</ele>  <time>2018-05-01T07:42:44.992Z</time>  </trkpt>
  <trkpt lat="47.0543363" lon="12.9392569">  <ele>2761.035</ele>  <time>2018-05-01T07:42:45.092Z</time>  </trkpt>
  <trkpt lat="47.0544925" lon="12.9394215">  <ele>2760.733</ele>  <time>2018-05-01T07:43:16.846Z</time>  </trkpt>
  <trkpt lat="47.0545486" lon="12.9395293">  <ele>2761.904</ele>  <time>2018-05-01T07:43:27.278Z</time>  </trkpt>
  <trkpt lat="47.0545993" lon="12.9396474">  <ele>2764.849</ele>  <time>2018-05-01T07:43:37.504Z</time>  </trkpt>
  <trkpt lat="47.0546549" lon="12.9397597">  <ele>2768.108</ele>  <time>2018-05-01T07:43:46.999Z</time>  </trkpt>
  <trkpt lat="47.0546549" lon="12.9397597">  <ele>2770.268</ele>  <time>2018-05-01T07:44:00.999Z</time>  </trkpt>
  <trkpt lat="47.0546549" lon="12.9397597">  <ele>2770.713</ele>  <time>2018-05-01T07:44:01.099Z</time>  </trkpt>
  <trkpt lat="47.0547690" lon="12.9400471">  <ele>2769.440</ele>  <time>2018-05-01T07:44:30.334Z</time>  </trkpt>
  <trkpt lat="47.0548142" lon="12.9401706">  <ele>2768.343</ele>  <time>2018-05-01T07:44:37.998Z</time>  </trkpt>
  <trkpt lat="47.0548142" lon="12.9401706">  <ele>2768.850</ele>  <time>2018-05-01T07:44:49.998Z</time>  </trkpt>
  <trkpt lat="47.0548142" lon="12.9401706">  <ele>2769.348</ele>  <time>2018-05-01T07:44:56.443Z</time>  </trkpt>
  <trkpt lat="47.0549333" lon="12.9404705">  <ele>2768.246</ele>  <time>2018-05-01T07:45:22.998Z</time>  </trkpt>
  <trkpt lat="47.0549333" lon="12.9404705">  <ele>2766.556</ele>  <time>2018-05-01T07:45:39.997Z</time>  </trkpt>
  <trkpt lat="47.0549333" lon="12.9404705">  <ele>2765.515</ele>  <time>2018-05-01T07:45:40.097Z</time>  </trkpt>
  <trkpt lat="47.0549498" lon="12.9406837">  <ele>2765.060</ele>  <time>2018-05-01T07:46:07.026Z</time>  </trkpt>
  <trkpt lat="47.0549782" lon="12.9408089">  <ele>2766.869</ele>  <time>2018-05-01T07:46:19.148Z</time>  </trkpt>
  <trkpt lat="47.0550109" lon="12.9409329">  <ele>2772.035</ele>  <time>2018-05-01T07:46:34.204Z</time>  </trkpt>
  <trkpt lat="47.0550094" lon="12.9410739">  <ele>2778.061</ele>  <time>2018-05-01T07:46:50.436Z</time>  </trkpt>
  <trkpt lat="47.0550545" lon="12.9411911">  <ele>2782.422</ele>  <time>2018-05-01T07:47:06.740Z</time>  </trkpt>
  <trkpt lat="47.0551049" lon="12.9413033">  <ele>2784.868</ele>  <time>2018-05-01T07:47:22.996Z</time>  </trkpt>
  <trkpt lat="47.0551049" lon="12.9413033">  <ele>2785.604</ele>  <time>2018-05-01T07:47:33.995Z</time>  </trkpt>
  <trkpt lat="47.0551049" lon="12.9413033">  <ele>2785.074</ele>  <time>2018-05-01T07:47:34.095Z</time>  </trkpt>
  <trkpt lat="47.0552028" lon="12.9415120">  <ele>2783.826</ele>  <time>2018-05-01T07:47:51.995Z</time>  </trkpt>
  <trkpt lat="47.0552028" lon="12.9415120">  <ele>2782.710</ele>  <time>2018-05-01T07:48:09.995Z</time>  </trkpt>
  <trkpt lat="47.0552028" lon="12.9415120">  <ele>2781.980</ele>  <time>2018-05-01T07:48:10.095Z</time>  </trkpt>
  <trkpt lat="47.0552327" lon="12.9416976">  <ele>2781.295</ele>  <time>2018-05-01T07:48:19.994Z</time>  </trkpt>
  <trkpt lat="47.0552327" lon="12.9416976">  <ele>2780.587</ele>  <time>2018-05-01T07:48:25.994Z</time>  </trkpt>
  <trkpt lat="47.0552327" lon="12.9416976">  <ele>2779.769</ele>  <time>2018-05-01T07:48:26.094Z</time>  </trkpt>
  <trkpt lat="47.0552747" lon="12.9418382">  <ele>2777.825</ele>  <time>2018-05-01T07:48:38.994Z</time>  </trkpt>
  <trkpt lat="47.0552747" lon="12.9418382">  <ele>2777.330</ele>  <time>2018-05-01T07:48:41.994Z</time>  </trkpt>
  <trkpt lat="47.0552747" lon="12.9418382">  <ele>2776.838</ele>  <time>2018-05-01T07:48:52.194Z</time>  </trkpt>
  <trkpt lat="47.0552868" lon="12.9419753">  <ele>2775.902</ele>  <time>2018-05-01T07:49:02.994Z</time>  </trkpt>
  <trkpt lat="47.0552868" lon="12.9419753">  <ele>2774.888</ele>  <time>2018-05-01T07:49:13.993Z</time>  </trkpt>
  <trkpt lat="47.0552868" lon="12.9419753">  <ele>2774.069</ele>  <time>2018-05-01T07:49:24.619Z</time>  </trkpt>
  <trkpt lat="47.0552906" lon="12.9423114">  <ele>2773.307</ele>  <time>2018-05-01T07:50:15.240Z</time>  </trkpt>
  <trkpt lat="47.0552922" lon="12.9424479">  <ele>2775.397</ele>  <time>2018-05-01T07:50:28.747Z</time>  </trkpt>
  <trkpt lat="47.0552959" lon="12.9425832">  <ele>2782.432</ele>  <time>2018-05-01T07:50:41.856Z</time>  </trkpt>
  <trkpt lat="47.0553275" lon="12.9427122">  <ele>2790.809</ele>  <time>2018-05-01T07:50:54.999Z</time>  </trkpt>
  <trkpt lat="47.0553275" lon="12.9427122">  <ele>2796.133</ele>  <time>2018-05-01T07:51:01.999Z</time>  </trkpt>
  <trkpt lat="47.0553275" lon="12.9427122">  <ele>2797.539</ele>  <time>2018-05-01T07:51:12.195Z</time>  </trkpt>
  <trkpt lat="47.0554061" lon="12.9430024">  <ele>2796.038</ele>  <time>2018-05-01T07:51:40.998Z</time>  </trkpt>
  <trkpt lat="47.0554061" lon="12.9430024">  <ele>2793.946</ele>  <time>2018-05-01T07:52:01.998Z</time>  </trkpt>
  <trkpt lat="47.0554061" lon="12.9430024">  <ele>2792.788</ele>  <time>2018-05-01T07:52:02.098Z</time>  </trkpt>
  <trkpt lat="47.0554686" lon="12.9431928">  <ele>2792.489</ele>  <time>2018-05-01T07:52:22.750Z</time>  </trkpt>
  <trkpt lat="47.0555175" lon="12.9433042">  <ele>2793.761</ele>  <time>2018-05-01T07:52:32.997Z</time>  </trkpt>
  <trkpt lat="47.0555175" lon="12.9433042">  <ele>2796.992</ele>  <time>2018-05-01T07:52:50.997Z</time>  </trkpt>
  <trkpt lat="47.0555175" lon="12.9433042">  <ele>2799.190</ele>  <time>2018-05-01T07:53:14.434Z</time>  </trkpt>
  <trkpt lat="47.0556209" lon="12.9435563">  <ele>2797.979</ele>  <time>2018-05-01T07:53:42.996Z</time>  </trkpt>
  <trkpt lat="47.0556209" lon="12.9435563">  <ele>2795.529</ele>  <time>2018-05-01T07:53:59.996Z</time>  </trkpt>
  <trkpt lat="47.0556209" lon="12.9435563">  <ele>2794.284</ele>  <time>2018-05-01T07:54:12.384Z</time>  </trkpt>
  <trkpt lat="47.0556913" lon="12.9437488">  <ele>2794.183</ele>  <time>2018-05-01T07:54:35.636Z</time>  </trkpt>
  <trkpt lat="47.0557409" lon="12.9438614">  <ele>2796.575</ele>  <time>2018-05-01T07:54:45.189Z</time>  </trkpt>
  <trkpt lat="47.0557802" lon="12.9439934">  <ele>2802.378</ele>  <time>2018-05-01T07:54:55.950Z</time>  </trkpt>
  <trkpt lat="47.0558505" lon="12.9440921">  <ele>2808.682</ele>  <time>2018-05-01T07:55:05.995Z</time>  </trkpt>
  <trkpt lat="47.0558505" lon="12.9440921">  <ele>2812.564</ele>  <time>2018-05-01T07:55:09.994Z</time>  </trkpt>
  <trkpt lat="47.0558505" lon="12.9440921">  <ele>2813.529</ele>  <time>2018-05-01T07:55:10.094Z</time>  </trkpt>
  <trkpt lat="47.0558396" lon="12.9442269">  <ele>2810.230</ele>  <time>2018-05-01T07:55:42.960Z</time>  </trkpt>
  <trkpt lat="47.0558137" lon="12.9443601">  <ele>2810.880</ele>  <time>2018-05-01T07:55:54.994Z</time>  </trkpt>
  <trkpt lat="47.0558137" lon="12.9443601">  <ele>2814.997</ele>  <time>2018-05-01T07:55:56.994Z</time>  </trkpt>
  <trkpt lat="47.0558137" lon="12.9443601">  <ele>2818.245</ele>  <time>2018-05-01T07:56:28.271Z</time>  </trkpt>
  <trkpt lat="47.0558570" lon="12.9446270">  <ele>2817.046</ele>  <time>2018-05-01T07:56:56.432Z</time>  </trkpt>
  <trkpt lat="47.0559079" lon="12.9447359">  <ele>2815.682</ele>  <time>2018-05-01T07:57:06.976Z</time>  </trkpt>
  <trkpt lat="47.0559239" lon="12.9448700">  <ele>2818.430</ele>  <time>2018-05-01T07:57:19.992Z</time>  </trkpt>
  <trkpt lat="47.0559239" lon="12.9448700">  <ele>2822.878</ele>  <time>2018-05-01T07:57:22.992Z</time>  </trkpt>
  <trkpt lat="47.0559239" lon="12.9448700">  <ele>2824.732</ele>  <time>2018-05-01T07:57:26.267Z</time>  </trkpt>
  <trkpt lat="47.0559327" lon="12.9450040">  <ele>2820.976</ele>  <time>2018-05-01T07:57:42.175Z</time>  </trkpt>
  <trkpt lat="47.0559381" lon="12.9451382">  <ele>2821.039</ele>  <time>2018-05-01T07:57:54.049Z</time>  </trkpt>
  <trkpt lat="47.0559428" lon="12.9452775">  <ele>2824.862</ele>  <time>2018-05-01T07:58:08.999Z</time>  </trkpt>
  <trkpt lat="47.0559428" lon="12.9452775">  <ele>2829.910</ele>  <time>2018-05-01T07:58:21.999Z</time>  </trkpt>
  <trkpt lat="47.0559428" lon="12.9452775">  <ele>2832.130</ele>  <time>2018-05-01T07:58:22.099Z</time>  </trkpt>
  <trkpt lat="47.0559444" lon="12.9455245">  <ele>2830.727</ele>  <time>2018-05-01T07:58:49.486Z</time>  </trkpt>
  <trkpt lat="47.0559700" lon="12.9456559">  <ele>2829.559</ele>  <time>2018-05-01T07:59:02.457Z</time>  </trkpt>
  <trkpt lat="47.0560023" lon="12.9457838">  <ele>2831.727</ele>  <time>2018-05-01T07:59:20.769Z</time>  </trkpt>
  <trkpt lat="47.0560038" lon="12.9459332">  <ele>2835.184</ele>  <time>2018-05-01T07:59:46.507Z</time>  </trkpt>
  <trkpt lat="47.0560136" lon="12.9460684">  <ele>2837.785</ele>  <time>2018-05-01T08:00:01.885Z</time>  </trkpt>
  <trkpt lat="47.0560158" lon="12.9462116">  <ele>2840.471</ele>  <time>2018-05-01T08:00:15.571Z</time>  </trkpt>
  <trkpt lat="47.0560047" lon="12.9463475">  <ele>2843.559</ele>  <time>2018-05-01T08:00:28.682Z</time>  </trkpt>
  <trkpt lat="47.0559993" lon="12.9464799">  <ele>2846.074</ele>  <time>2018-05-01T08:00:41.483Z</time>  </trkpt>
  <trkpt lat="47.0560295" lon="12.9466110">  <ele>2847.756</ele>  <time>2018-05-01T08:00:55.996Z</time>  </trkpt>
  <trkpt lat="47.0560295" lon="12.9466110">  <ele>2848.706</ele>  <time>2018-05-01T08:01:06.996Z</time>  </trkpt>
  <trkpt lat="47.0560295" lon="12.9466110">  <ele>2848.437</ele>  <time>2018-05-01T08:01:07.360Z</time>  </trkpt>
  <trkpt lat="47.0560569" lon="12.9468062">  <ele>2847.122</ele>  <time>2018-05-01T08:01:28.195Z</time>  </trkpt>
  <trkpt lat="47.0560857" lon="12.9469336">  <ele>2846.734</ele>  <time>2018-05-01T08:01:37.995Z</time>  </trkpt>
  <trkpt lat="47.0560857" lon="12.9469336">  <ele>2848.464</ele>  <time>2018-05-01T08:01:47.995Z</time>  </trkpt>
  <trkpt lat="47.0560857" lon="12.9469336">  <ele>2849.841</ele>  <time>2018-05-01T08:01:48.095Z</time>  </trkpt>
  <trkpt lat="47.0560414" lon="12.9471382">  <ele>2848.675</ele>  <time>2018-05-01T08:02:06.262Z</time>  </trkpt>
  <trkpt lat="47.0560247" lon="12.9472740">  <ele>2848.166</ele>  <time>2018-05-01T08:02:16.165Z</time>  </trkpt>
  <trkpt lat="47.0560054" lon="12.9474097">  <ele>2851.677</ele>  <time>2018-05-01T08:02:28.995Z</time>  </trkpt>
  <trkpt lat="47.0560054" lon="12.9474097">  <ele>2856.971</ele>  <time>2018-05-01T08:02:28.995Z</time>  </trkpt>
  <trkpt lat="47.0560054" lon="12.9474097">  <ele>2859.444</ele>  <time>2018-05-01T08:02:31.658Z</time>  </trkpt>
  <trkpt lat="47.0559728" lon="12.9475422">  <ele>2855.312</ele>  <time>2018-05-01T08:02:43.994Z</time>  </trkpt>
  <trkpt lat="47.0559728" lon="12.9475422">  <ele>2853.669</ele>  <time>2018-05-01T08:02:47.994Z</time>  </trkpt>
  <trkpt lat="47.0559728" lon="12.9475422">  <ele>2852.980</ele>  <time>2018-05-01T08:02:48.094Z</time>  </trkpt>
  <trkpt lat="47.0559064" lon="12.9477957">  <ele>2852.504</ele>  <time>2018-05-01T08:03:22.020Z</time>  </trkpt>
  <trkpt lat="47.0559071" lon="12.9479306">  <ele>2853.641</ele>  <time>2018-05-01T08:03:32.245Z</time>  </trkpt>
  <trkpt lat="47.0559160" lon="12.9480619">  <ele>2857.461</ele>  <time>2018-05-01T08:03:41.993Z</time>  </trkpt>
  <trkpt lat="47.0559160" lon="12.9480619">  <ele>2861.447</ele>  <time>2018-05-01T08:03:44.993Z</time>  </trkpt>
  <trkpt lat="47.0559160" lon="12.9480619">  <ele>2862.600</ele>  <time>2018-05-01T08:04:08.568Z</time>  </trkpt>
  <trkpt lat="47.0558198" lon="12.9482317">  <ele>2861.149</ele>  <time>2018-05-01T08:04:34.286Z</time>  </trkpt>
  <trkpt lat="47.0558354" lon="12.9483690">  <ele>2859.822</ele>  <time>2018-05-01T08:04:46.597Z</time>  </trkpt>
  <trkpt lat="47.0558254" lon="12.9485035">  <ele>2860.816</ele>  <time>2018-05-01T08:04:59.440Z</time>  </trkpt>
  <trkpt lat="47.0558441" lon="12.9486337">  <ele>2863.725</ele>  <time>2018-05-01T08:05:12.111Z</time>  </trkpt>
  <trkpt lat="47.0558263" lon="12.9487684">  <ele>2866.955</ele>  <time>2018-05-01T08:05:26.148Z</time>  </trkpt>
  <trkpt lat="47.0558042" lon="12.9488969">  <ele>2869.406</ele>  <time>2018-05-01T08:05:41.998Z</time>  </trkpt>
  <trkpt lat="47.0558042" lon="12.9488969">  <ele>2870.825</ele>  <time>2018-05-01T08:05:45.998Z</time>  </trkpt>
  <trkpt lat="47.0558042" lon="12.9488969">  <ele>2870.926</ele>  <time>2018-05-01T08:05:46.098Z</time>  </trkpt>
  <trkpt lat="47.0557539" lon="12.9490375">  <ele>2869.651</ele>  <time>2018-05-01T08:05:58.998Z</time>  </trkpt>
  <trkpt lat="47.0557539" lon="12.9490375">  <ele>2868.153</ele>  <time>2018-05-01T08:06:11.998Z</time>  </trkpt>
  <trkpt lat="47.0557539" lon="12.9490375">  <ele>2867.227</ele>  <time>2018-05-01T08:06:12.098Z</time>  </trkpt>
  <trkpt lat="47.0557382" lon="12.9492234">  <ele>2866.658</ele>  <time>2018-05-01T08:06:19.998Z</time>  </trkpt>
  <trkpt lat="47.0557382" lon="12.9492234">  <ele>2866.124</ele>  <time>2018-05-01T08:06:19.998Z</time>  </trkpt>
  <trkpt lat="47.0557382" lon="12.9492234">  <ele>2865.295</ele>  <time>2018-05-01T08:07:06.093Z</time>  </trkpt>
  <trkpt lat="47.0556669" lon="12.9493311">  <ele>2863.199</ele>  <time>2018-05-01T08:07:26.070Z</time>  </trkpt>
  <trkpt lat="47.0556664" lon="12.9494685">  <ele>2865.130</ele>  <time>2018-05-01T08:07:40.193Z</time>  </trkpt>
  <trkpt lat="47.0556457" lon="12.9496006">  <ele>2871.699</ele>  <time>2018-05-01T08:07:55.371Z</time>  </trkpt>
  <trkpt lat="47.0556332" lon="12.9497397">  <ele>2879.563</ele>  <time>2018-05-01T08:08:11.301Z</time>  </trkpt>
  <trkpt lat="47.0556002" lon="12.9498653">  <ele>2884.693</ele>  <time>2018-05-01T08:08:33.995Z</time>  </trkpt>
  <trkpt lat="47.0556002" lon="12.9498653">  <ele>2886.756</ele>  <time>2018-05-01T08:08:43.995Z</time>  </trkpt>
  <trkpt lat="47.0556002" lon="12.9498653">  <ele>2886.553</ele>  <time>2018-05-01T08:08:44.095Z</time>  </trkpt>
  <trkpt lat="47.0555304" lon="12.9499957">  <ele>2885.177</ele>  <time>2018-05-01T08:08:53.995Z</time>  </trkpt>
  <trkpt lat="47.0555304" lon="12.9499957">  <ele>2883.856</ele>  <time>2018-05-01T08:08:57.995Z</time>  </trkpt>
  <trkpt lat="47.0555304" lon="12.9499957">  <ele>2883.037</ele>  <time>2018-05-01T08:09:03.070Z</time>  </trkpt>
  <trkpt lat="47.0554773" lon="12.9502783">  <ele>2882.393</ele>  <time>2018-05-01T08:10:01.006Z</time>  </trkpt>
  <trkpt lat="47.0554179" lon="12.9503851">  <ele>2883.080</ele>  <time>2018-05-01T08:10:20.819Z</time>  </trkpt>
  <trkpt lat="47.0553468" lon="12.9504706">  <ele>2886.675</ele>  <time>2018-05-01T08:10:39.859Z</time>  </trkpt>
  <trkpt lat="47.0553062" lon="12.9505922">  <ele>2891.960</ele>  <time>2018-05-01T08:10:58.993Z</time>  </trkpt>
  <trkpt lat="47.0553062" lon="12.9505922">  <ele>2896.081</ele>  <time>2018-05-01T08:11:00.993Z</time>  </trkpt>
  <trkpt lat="47.0553062" lon="12.9505922">  <ele>2897.272</ele>  <time>2018-05-01T08:11:01.093Z</time>  </trkpt>
  <trkpt lat="47.0552455" lon="12.9506981">  <ele>2893.776</ele>  <time>2018-05-01T08:11:16.992Z</time>  </trkpt>
  <trkpt lat="47.0552455" lon="12.9506981">  <ele>2892.644</ele>  <time>2018-05-01T08:11:20.992Z</time>  </trkpt>
  <trkpt lat="47.0552455" lon="12.9506981">  <ele>2892.058</ele>  <time>2018-05-01T08:11:21.092Z</time>  </trkpt>
  <trkpt lat="47.0551311" lon="12.9509399">  <ele>2891.351</ele>  <time>2018-05-01T08:12:00.992Z</time>  </trkpt>
  <trkpt lat="47.0551311" lon="12.9509399">  <ele>2890.511</ele>  <time>2018-05-01T08:12:03.996Z</time>  </trkpt>
  <trkpt lat="47.0551311" lon="12.9509399">  <ele>2889.612</ele>  <time>2018-05-01T08:12:13.414Z</time>  </trkpt>
  <trkpt lat="47.0550420" lon="12.9511911">  <ele>2888.688</ele>  <time>2018-05-01T08:13:02.123Z</time>  </trkpt>
  <trkpt lat="47.0549925" lon="12.9513086">  <ele>2891.006</ele>  <time>2018-05-01T08:13:14.998Z</time>  </trkpt>
  <trkpt lat="47.0549925" lon="12.9513086">  <ele>2898.448</ele>  <time>2018-05-01T08:13:19.998Z</time>  </trkpt>
  <trkpt lat="47.0549925" lon="12.9513086">  <ele>2904.365</ele>  <time>2018-05-01T08:13:31.262Z</time>  </trkpt>
  <trkpt lat="47.0548602" lon="12.9515512">  <ele>2903.073</ele>  <time>2018-05-01T08:14:20.705Z</time>  </trkpt>
  <trkpt lat="47.0547742" lon="12.9516081">  <ele>2901.658</ele>  <time>2018-05-01T08:14:29.997Z</time>  </trkpt>
  <trkpt lat="47.0547742" lon="12.9516081">  <ele>2906.880</ele>  <time>2018-05-01T08:14:55.997Z</time>  </trkpt>
  <trkpt lat="47.0547742" lon="12.9516081">  <ele>2912.375</ele>  <time>2018-05-01T08:14:56.097Z</time>  </trkpt>
  <trkpt lat="47.0546272" lon="12.9519228">  <ele>2911.259</ele>  <time>2018-05-01T08:15:36.996Z</time>  </trkpt>
  <trkpt lat="47.0546272" lon="12.9519228">  <ele>2907.430</ele>  <time>2018-05-01T08:15:51.996Z</time>  </trkpt>
  <trkpt lat="47.0546272" lon="12.9519228">  <ele>2905.989</ele>  <time>2018-05-01T08:15:54.705Z</time>  </trkpt>
  <trkpt lat="47.0545224" lon="12.9521493">  <ele>2906.602</ele>  <time>2018-05-01T08:16:41.799Z</time>  </trkpt>
  <trkpt lat="47.0544778" lon="12.9522662">  <ele>2911.532</ele>  <time>2018-05-01T08:16:53.994Z</time>  </trkpt>
  <trkpt lat="47.0544778" lon="12.9522662">  <ele>2922.584</ele>  <time>2018-05-01T08:17:03.994Z</time>  </trkpt>
  <trkpt lat="47.0544778" lon="12.9522662">  <ele>2931.055</ele>  <time>2018-05-01T08:17:04.094Z</time>  </trkpt>
  <trkpt lat="47.0544108" lon="12.9523941">  <ele>2923.696</ele>  <time>2018-05-01T08:17:35.994Z</time>  </trkpt>
  <trkpt lat="47.0544108" lon="12.9523941">  <ele>2919.767</ele>  <time>2018-05-01T08:17:39.994Z</time>  </trkpt>
  <trkpt lat="47.0544108" lon="12.9523941">  <ele>2918.795</ele>  <time>2018-05-01T08:18:06.137Z</time>  </trkpt>
  <trkpt lat="47.0543116" lon="12.9526752">  <ele>2919.337</ele>  <time>2018-05-01T08:18:30.993Z</time>  </trkpt>
  <trkpt lat="47.0543116" lon="12.9526752">  <ele>2919.479</ele>  <time>2018-05-01T08:18:38.993Z</time>  </trkpt>
  <trkpt lat="47.0543116" lon="12.9526752">  <ele>2918.385</ele>  <time>2018-05-01T08:19:18.622Z</time>  </trkpt>
  <trkpt lat="47.0541807" lon="12.9529149">  <ele>2916.906</ele>  <time>2018-05-01T08:19:50.871Z</time>  </trkpt>
  <trkpt lat="47.0541408" lon="12.9530405">  <ele>2921.036</ele>  <time>2018-05-01T08:19:59.999Z</time>  </trkpt>
  <trkpt lat="47.0541408" lon="12.9530405">  <ele>2933.772</ele>  <time>2018-05-01T08:20:12.999Z</time>  </trkpt>
  <trkpt lat="47.0541408" lon="12.9530405">  <ele>2944.148</ele>  <time>2018-05-01T08:20:55.692Z</time>  </trkpt>
  <trkpt lat="47.0539930" lon="12.9533099">  <ele>2942.771</ele>  <time>2018-05-01T08:21:21.538Z</time>  </trkpt>
  <trkpt lat="47.0539190" lon="12.9533922">  <ele>2941.007</ele>  <time>2018-05-01T08:21:26.997Z</time>  </trkpt>
  <trkpt lat="47.0539190" lon="12.9533922">  <ele>2949.751</ele>  <time>2018-05-01T08:21:52.997Z</time>  </trkpt>
  <trkpt lat="47.0539190" lon="12.9533922">  <ele>2959.036</ele>  <time>2018-05-01T08:22:27.936Z</time>  </trkpt>
  <trkpt lat="47.0537914" lon="12.9536636">  <ele>2957.940</ele>  <time>2018-05-01T08:22:51.996Z</time>  </trkpt>
  <trkpt lat="47.0537914" lon="12.9536636">  <ele>2952.586</ele>  <time>2018-05-01T08:23:07.995Z</time>  </trkpt>
  <trkpt lat="47.0537914" lon="12.9536636">  <ele>2950.968</ele>  <time>2018-05-01T08:23:08.095Z</time>  </trkpt>
  <trkpt lat="47.0537914" lon="12.9536636">  <ele>2951.287</ele>  <time>2018-05-01T08:23:55.995Z</time>  </trkpt>
  <trkpt lat="47.0537914" lon="12.9536636">  <ele>2949.933</ele>  <time>2018-05-01T08:23:56.095Z</time>  </trkpt>
  <trkpt lat="47.0536773" lon="12.9539665">  <ele>2948.789</ele>  <time>2018-05-01T08:24:57.993Z</time>  </trkpt>
  <trkpt lat="47.0536773" lon="12.9539665">  <ele>2948.135</ele>  <time>2018-05-01T08:25:01.993Z</time>  </trkpt>
  <trkpt lat="47.0536773" lon="12.9539665">  <ele>2947.526</ele>  <time>2018-05-01T08:25:25.898Z</time>  </trkpt>
  <trkpt lat="47.0535730" lon="12.9542491">  <ele>2946.563</ele>  <time>2018-05-01T08:25:50.992Z</time>  </trkpt>
  <trkpt lat="47.0535730" lon="12.9542491">  <ele>2945.576</ele>  <time>2018-05-01T08:25:55.992Z</time>  </trkpt>
  <trkpt lat="47.0535730" lon="12.9542491">  <ele>2944.724</ele>  <time>2018-05-01T08:26:02.607Z</time>  </trkpt>
  <trkpt lat="47.0535718" lon="12.9544265">  <ele>2943.872</ele>  <time>2018-05-01T08:26:48.936Z</time>  </trkpt>
  <trkpt lat="47.0535655" lon="12.9545682">  <ele>2949.661</ele>  <time>2018-05-01T08:27:10.999Z</time>  </trkpt>
  <trkpt lat="47.0535655" lon="12.9545682">  <ele>2966.124</ele>  <time>2018-05-01T08:27:15.999Z</time>  </trkpt>
  <trkpt lat="47.0535655" lon="12.9545682">  <ele>2979.557</ele>  <time>2018-05-01T08:27:26.892Z</time>  </trkpt>
  <trkpt lat="47.0534738" lon="12.9548535">  <ele>2978.108</ele>  <time>2018-05-01T08:28:04.685Z</time>  </trkpt>
  <trkpt lat="47.0534343" lon="12.9549783">  <ele>2974.541</ele>  <time>2018-05-01T08:28:18.583Z</time>  </trkpt>
  <trkpt lat="47.0534082" lon="12.9551049">  <ele>2982.261</ele>  <time>2018-05-01T08:28:34.894Z</time>  </trkpt>
  <trkpt lat="47.0533876" lon="12.9552347">  <ele>2995.730</ele>  <time>2018-05-01T08:28:52.997Z</time>  </trkpt>
  <trkpt lat="47.0533876" lon="12.9552347">  <ele>3005.081</ele>  <time>2018-05-01T08:28:53.997Z</time>  </trkpt>
  <trkpt lat="47.0533876" lon="12.9552347">  <ele>3007.976</ele>  <time>2018-05-01T08:29:13.804Z</time>  </trkpt>
  <trkpt lat="47.0533781" lon="12.9553707">  <ele>3003.211</ele>  <time>2018-05-01T08:29:59.996Z</time>  </trkpt>
  <trkpt lat="47.0533781" lon="12.9553707">  <ele>3001.530</ele>  <time>2018-05-01T08:30:13.996Z</time>  </trkpt>
  <trkpt lat="47.0533781" lon="12.9553707">  <ele>3000.842</ele>  <time>2018-05-01T08:30:14.096Z</time>  </trkpt>
  <trkpt lat="47.0533209" lon="12.9556681">  <ele>3000.326</ele>  <time>2018-05-01T08:31:11.631Z</time>  </trkpt>
  <trkpt lat="47.0532952" lon="12.9558351">  <ele>3002.950</ele>  <time>2018-05-01T08:31:36.269Z</time>  </trkpt>
  <trkpt lat="47.0532552" lon="12.9559631">  <ele>3010.980</ele>  <time>2018-05-01T08:31:47.994Z</time>  </trkpt>
  <trkpt lat="47.0532552" lon="12.9559631">  <ele>3019.738</ele>  <time>2018-05-01T08:31:58.994Z</time>  </trkpt>
  <trkpt lat="47.0532552" lon="12.9559631">  <ele>3023.243</ele>  <time>2018-05-01T08:31:59.094Z</time>  </trkpt>
  <trkpt lat="47.0532499" lon="12.9561847">  <ele>3021.526</ele>  <time>2018-05-01T08:32:21.994Z</time>  </trkpt>
  <trkpt lat="47.0532499" lon="12.9561847">  <ele>3018.479</ele>  <time>2018-05-01T08:32:23.994Z</time>  </trkpt>
  <trkpt lat="47.0532499" lon="12.9561847">  <ele>3017.134</ele>  <time>2018-05-01T08:32:24.464Z</time>  </trkpt>
  <trkpt lat="47.0532215" lon="12.9565082">  <ele>3017.239</ele>  <time>2018-05-01T08:33:38.997Z</time>  </trkpt>
  <trkpt lat="47.0532215" lon="12.9565082">  <ele>3017.279</ele>  <time>2018-05-01T08:33:41.998Z</time>  </trkpt>
  <trkpt lat="47.0532215" lon="12.9565082">  <ele>3016.334</ele>  <time>2018-05-01T08:33:42.098Z</time>  </trkpt>
  <trkpt lat="47.0531712" lon="12.9567838">  <ele>3014.884</ele>  <time>2018-05-01T08:34:44.999Z</time>  </trkpt>
  <trkpt lat="47.0531712" lon="12.9567838">  <ele>3013.897</ele>  <time>2018-05-01T08:34:48.998Z</time>  </trkpt>
  <trkpt lat="47.0531712" lon="12.9567838">  <ele>3013.237</ele>  <time>2018-05-01T08:34:49.098Z</time>  </trkpt>
  <trkpt lat="47.0531712" lon="12.9567838">  <ele>3011.152</ele>  <time>2018-05-01T08:35:57.997Z</time>  </trkpt>
  <trkpt lat="47.0531712" lon="12.9567838">  <ele>3010.223</ele>  <time>2018-05-01T08:35:58.097Z</time>  </trkpt>
  <trkpt lat="47.0531095" lon="12.9569561">  <ele>3009.428</ele>  <time>2018-05-01T08:37:07.479Z</time>  </trkpt>
  <trkpt lat="47.0531707" lon="12.9570532">  <ele>3013.672</ele>  <time>2018-05-01T08:37:25.564Z</time>  </trkpt>
  <trkpt lat="47.0531886" lon="12.9571873">  <ele>3026.278</ele>  <time>2018-05-01T08:37:48.999Z</time>  </trkpt>
  <trkpt lat="47.0531270" lon="12.9572885">  <ele>3039.971</ele>  <time>2018-05-01T08:38:15.011Z</time>  </trkpt>
  <trkpt lat="47.0531564" lon="12.9574207">  <ele>3047.111</ele>  <time>2018-05-01T08:38:40.662Z</time>  </trkpt>
  <trkpt lat="47.0531280" lon="12.9575547">  <ele>3049.079</ele>  <time>2018-05-01T08:38:59.630Z</time>  </trkpt>
  <trkpt lat="47.0531622" lon="12.9576820">  <ele>3049.625</ele>  <time>2018-05-01T08:39:18.994Z</time>  </trkpt>
  <trkpt lat="47.0531622" lon="12.9576820">  <ele>3050.482</ele>  <time>2018-05-01T08:39:19.994Z</time>  </trkpt>
  <trkpt lat="47.0531622" lon="12.9576820">  <ele>3050.654</ele>  <time>2018-05-01T08:39:49.559Z</time>  </trkpt>
  <trkpt lat="47.0532412" lon="12.9577686">  <ele>3047.727</ele>  <time>2018-05-01T08:40:51.997Z</time>  </trkpt>
  <trkpt lat="47.0532412" lon="12.9577686">  <ele>3046.856</ele>  <time>2018-05-01T08:40:52.997Z</time>  </trkpt>
  <trkpt lat="47.0532412" lon="12.9577686">  <ele>3046.289</ele>  <time>2018-05-01T08:40:53.097Z</time>  </trkpt>
  <trkpt lat="47.0533630" lon="12.9578263">  <ele>3044.088</ele>  <time>2018-05-01T08:41:33.572Z</time>  </trkpt>
  <trkpt lat="47.0534579" lon="12.9579014">  <ele>3045.910</ele>  <time>2018-05-01T08:41:51.999Z</time>  </trkpt>
  <trkpt lat="47.0534579" lon="12.9579014">  <ele>3052.357</ele>  <time>2018-05-01T08:42:14.998Z</time>  </trkpt>
  <trkpt lat="47.0534579" lon="12.9579014">  <ele>3057.446</ele>  <time>2018-05-01T08:42:15.098Z</time>  </trkpt>
  <trkpt lat="47.0535571" lon="12.9579050">  <ele>3056.108</ele>  <time>2018-05-01T08:43:19.576Z</time>  </trkpt>
  <trkpt lat="47.0535631" lon="12.9577637">  <ele>3054.701</ele>  <time>2018-05-01T08:43:56.559Z</time>  </trkpt>
  <trkpt lat="47.0535600" lon="12.9576236">  <ele>3059.327</ele>  <time>2018-05-01T08:44:31.064Z</time>  </trkpt>
  <trkpt lat="47.0535918" lon="12.9574999">  <ele>3066.996</ele>  <time>2018-05-01T08:44:51.995Z</time>  </trkpt>
  <trkpt lat="47.0535918" lon="12.9574999">  <ele>3073.120</ele>  <time>2018-05-01T08:45:06.995Z</time>  </trkpt>
  <trkpt lat="47.0535918" lon="12.9574999">  <ele>3075.533</ele>  <time>2018-05-01T08:45:36.869Z</time>  </trkpt>
  <trkpt lat="47.0537573" lon="12.9574777">  <ele>3073.944</ele>  <time>2018-05-01T08:46:18.994Z</time>  </trkpt>
  <trkpt lat="47.0537573" lon="12.9574777">  <ele>3071.282</ele>  <time>2018-05-01T08:46:28.994Z</time>  </trkpt>
  <trkpt lat="47.0537573" lon="12.9574777">  <ele>3069.943</ele>  <time>2018-05-01T08:46:29.094Z</time>  </trkpt>
  <trkpt lat="47.0538350" lon="12.9573893">  <ele>3068.764</ele>  <time>2018-05-01T08:47:19.424Z</time>  </trkpt>
  <trkpt lat="47.0539106" lon="12.9574745">  <ele>3071.126</ele>  <time>2018-05-01T08:47:47.992Z</time>  </trkpt>
  <trkpt lat="47.0539106" lon="12.9574745">  <ele>3078.832</ele>  <time>2018-05-01T08:48:13.999Z</time>  </trkpt>
  <trkpt lat="47.0539106" lon="12.9574745">  <ele>3084.998</ele>  <time>2018-05-01T08:53:43.993Z</time>  </trkpt>
  </trkseg>
  <trkseg>
  <trkpt lat="47.0540414" lon="12.9574945">  <ele>3109.780</ele>  <time>2018-05-01T10:01:56.022Z</time>  </trkpt>
  <trkpt lat="47.0540414" lon="12.9574945">  <ele>3108.345</ele>  <time>2018-05-01T10:01:59.990Z</time>  </trkpt>
  <trkpt lat="47.0540414" lon="12.9574945">  <ele>3107.546</ele>  <time>2018-05-01T10:04:57.102Z</time>  </trkpt>
  <trkpt lat="47.0540414" lon="12.9574945">  <ele>3105.603</ele>  <time>2018-05-01T10:05:46.998Z</time>  </trkpt>
  <trkpt lat="47.0540414" lon="12.9574945">  <ele>3104.623</ele>  <time>2018-05-01T10:06:34.997Z</time>  </trkpt>
  <trkpt lat="47.0540414" lon="12.9574945">  <ele>3103.613</ele>  <time>2018-05-01T10:07:17.356Z</time>  </trkpt>
  <trkpt lat="47.0538716" lon="12.9576399">  <ele>3102.493</ele>  <time>2018-05-01T10:07:37.270Z</time>  </trkpt>
  <trkpt lat="47.0538166" lon="12.9575176">  <ele>3100.995</ele>  <time>2018-05-01T10:07:42.996Z</time>  </trkpt>
  <trkpt lat="47.0538166" lon="12.9575176">  <ele>3099.040</ele>  <time>2018-05-01T10:07:43.996Z</time>  </trkpt>
  <trkpt lat="47.0538166" lon="12.9575176">  <ele>3097.226</ele>  <time>2018-05-01T10:08:11.152Z</time>  </trkpt>
  <trkpt lat="47.0536503" lon="12.9573976">  <ele>3096.001</ele>  <time>2018-05-01T10:08:28.314Z</time>  </trkpt>
  <trkpt lat="47.0536039" lon="12.9575350">  <ele>3092.660</ele>  <time>2018-05-01T10:08:33.996Z</time>  </trkpt>
  <trkpt lat="47.0536039" lon="12.9575350">  <ele>3085.476</ele>  <time>2018-05-01T10:08:37.996Z</time>  </trkpt>
  <trkpt lat="47.0536039" lon="12.9575350">  <ele>3079.151</ele>  <time>2018-05-01T10:08:41.496Z</time>  </trkpt>
  <trkpt lat="47.0536041" lon="12.9576685">  <ele>3077.991</ele>  <time>2018-05-01T10:08:47.996Z</time>  </trkpt>
  <trkpt lat="47.0536041" lon="12.9576685">  <ele>3078.723</ele>  <time>2018-05-01T10:08:51.996Z</time>  </trkpt>
  <trkpt lat="47.0536041" lon="12.9576685">  <ele>3077.688</ele>  <time>2018-05-01T10:08:54.194Z</time>  </trkpt>
  <trkpt lat="47.0536312" lon="12.9578854">  <ele>3075.667</ele>  <time>2018-05-01T10:09:14.464Z</time>  </trkpt>
  <trkpt lat="47.0535436" lon="12.9579281">  <ele>3073.951</ele>  <time>2018-05-01T10:09:20.637Z</time>  </trkpt>
  <trkpt lat="47.0534713" lon="12.9578015">  <ele>3072.246</ele>  <time>2018-05-01T10:09:25.458Z</time>  </trkpt>
  <trkpt lat="47.0534162" lon="12.9576949">  <ele>3070.364</ele>  <time>2018-05-01T10:09:29.413Z</time>  </trkpt>
  <trkpt lat="47.0533604" lon="12.9575886">  <ele>3068.366</ele>  <time>2018-05-01T10:09:35.476Z</time>  </trkpt>
  <trkpt lat="47.0533238" lon="12.9577107">  <ele>3066.130</ele>  <time>2018-05-01T10:09:44.340Z</time>  </trkpt>
  <trkpt lat="47.0532495" lon="12.9576181">  <ele>3063.395</ele>  <time>2018-05-01T10:09:55.004Z</time>  </trkpt>
  <trkpt lat="47.0531644" lon="12.9575709">  <ele>3059.506</ele>  <time>2018-05-01T10:10:05.379Z</time>  </trkpt>
  <trkpt lat="47.0531771" lon="12.9574302">  <ele>3054.200</ele>  <time>2018-05-01T10:10:16.158Z</time>  </trkpt>
  <trkpt lat="47.0532043" lon="12.9572594">  <ele>3048.886</ele>  <time>2018-05-01T10:10:22.162Z</time>  </trkpt>
  <trkpt lat="47.0532516" lon="12.9571239">  <ele>3045.305</ele>  <time>2018-05-01T10:10:25.355Z</time>  </trkpt>
  <trkpt lat="47.0532960" lon="12.9569932">  <ele>3043.234</ele>  <time>2018-05-01T10:10:28.359Z</time>  </trkpt>
  <trkpt lat="47.0533331" lon="12.9568366">  <ele>3041.560</ele>  <time>2018-05-01T10:10:32.000Z</time>  </trkpt>
  <trkpt lat="47.0533331" lon="12.9568366">  <ele>3039.918</ele>  <time>2018-05-01T10:10:34.000Z</time>  </trkpt>
  <trkpt lat="47.0533331" lon="12.9568366">  <ele>3038.405</ele>  <time>2018-05-01T10:10:34.100Z</time>  </trkpt>
  <trkpt lat="47.0534255" lon="12.9565637">  <ele>3037.210</ele>  <time>2018-05-01T10:10:41.641Z</time>  </trkpt>
  <trkpt lat="47.0534845" lon="12.9564333">  <ele>3035.971</ele>  <time>2018-05-01T10:10:44.743Z</time>  </trkpt>
  <trkpt lat="47.0535422" lon="12.9563215">  <ele>3034.390</ele>  <time>2018-05-01T10:10:47.746Z</time>  </trkpt>
  <trkpt lat="47.0536018" lon="12.9562174">  <ele>3032.969</ele>  <time>2018-05-01T10:10:50.919Z</time>  </trkpt>
  <trkpt lat="47.0535552" lon="12.9561047">  <ele>3032.158</ele>  <time>2018-05-01T10:10:53.999Z</time>  </trkpt>
  <trkpt lat="47.0533988" lon="12.9561499">  <ele>3031.741</ele>  <time>2018-05-01T10:10:58.616Z</time>  </trkpt>
  <trkpt lat="47.0533240" lon="12.9560189">  <ele>3031.301</ele>  <time>2018-05-01T10:11:01.411Z</time>  </trkpt>
  <trkpt lat="47.0532629" lon="12.9559056">  <ele>3030.268</ele>  <time>2018-05-01T10:11:03.989Z</time>  </trkpt>
  <trkpt lat="47.0531704" lon="12.9560252">  <ele>3028.525</ele>  <time>2018-05-01T10:11:07.697Z</time>  </trkpt>
  <trkpt lat="47.0531081" lon="12.9559225">  <ele>3026.542</ele>  <time>2018-05-01T10:11:11.001Z</time>  </trkpt>
  <trkpt lat="47.0531639" lon="12.9558025">  <ele>3024.247</ele>  <time>2018-05-01T10:11:14.412Z</time>  </trkpt>
  <trkpt lat="47.0532361" lon="12.9556920">  <ele>3021.252</ele>  <time>2018-05-01T10:11:17.457Z</time>  </trkpt>
  <trkpt lat="47.0533112" lon="12.9555903">  <ele>3018.188</ele>  <time>2018-05-01T10:11:20.399Z</time>  </trkpt>
  <trkpt lat="47.0533013" lon="12.9554292">  <ele>3016.037</ele>  <time>2018-05-01T10:11:23.482Z</time>  </trkpt>
  <trkpt lat="47.0532403" lon="12.9552775">  <ele>3014.572</ele>  <time>2018-05-01T10:11:26.532Z</time>  </trkpt>
  <trkpt lat="47.0532034" lon="12.9551253">  <ele>3012.997</ele>  <time>2018-05-01T10:11:29.316Z</time>  </trkpt>
  <trkpt lat="47.0531334" lon="12.9550337">  <ele>3010.914</ele>  <time>2018-05-01T10:11:31.996Z</time>  </trkpt>
  <trkpt lat="47.0531757" lon="12.9549100">  <ele>3008.332</ele>  <time>2018-05-01T10:11:34.998Z</time>  </trkpt>
  <trkpt lat="47.0531757" lon="12.9549100">  <ele>3005.885</ele>  <time>2018-05-01T10:11:38.998Z</time>  </trkpt>
  <trkpt lat="47.0531757" lon="12.9549100">  <ele>3004.223</ele>  <time>2018-05-01T10:11:58.958Z</time>  </trkpt>
  <trkpt lat="47.0532566" lon="12.9547294">  <ele>3003.202</ele>  <time>2018-05-01T10:12:06.426Z</time>  </trkpt>
  <trkpt lat="47.0533155" lon="12.9545347">  <ele>3001.462</ele>  <time>2018-05-01T10:12:08.998Z</time>  </trkpt>
  <trkpt lat="47.0533155" lon="12.9545347">  <ele>2998.329</ele>  <time>2018-05-01T10:12:12.998Z</time>  </trkpt>
  <trkpt lat="47.0533155" lon="12.9545347">  <ele>2995.425</ele>  <time>2018-05-01T10:13:02.126Z</time>  </trkpt>
  <trkpt lat="47.0534384" lon="12.9543434">  <ele>2994.247</ele>  <time>2018-05-01T10:13:11.587Z</time>  </trkpt>
  <trkpt lat="47.0535535" lon="12.9542692">  <ele>2993.331</ele>  <time>2018-05-01T10:13:15.107Z</time>  </trkpt>
  <trkpt lat="47.0536449" lon="12.9542148">  <ele>2991.028</ele>  <time>2018-05-01T10:13:17.996Z</time>  </trkpt>
  <trkpt lat="47.0537357" lon="12.9541229">  <ele>2988.197</ele>  <time>2018-05-01T10:13:20.931Z</time>  </trkpt>
  <trkpt lat="47.0537841" lon="12.9539445">  <ele>2986.397</ele>  <time>2018-05-01T10:13:24.018Z</time>  </trkpt>
  <trkpt lat="47.0538989" lon="12.9538041">  <ele>2985.055</ele>  <time>2018-05-01T10:13:27.243Z</time>  </trkpt>
  <trkpt lat="47.0539938" lon="12.9536983">  <ele>2983.074</ele>  <time>2018-05-01T10:13:30.137Z</time>  </trkpt>
  <trkpt lat="47.0539796" lon="12.9534709">  <ele>2980.761</ele>  <time>2018-05-01T10:13:33.617Z</time>  </trkpt>
  <trkpt lat="47.0539931" lon="12.9532136">  <ele>2978.583</ele>  <time>2018-05-01T10:13:36.677Z</time>  </trkpt>
  <trkpt lat="47.0540399" lon="12.9529804">  <ele>2974.475</ele>  <time>2018-05-01T10:13:39.647Z</time>  </trkpt>
  <trkpt lat="47.0541582" lon="12.9528646">  <ele>2971.325</ele>  <time>2018-05-01T10:13:42.791Z</time>  </trkpt>
  <trkpt lat="47.0542434" lon="12.9528027">  <ele>2966.757</ele>  <time>2018-05-01T10:13:45.221Z</time>  </trkpt>
  <trkpt lat="47.0543068" lon="12.9526390">  <ele>2960.118</ele>  <time>2018-05-01T10:13:48.359Z</time>  </trkpt>
  <trkpt lat="47.0543985" lon="12.9525528">  <ele>2958.228</ele>  <time>2018-05-01T10:13:51.214Z</time>  </trkpt>
  <trkpt lat="47.0544957" lon="12.9524773">  <ele>2955.696</ele>  <time>2018-05-01T10:13:54.411Z</time>  </trkpt>
  <trkpt lat="47.0545686" lon="12.9523909">  <ele>2952.969</ele>  <time>2018-05-01T10:13:57.355Z</time>  </trkpt>
  <trkpt lat="47.0546429" lon="12.9523163">  <ele>2951.015</ele>  <time>2018-05-01T10:13:59.964Z</time>  </trkpt>
  <trkpt lat="47.0547364" lon="12.9522079">  <ele>2949.696</ele>  <time>2018-05-01T10:14:03.154Z</time>  </trkpt>
  <trkpt lat="47.0548159" lon="12.9521285">  <ele>2947.907</ele>  <time>2018-05-01T10:14:05.770Z</time>  </trkpt>
  <trkpt lat="47.0549061" lon="12.9520314">  <ele>2945.333</ele>  <time>2018-05-01T10:14:08.792Z</time>  </trkpt>
  <trkpt lat="47.0550006" lon="12.9519183">  <ele>2942.776</ele>  <time>2018-05-01T10:14:11.805Z</time>  </trkpt>
  <trkpt lat="47.0550676" lon="12.9518120">  <ele>2940.659</ele>  <time>2018-05-01T10:14:14.323Z</time>  </trkpt>
  <trkpt lat="47.0549704" lon="12.9517522">  <ele>2938.542</ele>  <time>2018-05-01T10:14:17.996Z</time>  </trkpt>
  <trkpt lat="47.0549704" lon="12.9517522">  <ele>2936.473</ele>  <time>2018-05-01T10:14:22.995Z</time>  </trkpt>
  <trkpt lat="47.0549704" lon="12.9517522">  <ele>2934.830</ele>  <time>2018-05-01T10:14:41.048Z</time>  </trkpt>
  <trkpt lat="47.0547449" lon="12.9518181">  <ele>2933.699</ele>  <time>2018-05-01T10:14:52.604Z</time>  </trkpt>
  <trkpt lat="47.0548190" lon="12.9516539">  <ele>2932.419</ele>  <time>2018-05-01T10:14:55.986Z</time>  </trkpt>
  <trkpt lat="47.0549202" lon="12.9514880">  <ele>2929.935</ele>  <time>2018-05-01T10:14:58.992Z</time>  </trkpt>
  <trkpt lat="47.0549739" lon="12.9512914">  <ele>2926.468</ele>  <time>2018-05-01T10:15:01.881Z</time>  </trkpt>
  <trkpt lat="47.0550784" lon="12.9511725">  <ele>2922.887</ele>  <time>2018-05-01T10:15:04.786Z</time>  </trkpt>
  <trkpt lat="47.0551656" lon="12.9510922">  <ele>2919.522</ele>  <time>2018-05-01T10:15:07.495Z</time>  </trkpt>
  <trkpt lat="47.0552582" lon="12.9509688">  <ele>2917.183</ele>  <time>2018-05-01T10:15:11.239Z</time>  </trkpt>
  <trkpt lat="47.0553644" lon="12.9508933">  <ele>2916.418</ele>  <time>2018-05-01T10:15:14.614Z</time>  </trkpt>
  <trkpt lat="47.0554036" lon="12.9507306">  <ele>2916.225</ele>  <time>2018-05-01T10:15:17.636Z</time>  </trkpt>
  <trkpt lat="47.0554825" lon="12.9506077">  <ele>2915.554</ele>  <time>2018-05-01T10:15:20.644Z</time>  </trkpt>
  <trkpt lat="47.0555606" lon="12.9504785">  <ele>2914.268</ele>  <time>2018-05-01T10:15:23.617Z</time>  </trkpt>
  <trkpt lat="47.0556662" lon="12.9504568">  <ele>2912.478</ele>  <time>2018-05-01T10:15:26.520Z</time>  </trkpt>
  <trkpt lat="47.0557521" lon="12.9503688">  <ele>2910.049</ele>  <time>2018-05-01T10:15:29.523Z</time>  </trkpt>
  <trkpt lat="47.0558150" lon="12.9502292">  <ele>2907.357</ele>  <time>2018-05-01T10:15:32.642Z</time>  </trkpt>
  <trkpt lat="47.0557229" lon="12.9500333">  <ele>2905.070</ele>  <time>2018-05-01T10:15:36.279Z</time>  </trkpt>
  <trkpt lat="47.0557839" lon="12.9497032">  <ele>2903.000</ele>  <time>2018-05-01T10:15:40.215Z</time>  </trkpt>
  <trkpt lat="47.0559159" lon="12.9495481">  <ele>2900.692</ele>  <time>2018-05-01T10:15:43.098Z</time>  </trkpt>
  <trkpt lat="47.0559692" lon="12.9493750">  <ele>2898.301</ele>  <time>2018-05-01T10:15:45.655Z</time>  </trkpt>
  <trkpt lat="47.0560530" lon="12.9492444">  <ele>2895.947</ele>  <time>2018-05-01T10:15:48.341Z</time>  </trkpt>
  <trkpt lat="47.0561182" lon="12.9490834">  <ele>2893.721</ele>  <time>2018-05-01T10:15:51.406Z</time>  </trkpt>
  <trkpt lat="47.0561459" lon="12.9489305">  <ele>2892.090</ele>  <time>2018-05-01T10:15:54.279Z</time>  </trkpt>
  <trkpt lat="47.0561825" lon="12.9487930">  <ele>2890.972</ele>  <time>2018-05-01T10:15:57.264Z</time>  </trkpt>
  <trkpt lat="47.0562244" lon="12.9486485">  <ele>2889.649</ele>  <time>2018-05-01T10:16:00.806Z</time>  </trkpt>
  <trkpt lat="47.0562784" lon="12.9485118">  <ele>2887.984</ele>  <time>2018-05-01T10:16:04.831Z</time>  </trkpt>
  <trkpt lat="47.0563049" lon="12.9483548">  <ele>2886.420</ele>  <time>2018-05-01T10:16:09.109Z</time>  </trkpt>
  <trkpt lat="47.0563292" lon="12.9481975">  <ele>2884.806</ele>  <time>2018-05-01T10:16:13.416Z</time>  </trkpt>
  <trkpt lat="47.0563685" lon="12.9480526">  <ele>2882.801</ele>  <time>2018-05-01T10:16:17.736Z</time>  </trkpt>
  <trkpt lat="47.0564125" lon="12.9479106">  <ele>2880.963</ele>  <time>2018-05-01T10:16:21.993Z</time>  </trkpt>
  <trkpt lat="47.0564125" lon="12.9479106">  <ele>2879.973</ele>  <time>2018-05-01T10:16:28.993Z</time>  </trkpt>
  <trkpt lat="47.0564125" lon="12.9479106">  <ele>2879.415</ele>  <time>2018-05-01T10:16:35.431Z</time>  </trkpt>
  <trkpt lat="47.0564036" lon="12.9475895">  <ele>2878.652</ele>  <time>2018-05-01T10:16:45.562Z</time>  </trkpt>
  <trkpt lat="47.0564124" lon="12.9474505">  <ele>2877.998</ele>  <time>2018-05-01T10:16:48.199Z</time>  </trkpt>
  <trkpt lat="47.0564263" lon="12.9472835">  <ele>2877.908</ele>  <time>2018-05-01T10:16:51.368Z</time>  </trkpt>
  <trkpt lat="47.0564385" lon="12.9471276">  <ele>2877.683</ele>  <time>2018-05-01T10:16:54.480Z</time>  </trkpt>
  <trkpt lat="47.0564445" lon="12.9469741">  <ele>2876.368</ele>  <time>2018-05-01T10:16:57.703Z</time>  </trkpt>
  <trkpt lat="47.0564435" lon="12.9468080">  <ele>2874.022</ele>  <time>2018-05-01T10:17:01.436Z</time>  </trkpt>
  <trkpt lat="47.0564407" lon="12.9466652">  <ele>2871.565</ele>  <time>2018-05-01T10:17:04.603Z</time>  </trkpt>
  <trkpt lat="47.0563492" lon="12.9465126">  <ele>2869.709</ele>  <time>2018-05-01T10:17:09.518Z</time>  </trkpt>
  <trkpt lat="47.0562465" lon="12.9464591">  <ele>2868.175</ele>  <time>2018-05-01T10:17:13.429Z</time>  </trkpt>
  <trkpt lat="47.0560852" lon="12.9463882">  <ele>2866.011</ele>  <time>2018-05-01T10:17:18.063Z</time>  </trkpt>
  <trkpt lat="47.0559822" lon="12.9462465">  <ele>2862.994</ele>  <time>2018-05-01T10:17:20.903Z</time>  </trkpt>
  <trkpt lat="47.0559125" lon="12.9460517">  <ele>2859.715</ele>  <time>2018-05-01T10:17:23.643Z</time>  </trkpt>
  <trkpt lat="47.0559859" lon="12.9458345">  <ele>2856.325</ele>  <time>2018-05-01T10:17:26.754Z</time>  </trkpt>
  <trkpt lat="47.0559290" lon="12.9456184">  <ele>2852.624</ele>  <time>2018-05-01T10:17:29.886Z</time>  </trkpt>
  <trkpt lat="47.0558007" lon="12.9455865">  <ele>2849.121</ele>  <time>2018-05-01T10:17:32.475Z</time>  </trkpt>
  <trkpt lat="47.0557868" lon="12.9453880">  <ele>2846.179</ele>  <time>2018-05-01T10:17:35.142Z</time>  </trkpt>
  <trkpt lat="47.0558371" lon="12.9452647">  <ele>2843.305</ele>  <time>2018-05-01T10:17:37.056Z</time>  </trkpt>
  <trkpt lat="47.0558642" lon="12.9451084">  <ele>2840.329</ele>  <time>2018-05-01T10:17:39.205Z</time>  </trkpt>
  <trkpt lat="47.0557683" lon="12.9450280">  <ele>2837.828</ele>  <time>2018-05-01T10:17:41.336Z</time>  </trkpt>
  <trkpt lat="47.0557781" lon="12.9448590">  <ele>2835.924</ele>  <time>2018-05-01T10:17:43.519Z</time>  </trkpt>
  <trkpt lat="47.0556903" lon="12.9447891">  <ele>2834.224</ele>  <time>2018-05-01T10:17:45.384Z</time>  </trkpt>
  <trkpt lat="47.0556611" lon="12.9446308">  <ele>2832.532</ele>  <time>2018-05-01T10:17:47.440Z</time>  </trkpt>
  <trkpt lat="47.0555787" lon="12.9445342">  <ele>2830.637</ele>  <time>2018-05-01T10:17:49.322Z</time>  </trkpt>
  <trkpt lat="47.0555484" lon="12.9443809">  <ele>2828.321</ele>  <time>2018-05-01T10:17:51.192Z</time>  </trkpt>
  <trkpt lat="47.0554996" lon="12.9442214">  <ele>2826.121</ele>  <time>2018-05-01T10:17:53.116Z</time>  </trkpt>
  <trkpt lat="47.0554636" lon="12.9440469">  <ele>2824.344</ele>  <time>2018-05-01T10:17:54.995Z</time>  </trkpt>
  <trkpt lat="47.0555136" lon="12.9439093">  <ele>2822.384</ele>  <time>2018-05-01T10:17:56.623Z</time>  </trkpt>
  <trkpt lat="47.0555568" lon="12.9437800">  <ele>2819.828</ele>  <time>2018-05-01T10:17:58.211Z</time>  </trkpt>
  <trkpt lat="47.0554502" lon="12.9437514">  <ele>2817.236</ele>  <time>2018-05-01T10:18:00.110Z</time>  </trkpt>
  <trkpt lat="47.0553600" lon="12.9437309">  <ele>2815.205</ele>  <time>2018-05-01T10:18:01.919Z</time>  </trkpt>
  <trkpt lat="47.0552600" lon="12.9436116">  <ele>2813.704</ele>  <time>2018-05-01T10:18:04.775Z</time>  </trkpt>
  <trkpt lat="47.0551653" lon="12.9434733">  <ele>2812.558</ele>  <time>2018-05-01T10:18:07.416Z</time>  </trkpt>
  <trkpt lat="47.0552438" lon="12.9431816">  <ele>2811.569</ele>  <time>2018-05-01T10:18:11.196Z</time>  </trkpt>
  <trkpt lat="47.0551562" lon="12.9429705">  <ele>2810.141</ele>  <time>2018-05-01T10:18:14.057Z</time>  </trkpt>
  <trkpt lat="47.0551836" lon="12.9428079">  <ele>2808.050</ele>  <time>2018-05-01T10:18:15.999Z</time>  </trkpt>
  <trkpt lat="47.0551836" lon="12.9428079">  <ele>2805.990</ele>  <time>2018-05-01T10:18:16.999Z</time>  </trkpt>
  <trkpt lat="47.0551836" lon="12.9428079">  <ele>2804.517</ele>  <time>2018-05-01T10:18:28.909Z</time>  </trkpt>
  <trkpt lat="47.0551867" lon="12.9425497">  <ele>2803.497</ele>  <time>2018-05-01T10:18:39.606Z</time>  </trkpt>
  <trkpt lat="47.0551844" lon="12.9423735">  <ele>2801.340</ele>  <time>2018-05-01T10:18:43.762Z</time>  </trkpt>
  <trkpt lat="47.0551793" lon="12.9422271">  <ele>2796.722</ele>  <time>2018-05-01T10:18:47.167Z</time>  </trkpt>
  <trkpt lat="47.0551787" lon="12.9420794">  <ele>2791.164</ele>  <time>2018-05-01T10:18:51.193Z</time>  </trkpt>
  <trkpt lat="47.0551758" lon="12.9419344">  <ele>2786.759</ele>  <time>2018-05-01T10:18:56.682Z</time>  </trkpt>
  <trkpt lat="47.0551532" lon="12.9418042">  <ele>2783.651</ele>  <time>2018-05-01T10:19:02.985Z</time>  </trkpt>
  <trkpt lat="47.0551158" lon="12.9416731">  <ele>2781.766</ele>  <time>2018-05-01T10:19:09.807Z</time>  </trkpt>
  <trkpt lat="47.0550764" lon="12.9415355">  <ele>2781.314</ele>  <time>2018-05-01T10:19:16.275Z</time>  </trkpt>
  <trkpt lat="47.0550381" lon="12.9414157">  <ele>2781.988</ele>  <time>2018-05-01T10:19:21.965Z</time>  </trkpt>
  <trkpt lat="47.0550427" lon="12.9412811">  <ele>2782.673</ele>  <time>2018-05-01T10:19:27.414Z</time>  </trkpt>
  <trkpt lat="47.0550492" lon="12.9411262">  <ele>2782.526</ele>  <time>2018-05-01T10:19:33.692Z</time>  </trkpt>
  <trkpt lat="47.0550111" lon="12.9409945">  <ele>2781.493</ele>  <time>2018-05-01T10:19:39.108Z</time>  </trkpt>
  <trkpt lat="47.0549865" lon="12.9408292">  <ele>2779.644</ele>  <time>2018-05-01T10:19:45.142Z</time>  </trkpt>
  <trkpt lat="47.0549656" lon="12.9405979">  <ele>2777.332</ele>  <time>2018-05-01T10:19:50.578Z</time>  </trkpt>
  <trkpt lat="47.0549410" lon="12.9404256">  <ele>2775.412</ele>  <time>2018-05-01T10:19:53.499Z</time>  </trkpt>
  <trkpt lat="47.0549058" lon="12.9402976">  <ele>2774.501</ele>  <time>2018-05-01T10:19:56.035Z</time>  </trkpt>
  <trkpt lat="47.0548557" lon="12.9401823">  <ele>2774.477</ele>  <time>2018-05-01T10:19:59.458Z</time>  </trkpt>
  <trkpt lat="47.0547847" lon="12.9400462">  <ele>2774.437</ele>  <time>2018-05-01T10:20:04.384Z</time>  </trkpt>
  <trkpt lat="47.0547285" lon="12.9399110">  <ele>2773.721</ele>  <time>2018-05-01T10:20:08.433Z</time>  </trkpt>
  <trkpt lat="47.0546749" lon="12.9397649">  <ele>2772.707</ele>  <time>2018-05-01T10:20:11.864Z</time>  </trkpt>
  <trkpt lat="47.0546236" lon="12.9396290">  <ele>2771.761</ele>  <time>2018-05-01T10:20:14.997Z</time>  </trkpt>
  <trkpt lat="47.0546236" lon="12.9396290">  <ele>2770.623</ele>  <time>2018-05-01T10:20:22.997Z</time>  </trkpt>
  <trkpt lat="47.0546236" lon="12.9396290">  <ele>2769.343</ele>  <time>2018-05-01T10:20:58.123Z</time>  </trkpt>
  <trkpt lat="47.0545749" lon="12.9395004">  <ele>2768.294</ele>  <time>2018-05-01T10:21:10.320Z</time>  </trkpt>
  <trkpt lat="47.0545220" lon="12.9393689">  <ele>2767.521</ele>  <time>2018-05-01T10:21:16.389Z</time>  </trkpt>
  <trkpt lat="47.0544532" lon="12.9392696">  <ele>2766.901</ele>  <time>2018-05-01T10:21:20.995Z</time>  </trkpt>
  <trkpt lat="47.0544532" lon="12.9392696">  <ele>2766.473</ele>  <time>2018-05-01T10:21:24.995Z</time>  </trkpt>
  <trkpt lat="47.0544532" lon="12.9392696">  <ele>2765.924</ele>  <time>2018-05-01T10:21:25.095Z</time>  </trkpt>
  <trkpt lat="47.0542911" lon="12.9391180">  <ele>2764.957</ele>  <time>2018-05-01T10:21:34.571Z</time>  </trkpt>
  <trkpt lat="47.0542035" lon="12.9390635">  <ele>2764.032</ele>  <time>2018-05-01T10:21:37.357Z</time>  </trkpt>
  <trkpt lat="47.0541181" lon="12.9390059">  <ele>2763.633</ele>  <time>2018-05-01T10:21:39.995Z</time>  </trkpt>
  <trkpt lat="47.0541181" lon="12.9390059">  <ele>2763.594</ele>  <time>2018-05-01T10:21:41.995Z</time>  </trkpt>
  <trkpt lat="47.0541181" lon="12.9390059">  <ele>2763.204</ele>  <time>2018-05-01T10:21:42.095Z</time>  </trkpt>
  <trkpt lat="47.0539161" lon="12.9390036">  <ele>2762.076</ele>  <time>2018-05-01T10:21:48.748Z</time>  </trkpt>
  <trkpt lat="47.0537964" lon="12.9389868">  <ele>2760.884</ele>  <time>2018-05-01T10:21:51.136Z</time>  </trkpt>
  <trkpt lat="47.0536737" lon="12.9389199">  <ele>2760.094</ele>  <time>2018-05-01T10:21:53.459Z</time>  </trkpt>
  <trkpt lat="47.0535320" lon="12.9388553">  <ele>2759.399</ele>  <time>2018-05-01T10:21:55.926Z</time>  </trkpt>
  <trkpt lat="47.0534213" lon="12.9387635">  <ele>2758.455</ele>  <time>2018-05-01T10:21:57.995Z</time>  </trkpt>
  <trkpt lat="47.0534213" lon="12.9387635">  <ele>2757.147</ele>  <time>2018-05-01T10:22:04.995Z</time>  </trkpt>
  <trkpt lat="47.0534213" lon="12.9387635">  <ele>2755.762</ele>  <time>2018-05-01T10:25:21.875Z</time>  </trkpt>
  <trkpt lat="47.0533398" lon="12.9384033">  <ele>2754.697</ele>  <time>2018-05-01T10:25:33.065Z</time>  </trkpt>
  <trkpt lat="47.0533526" lon="12.9382494">  <ele>2753.786</ele>  <time>2018-05-01T10:25:35.463Z</time>  </trkpt>
  <trkpt lat="47.0534061" lon="12.9380281">  <ele>2752.789</ele>  <time>2018-05-01T10:25:38.759Z</time>  </trkpt>
  <trkpt lat="47.0534468" lon="12.9378557">  <ele>2751.478</ele>  <time>2018-05-01T10:25:41.273Z</time>  </trkpt>
  <trkpt lat="47.0534753" lon="12.9376966">  <ele>2749.577</ele>  <time>2018-05-01T10:25:43.696Z</time>  </trkpt>
  <trkpt lat="47.0535254" lon="12.9375400">  <ele>2747.458</ele>  <time>2018-05-01T10:25:46.384Z</time>  </trkpt>
  <trkpt lat="47.0535544" lon="12.9374134">  <ele>2745.810</ele>  <time>2018-05-01T10:25:48.801Z</time>  </trkpt>
  <trkpt lat="47.0535905" lon="12.9372772">  <ele>2744.636</ele>  <time>2018-05-01T10:25:51.738Z</time>  </trkpt>
  <trkpt lat="47.0534973" lon="12.9372184">  <ele>2743.367</ele>  <time>2018-05-01T10:25:55.289Z</time>  </trkpt>
  <trkpt lat="47.0533827" lon="12.9371322">  <ele>2741.219</ele>  <time>2018-05-01T10:26:00.934Z</time>  </trkpt>
  <trkpt lat="47.0532788" lon="12.9371087">  <ele>2737.734</ele>  <time>2018-05-01T10:26:05.044Z</time>  </trkpt>
  <trkpt lat="47.0533300" lon="12.9369973">  <ele>2733.840</ele>  <time>2018-05-01T10:26:08.313Z</time>  </trkpt>
  <trkpt lat="47.0532718" lon="12.9368660">  <ele>2730.422</ele>  <time>2018-05-01T10:26:12.539Z</time>  </trkpt>
  <trkpt lat="47.0531712" lon="12.9368369">  <ele>2727.454</ele>  <time>2018-05-01T10:26:17.249Z</time>  </trkpt>
  <trkpt lat="47.0530477" lon="12.9367739">  <ele>2725.100</ele>  <time>2018-05-01T10:26:22.448Z</time>  </trkpt>
  <trkpt lat="47.0529241" lon="12.9366051">  <ele>2723.510</ele>  <time>2018-05-01T10:26:26.957Z</time>  </trkpt>
  <trkpt lat="47.0530225" lon="12.9366101">  <ele>2720.422</ele>  <time>2018-05-01T10:26:29.590Z</time>  </trkpt>
  <trkpt lat="47.0529238" lon="12.9366153">  <ele>2714.539</ele>  <time>2018-05-01T10:26:32.998Z</time>  </trkpt>
  <trkpt lat="47.0529238" lon="12.9366153">  <ele>2708.686</ele>  <time>2018-05-01T10:26:34.998Z</time>  </trkpt>
  <trkpt lat="47.0529238" lon="12.9366153">  <ele>2705.684</ele>  <time>2018-05-01T10:26:49.529Z</time>  </trkpt>
  <trkpt lat="47.0530101" lon="12.9365139">  <ele>2704.938</ele>  <time>2018-05-01T10:26:57.055Z</time>  </trkpt>
  <trkpt lat="47.0531072" lon="12.9364870">  <ele>2704.550</ele>  <time>2018-05-01T10:27:00.824Z</time>  </trkpt>
  <trkpt lat="47.0531691" lon="12.9363854">  <ele>2702.916</ele>  <time>2018-05-01T10:27:03.778Z</time>  </trkpt>
  <trkpt lat="47.0531271" lon="12.9362069">  <ele>2700.137</ele>  <time>2018-05-01T10:27:07.186Z</time>  </trkpt>
  <trkpt lat="47.0530363" lon="12.9359610">  <ele>2697.356</ele>  <time>2018-05-01T10:27:12.118Z</time>  </trkpt>
  <trkpt lat="47.0529632" lon="12.9360577">  <ele>2695.078</ele>  <time>2018-05-01T10:27:14.845Z</time>  </trkpt>
  <trkpt lat="47.0528753" lon="12.9360901">  <ele>2693.206</ele>  <time>2018-05-01T10:27:17.695Z</time>  </trkpt>
  <trkpt lat="47.0527754" lon="12.9360019">  <ele>2691.255</ele>  <time>2018-05-01T10:27:21.097Z</time>  </trkpt>
  <trkpt lat="47.0526822" lon="12.9358814">  <ele>2688.516</ele>  <time>2018-05-01T10:27:24.149Z</time>  </trkpt>
  <trkpt lat="47.0525726" lon="12.9358755">  <ele>2685.414</ele>  <time>2018-05-01T10:27:26.758Z</time>  </trkpt>
  <trkpt lat="47.0524733" lon="12.9358906">  <ele>2683.009</ele>  <time>2018-05-01T10:27:29.427Z</time>  </trkpt>
  <trkpt lat="47.0523352" lon="12.9358706">  <ele>2680.690</ele>  <time>2018-05-01T10:27:32.997Z</time>  </trkpt>
  <trkpt lat="47.0523352" lon="12.9358706">  <ele>2677.723</ele>  <time>2018-05-01T10:27:37.997Z</time>  </trkpt>
  <trkpt lat="47.0523352" lon="12.9358706">  <ele>2675.264</ele>  <time>2018-05-01T10:28:29.319Z</time>  </trkpt>
  <trkpt lat="47.0523714" lon="12.9357335">  <ele>2674.242</ele>  <time>2018-05-01T10:28:37.837Z</time>  </trkpt>
  <trkpt lat="47.0524330" lon="12.9354833">  <ele>2671.930</ele>  <time>2018-05-01T10:28:44.132Z</time>  </trkpt>
  <trkpt lat="47.0523278" lon="12.9353681">  <ele>2666.209</ele>  <time>2018-05-01T10:28:47.248Z</time>  </trkpt>
  <trkpt lat="47.0522040" lon="12.9352401">  <ele>2659.620</ele>  <time>2018-05-01T10:28:50.226Z</time>  </trkpt>
  <trkpt lat="47.0521470" lon="12.9350552">  <ele>2654.873</ele>  <time>2018-05-01T10:28:53.213Z</time>  </trkpt>
  <trkpt lat="47.0520632" lon="12.9348653">  <ele>2651.676</ele>  <time>2018-05-01T10:28:56.719Z</time>  </trkpt>
  <trkpt lat="47.0519750" lon="12.9347956">  <ele>2649.741</ele>  <time>2018-05-01T10:28:58.995Z</time>  </trkpt>
  <trkpt lat="47.0519750" lon="12.9347956">  <ele>2648.583</ele>  <time>2018-05-01T10:29:01.995Z</time>  </trkpt>
  <trkpt lat="47.0519750" lon="12.9347956">  <ele>2647.437</ele>  <time>2018-05-01T10:29:03.330Z</time>  </trkpt>
  <trkpt lat="47.0519102" lon="12.9345266">  <ele>2646.257</ele>  <time>2018-05-01T10:29:12.129Z</time>  </trkpt>
  <trkpt lat="47.0518794" lon="12.9343714">  <ele>2644.604</ele>  <time>2018-05-01T10:29:14.644Z</time>  </trkpt>
  <trkpt lat="47.0518163" lon="12.9342239">  <ele>2641.688</ele>  <time>2018-05-01T10:29:17.238Z</time>  </trkpt>
  <trkpt lat="47.0517783" lon="12.9340523">  <ele>2638.257</ele>  <time>2018-05-01T10:29:19.995Z</time>  </trkpt>
  <trkpt lat="47.0517783" lon="12.9340523">  <ele>2635.755</ele>  <time>2018-05-01T10:29:25.994Z</time>  </trkpt>
  <trkpt lat="47.0517783" lon="12.9340523">  <ele>2634.427</ele>  <time>2018-05-01T10:29:28.366Z</time>  </trkpt>
  <trkpt lat="47.0517079" lon="12.9337681">  <ele>2633.689</ele>  <time>2018-05-01T10:29:37.775Z</time>  </trkpt>
  <trkpt lat="47.0518152" lon="12.9336611">  <ele>2632.205</ele>  <time>2018-05-01T10:29:41.308Z</time>  </trkpt>
  <trkpt lat="47.0517293" lon="12.9335998">  <ele>2629.487</ele>  <time>2018-05-01T10:29:43.994Z</time>  </trkpt>
  <trkpt lat="47.0517293" lon="12.9335998">  <ele>2626.950</ele>  <time>2018-05-01T10:29:45.994Z</time>  </trkpt>
  <trkpt lat="47.0517293" lon="12.9335998">  <ele>2625.675</ele>  <time>2018-05-01T10:29:55.622Z</time>  </trkpt>
  <trkpt lat="47.0515509" lon="12.9335177">  <ele>2624.999</ele>  <time>2018-05-01T10:30:01.748Z</time>  </trkpt>
  <trkpt lat="47.0514025" lon="12.9335894">  <ele>2624.085</ele>  <time>2018-05-01T10:30:04.746Z</time>  </trkpt>
  <trkpt lat="47.0512249" lon="12.9337088">  <ele>2622.178</ele>  <time>2018-05-01T10:30:08.111Z</time>  </trkpt>
  <trkpt lat="47.0510814" lon="12.9338009">  <ele>2618.885</ele>  <time>2018-05-01T10:30:10.655Z</time>  </trkpt>
  <trkpt lat="47.0509520" lon="12.9336683">  <ele>2614.633</ele>  <time>2018-05-01T10:30:13.213Z</time>  </trkpt>
  <trkpt lat="47.0508706" lon="12.9335255">  <ele>2609.909</ele>  <time>2018-05-01T10:30:15.380Z</time>  </trkpt>
  <trkpt lat="47.0507501" lon="12.9334819">  <ele>2605.020</ele>  <time>2018-05-01T10:30:18.029Z</time>  </trkpt>
  <trkpt lat="47.0505895" lon="12.9334659">  <ele>2600.254</ele>  <time>2018-05-01T10:30:22.092Z</time>  </trkpt>
  <trkpt lat="47.0505247" lon="12.9332633">  <ele>2595.632</ele>  <time>2018-05-01T10:30:25.594Z</time>  </trkpt>
  <trkpt lat="47.0504511" lon="12.9331581">  <ele>2591.088</ele>  <time>2018-05-01T10:30:27.993Z</time>  </trkpt>
  <trkpt lat="47.0504511" lon="12.9331581">  <ele>2587.241</ele>  <time>2018-05-01T10:30:32.993Z</time>  </trkpt>
  <trkpt lat="47.0504511" lon="12.9331581">  <ele>2584.896</ele>  <time>2018-05-01T10:30:40.346Z</time>  </trkpt>
  <trkpt lat="47.0503100" lon="12.9333906">  <ele>2584.009</ele>  <time>2018-05-01T10:30:47.926Z</time>  </trkpt>
  <trkpt lat="47.0501762" lon="12.9334978">  <ele>2582.779</ele>  <time>2018-05-01T10:30:50.557Z</time>  </trkpt>
  <trkpt lat="47.0500385" lon="12.9336883">  <ele>2580.042</ele>  <time>2018-05-01T10:30:53.413Z</time>  </trkpt>
  <trkpt lat="47.0498934" lon="12.9337461">  <ele>2576.670</ele>  <time>2018-05-01T10:30:55.590Z</time>  </trkpt>
  <trkpt lat="47.0497172" lon="12.9338569">  <ele>2573.335</ele>  <time>2018-05-01T10:30:58.430Z</time>  </trkpt>
  <trkpt lat="47.0496418" lon="12.9336789">  <ele>2569.482</ele>  <time>2018-05-01T10:31:00.993Z</time>  </trkpt>
  <trkpt lat="47.0496418" lon="12.9336789">  <ele>2565.646</ele>  <time>2018-05-01T10:31:06.993Z</time>  </trkpt>
  <trkpt lat="47.0496418" lon="12.9336789">  <ele>2563.100</ele>  <time>2018-05-01T10:31:20.153Z</time>  </trkpt>
  <trkpt lat="47.0494727" lon="12.9335984">  <ele>2562.200</ele>  <time>2018-05-01T10:31:26.886Z</time>  </trkpt>
  <trkpt lat="47.0494132" lon="12.9333462">  <ele>2561.181</ele>  <time>2018-05-01T10:31:30.323Z</time>  </trkpt>
  <trkpt lat="47.0493356" lon="12.9331312">  <ele>2558.305</ele>  <time>2018-05-01T10:31:33.244Z</time>  </trkpt>
  <trkpt lat="47.0491651" lon="12.9330920">  <ele>2554.226</ele>  <time>2018-05-01T10:31:36.332Z</time>  </trkpt>
  <trkpt lat="47.0489896" lon="12.9330569">  <ele>2550.324</ele>  <time>2018-05-01T10:31:39.430Z</time>  </trkpt>
  <trkpt lat="47.0488284" lon="12.9329398">  <ele>2546.770</ele>  <time>2018-05-01T10:31:42.291Z</time>  </trkpt>
  <trkpt lat="47.0487639" lon="12.9326307">  <ele>2543.377</ele>  <time>2018-05-01T10:31:45.176Z</time>  </trkpt>
  <trkpt lat="47.0486798" lon="12.9322843">  <ele>2539.790</ele>  <time>2018-05-01T10:31:48.296Z</time>  </trkpt>
  <trkpt lat="47.0485872" lon="12.9320457">  <ele>2533.510</ele>  <time>2018-05-01T10:31:50.995Z</time>  </trkpt>
  <trkpt lat="47.0484354" lon="12.9318569">  <ele>2530.722</ele>  <time>2018-05-01T10:31:54.477Z</time>  </trkpt>
  <trkpt lat="47.0483715" lon="12.9317523">  <ele>2527.428</ele>  <time>2018-05-01T10:31:56.586Z</time>  </trkpt>
  <trkpt lat="47.0483049" lon="12.9316158">  <ele>2524.294</ele>  <time>2018-05-01T10:31:59.776Z</time>  </trkpt>
  <trkpt lat="47.0482529" lon="12.9314639">  <ele>2521.733</ele>  <time>2018-05-01T10:32:03.735Z</time>  </trkpt>
  <trkpt lat="47.0481978" lon="12.9313344">  <ele>2519.763</ele>  <time>2018-05-01T10:32:07.892Z</time>  </trkpt>
  <trkpt lat="47.0481531" lon="12.9311825">  <ele>2518.512</ele>  <time>2018-05-01T10:32:12.121Z</time>  </trkpt>
  <trkpt lat="47.0480911" lon="12.9310520">  <ele>2517.761</ele>  <time>2018-05-01T10:32:15.210Z</time>  </trkpt>
  <trkpt lat="47.0480146" lon="12.9309044">  <ele>2516.746</ele>  <time>2018-05-01T10:32:18.295Z</time>  </trkpt>
  <trkpt lat="47.0479302" lon="12.9307587">  <ele>2515.117</ele>  <time>2018-05-01T10:32:21.179Z</time>  </trkpt>
  <trkpt lat="47.0478419" lon="12.9306479">  <ele>2513.276</ele>  <time>2018-05-01T10:32:23.547Z</time>  </trkpt>
  <trkpt lat="47.0478032" lon="12.9305255">  <ele>2511.718</ele>  <time>2018-05-01T10:32:25.433Z</time>  </trkpt>
  <trkpt lat="47.0477277" lon="12.9303651">  <ele>2510.587</ele>  <time>2018-05-01T10:32:28.366Z</time>  </trkpt>
  <trkpt lat="47.0476627" lon="12.9302322">  <ele>2509.719</ele>  <time>2018-05-01T10:32:31.296Z</time>  </trkpt>
  <trkpt lat="47.0476056" lon="12.9300858">  <ele>2507.810</ele>  <time>2018-05-01T10:32:34.855Z</time>  </trkpt>
  <trkpt lat="47.0475357" lon="12.9299661">  <ele>2507.107</ele>  <time>2018-05-01T10:32:39.679Z</time>  </trkpt>
  <trkpt lat="47.0474973" lon="12.9298449">  <ele>2507.085</ele>  <time>2018-05-01T10:32:44.999Z</time>  </trkpt>
  <trkpt lat="47.0474973" lon="12.9298449">  <ele>2507.945</ele>  <time>2018-05-01T10:32:52.999Z</time>  </trkpt>
  <trkpt lat="47.0474973" lon="12.9298449">  <ele>2506.902</ele>  <time>2018-05-01T10:32:53.099Z</time>  </trkpt>
  <trkpt lat="47.0474148" lon="12.9297746">  <ele>2505.541</ele>  <time>2018-05-01T10:33:05.767Z</time>  </trkpt>
  <trkpt lat="47.0474610" lon="12.9296571">  <ele>2505.327</ele>  <time>2018-05-01T10:33:15.839Z</time>  </trkpt>
  <trkpt lat="47.0474020" lon="12.9295519">  <ele>2506.433</ele>  <time>2018-05-01T10:33:25.998Z</time>  </trkpt>
  <trkpt lat="47.0474020" lon="12.9295519">  <ele>2507.514</ele>  <time>2018-05-01T10:33:44.998Z</time>  </trkpt>
  <trkpt lat="47.0474020" lon="12.9295519">  <ele>2507.262</ele>  <time>2018-05-01T10:39:39.700Z</time>  </trkpt>
  <trkpt lat="47.0474020" lon="12.9295519">  <ele>2504.936</ele>  <time>2018-05-01T10:40:40.998Z</time>  </trkpt>
  <trkpt lat="47.0474020" lon="12.9295519">  <ele>2504.255</ele>  <time>2018-05-01T10:40:41.098Z</time>  </trkpt>
  <trkpt lat="47.0474020" lon="12.9295519">  <ele>2502.685</ele>  <time>2018-05-01T10:40:43.998Z</time>  </trkpt>
  <trkpt lat="47.0474020" lon="12.9295519">  <ele>2501.914</ele>  <time>2018-05-01T10:48:00.696Z</time>  </trkpt>
  <trkpt lat="47.0471713" lon="12.9296971">  <ele>2501.213</ele>  <time>2018-05-01T10:48:18.737Z</time>  </trkpt>
  <trkpt lat="47.0470790" lon="12.9296805">  <ele>2503.017</ele>  <time>2018-05-01T10:48:23.409Z</time>  </trkpt>
  <trkpt lat="47.0469808" lon="12.9295931">  <ele>2508.938</ele>  <time>2018-05-01T10:48:28.806Z</time>  </trkpt>
  <trkpt lat="47.0469016" lon="12.9294969">  <ele>2515.351</ele>  <time>2018-05-01T10:48:33.972Z</time>  </trkpt>
  <trkpt lat="47.0469835" lon="12.9294305">  <ele>2518.438</ele>  <time>2018-05-01T10:48:38.436Z</time>  </trkpt>
  <trkpt lat="47.0470276" lon="12.9292965">  <ele>2518.032</ele>  <time>2018-05-01T10:48:43.105Z</time>  </trkpt>
  <trkpt lat="47.0471237" lon="12.9292310">  <ele>2514.915</ele>  <time>2018-05-01T10:48:47.865Z</time>  </trkpt>
  <trkpt lat="47.0470944" lon="12.9290892">  <ele>2510.507</ele>  <time>2018-05-01T10:48:52.569Z</time>  </trkpt>
  <trkpt lat="47.0471787" lon="12.9290395">  <ele>2506.281</ele>  <time>2018-05-01T10:48:57.104Z</time>  </trkpt>
  <trkpt lat="47.0471902" lon="12.9288807">  <ele>2502.596</ele>  <time>2018-05-01T10:49:02.539Z</time>  </trkpt>
  <trkpt lat="47.0472450" lon="12.9287740">  <ele>2498.770</ele>  <time>2018-05-01T10:49:06.559Z</time>  </trkpt>
  <trkpt lat="47.0472050" lon="12.9286252">  <ele>2494.462</ele>  <time>2018-05-01T10:49:10.901Z</time>  </trkpt>
  <trkpt lat="47.0471972" lon="12.9284647">  <ele>2489.980</ele>  <time>2018-05-01T10:49:14.692Z</time>  </trkpt>
  <trkpt lat="47.0471273" lon="12.9283268">  <ele>2485.652</ele>  <time>2018-05-01T10:49:18.158Z</time>  </trkpt>
  <trkpt lat="47.0471708" lon="12.9281959">  <ele>2482.111</ele>  <time>2018-05-01T10:49:21.083Z</time>  </trkpt>
  <trkpt lat="47.0470879" lon="12.9281063">  <ele>2479.868</ele>  <time>2018-05-01T10:49:24.191Z</time>  </trkpt>
  <trkpt lat="47.0470074" lon="12.9279862">  <ele>2478.536</ele>  <time>2018-05-01T10:49:28.178Z</time>  </trkpt>
  <trkpt lat="47.0469999" lon="12.9278413">  <ele>2476.956</ele>  <time>2018-05-01T10:49:31.664Z</time>  </trkpt>
  <trkpt lat="47.0470710" lon="12.9276953">  <ele>2474.250</ele>  <time>2018-05-01T10:49:35.433Z</time>  </trkpt>
  <trkpt lat="47.0471422" lon="12.9275476">  <ele>2468.607</ele>  <time>2018-05-01T10:49:38.754Z</time>  </trkpt>
  <trkpt lat="47.0471683" lon="12.9273979">  <ele>2459.725</ele>  <time>2018-05-01T10:49:41.469Z</time>  </trkpt>
  <trkpt lat="47.0471283" lon="12.9272629">  <ele>2451.578</ele>  <time>2018-05-01T10:49:43.997Z</time>  </trkpt>
  <trkpt lat="47.0471283" lon="12.9272629">  <ele>2447.645</ele>  <time>2018-05-01T10:49:49.997Z</time>  </trkpt>
  <trkpt lat="47.0471283" lon="12.9272629">  <ele>2446.955</ele>  <time>2018-05-01T10:50:48.809Z</time>  </trkpt>
  <trkpt lat="47.0471635" lon="12.9270638">  <ele>2446.398</ele>  <time>2018-05-01T10:50:56.174Z</time>  </trkpt>
  <trkpt lat="47.0472608" lon="12.9269949">  <ele>2442.037</ele>  <time>2018-05-01T10:50:59.432Z</time>  </trkpt>
  <trkpt lat="47.0473252" lon="12.9268763">  <ele>2431.803</ele>  <time>2018-05-01T10:51:02.533Z</time>  </trkpt>
  <trkpt lat="47.0473723" lon="12.9267534">  <ele>2419.985</ele>  <time>2018-05-01T10:51:05.320Z</time>  </trkpt>
  <trkpt lat="47.0474580" lon="12.9266877">  <ele>2411.900</ele>  <time>2018-05-01T10:51:08.119Z</time>  </trkpt>
  <trkpt lat="47.0475469" lon="12.9265363">  <ele>2405.938</ele>  <time>2018-05-01T10:51:12.008Z</time>  </trkpt>
  <trkpt lat="47.0476371" lon="12.9265457">  <ele>2398.428</ele>  <time>2018-05-01T10:51:14.413Z</time>  </trkpt>
  <trkpt lat="47.0477357" lon="12.9265898">  <ele>2388.892</ele>  <time>2018-05-01T10:51:17.078Z</time>  </trkpt>
  <trkpt lat="47.0477170" lon="12.9263268">  <ele>2380.123</ele>  <time>2018-05-01T10:51:22.120Z</time>  </trkpt>
  <trkpt lat="47.0478203" lon="12.9263142">  <ele>2373.801</ele>  <time>2018-05-01T10:51:24.995Z</time>  </trkpt>
  <trkpt lat="47.0478203" lon="12.9263142">  <ele>2369.457</ele>  <time>2018-05-01T10:51:24.995Z</time>  </trkpt>
  <trkpt lat="47.0478203" lon="12.9263142">  <ele>2366.884</ele>  <time>2018-05-01T10:52:40.686Z</time>  </trkpt>
  <trkpt lat="47.0479969" lon="12.9262925">  <ele>2366.110</ele>  <time>2018-05-01T10:52:51.752Z</time>  </trkpt>
  <trkpt lat="47.0480595" lon="12.9261286">  <ele>2364.378</ele>  <time>2018-05-01T10:52:54.678Z</time>  </trkpt>
  <trkpt lat="47.0481711" lon="12.9260801">  <ele>2359.111</ele>  <time>2018-05-01T10:52:57.240Z</time>  </trkpt>
  <trkpt lat="47.0482895" lon="12.9259836">  <ele>2352.369</ele>  <time>2018-05-01T10:53:01.105Z</time>  </trkpt>
  <trkpt lat="47.0483441" lon="12.9258713">  <ele>2347.084</ele>  <time>2018-05-01T10:53:03.994Z</time>  </trkpt>
  <trkpt lat="47.0483441" lon="12.9258713">  <ele>2343.293</ele>  <time>2018-05-01T10:53:11.994Z</time>  </trkpt>
  <trkpt lat="47.0483441" lon="12.9258713">  <ele>2340.952</ele>  <time>2018-05-01T10:53:12.006Z</time>  </trkpt>
  <trkpt lat="47.0484904" lon="12.9258030">  <ele>2340.158</ele>  <time>2018-05-01T10:53:21.019Z</time>  </trkpt>
  <trkpt lat="47.0486185" lon="12.9257329">  <ele>2338.065</ele>  <time>2018-05-01T10:53:26.054Z</time>  </trkpt>
  <trkpt lat="47.0487157" lon="12.9258085">  <ele>2332.269</ele>  <time>2018-05-01T10:53:29.226Z</time>  </trkpt>
  <trkpt lat="47.0488216" lon="12.9256862">  <ele>2325.022</ele>  <time>2018-05-01T10:53:32.469Z</time>  </trkpt>
  <trkpt lat="47.0488782" lon="12.9255423">  <ele>2319.256</ele>  <time>2018-05-01T10:53:35.523Z</time>  </trkpt>
  <trkpt lat="47.0489796" lon="12.9253454">  <ele>2314.807</ele>  <time>2018-05-01T10:53:43.089Z</time>  </trkpt>
  <trkpt lat="47.0489946" lon="12.9251876">  <ele>2309.640</ele>  <time>2018-05-01T10:53:47.179Z</time>  </trkpt>
  <trkpt lat="47.0490725" lon="12.9250643">  <ele>2307.492</ele>  <time>2018-05-01T10:53:50.976Z</time>  </trkpt>
  <trkpt lat="47.0489647" lon="12.9250073">  <ele>2303.948</ele>  <time>2018-05-01T10:53:54.688Z</time>  </trkpt>
  <trkpt lat="47.0489560" lon="12.9248428">  <ele>2300.079</ele>  <time>2018-05-01T10:53:58.330Z</time>  </trkpt>
  <trkpt lat="47.0488619" lon="12.9247282">  <ele>2296.942</ele>  <time>2018-05-01T10:54:02.290Z</time>  </trkpt>
  <trkpt lat="47.0489123" lon="12.9245544">  <ele>2293.137</ele>  <time>2018-05-01T10:54:06.459Z</time>  </trkpt>
  <trkpt lat="47.0490167" lon="12.9244136">  <ele>2287.505</ele>  <time>2018-05-01T10:54:11.053Z</time>  </trkpt>
  <trkpt lat="47.0489668" lon="12.9237115">  <ele>2278.398</ele>  <time>2018-05-01T10:54:26.640Z</time>  </trkpt>
  <trkpt lat="47.0489157" lon="12.9234145">  <ele>2273.085</ele>  <time>2018-05-01T10:54:33.404Z</time>  </trkpt>
  <trkpt lat="47.0489484" lon="12.9231647">  <ele>2263.113</ele>  <time>2018-05-01T10:54:38.443Z</time>  </trkpt>
  <trkpt lat="47.0489978" lon="12.9229187">  <ele>2251.947</ele>  <time>2018-05-01T10:54:42.770Z</time>  </trkpt>
  <trkpt lat="47.0490285" lon="12.9227267">  <ele>2243.016</ele>  <time>2018-05-01T10:54:46.263Z</time>  </trkpt>
  <trkpt lat="47.0490625" lon="12.9225399">  <ele>2236.255</ele>  <time>2018-05-01T10:54:49.932Z</time>  </trkpt>
  <trkpt lat="47.0491418" lon="12.9223714">  <ele>2231.676</ele>  <time>2018-05-01T10:54:53.998Z</time>  </trkpt>
  <trkpt lat="47.0491418" lon="12.9223714">  <ele>2229.210</ele>  <time>2018-05-01T10:54:59.998Z</time>  </trkpt>
  <trkpt lat="47.0491418" lon="12.9223714">  <ele>2228.161</ele>  <time>2018-05-01T10:56:28.252Z</time>  </trkpt>
  <trkpt lat="47.0491499" lon="12.9220062">  <ele>2227.395</ele>  <time>2018-05-01T10:56:43.190Z</time>  </trkpt>
  <trkpt lat="47.0489688" lon="12.9218791">  <ele>2222.685</ele>  <time>2018-05-01T10:56:46.679Z</time>  </trkpt>
  <trkpt lat="47.0487630" lon="12.9217765">  <ele>2210.573</ele>  <time>2018-05-01T10:56:50.701Z</time>  </trkpt>
  <trkpt lat="47.0486528" lon="12.9217280">  <ele>2195.944</ele>  <time>2018-05-01T10:56:53.406Z</time>  </trkpt>
  <trkpt lat="47.0485551" lon="12.9217319">  <ele>2185.850</ele>  <time>2018-05-01T10:56:57.042Z</time>  </trkpt>
  <trkpt lat="47.0484661" lon="12.9216923">  <ele>2180.801</ele>  <time>2018-05-01T10:57:00.793Z</time>  </trkpt>
  <trkpt lat="47.0483754" lon="12.9216890">  <ele>2178.482</ele>  <time>2018-05-01T10:57:03.667Z</time>  </trkpt>
  <trkpt lat="47.0482642" lon="12.9217127">  <ele>2177.323</ele>  <time>2018-05-01T10:57:06.565Z</time>  </trkpt>
  <trkpt lat="47.0481526" lon="12.9216437">  <ele>2176.881</ele>  <time>2018-05-01T10:57:10.007Z</time>  </trkpt>
  <trkpt lat="47.0480666" lon="12.9215952">  <ele>2176.758</ele>  <time>2018-05-01T10:57:12.996Z</time>  </trkpt>
  <trkpt lat="47.0480666" lon="12.9215952">  <ele>2176.308</ele>  <time>2018-05-01T10:57:15.996Z</time>  </trkpt>
  <trkpt lat="47.0480666" lon="12.9215952">  <ele>2175.311</ele>  <time>2018-05-01T10:57:16.452Z</time>  </trkpt>
  <trkpt lat="47.0479903" lon="12.9215153">  <ele>2174.286</ele>  <time>2018-05-01T10:57:22.234Z</time>  </trkpt>
  <trkpt lat="47.0479074" lon="12.9214613">  <ele>2173.138</ele>  <time>2018-05-01T10:57:24.874Z</time>  </trkpt>
  <trkpt lat="47.0475122" lon="12.9210675">  <ele>2169.650</ele>  <time>2018-05-01T10:57:34.897Z</time>  </trkpt>
  <trkpt lat="47.0474210" lon="12.9210114">  <ele>2167.475</ele>  <time>2018-05-01T10:57:36.751Z</time>  </trkpt>
  <trkpt lat="47.0473127" lon="12.9209396">  <ele>2164.430</ele>  <time>2018-05-01T10:57:39.175Z</time>  </trkpt>
  <trkpt lat="47.0472459" lon="12.9208333">  <ele>2161.614</ele>  <time>2018-05-01T10:57:41.368Z</time>  </trkpt>
  <trkpt lat="47.0472197" lon="12.9206754">  <ele>2160.122</ele>  <time>2018-05-01T10:57:43.947Z</time>  </trkpt>
  <trkpt lat="47.0471442" lon="12.9205883">  <ele>2159.206</ele>  <time>2018-05-01T10:57:46.280Z</time>  </trkpt>
  <trkpt lat="47.0470664" lon="12.9205214">  <ele>2157.536</ele>  <time>2018-05-01T10:57:48.565Z</time>  </trkpt>
  <trkpt lat="47.0469812" lon="12.9204450">  <ele>2154.934</ele>  <time>2018-05-01T10:57:51.243Z</time>  </trkpt>
  <trkpt lat="47.0472178" lon="12.9203323">  <ele>2152.141</ele>  <time>2018-05-01T10:57:58.729Z</time>  </trkpt>
  <trkpt lat="47.0474990" lon="12.9202403">  <ele>2149.688</ele>  <time>2018-05-01T10:58:03.896Z</time>  </trkpt>
  <trkpt lat="47.0477433" lon="12.9203020">  <ele>2146.754</ele>  <time>2018-05-01T10:58:06.719Z</time>  </trkpt>
  <trkpt lat="47.0479465" lon="12.9203767">  <ele>2142.183</ele>  <time>2018-05-01T10:58:09.242Z</time>  </trkpt>
  <trkpt lat="47.0481213" lon="12.9204079">  <ele>2136.650</ele>  <time>2018-05-01T10:58:11.802Z</time>  </trkpt>
  <trkpt lat="47.0482361" lon="12.9203250">  <ele>2131.842</ele>  <time>2018-05-01T10:58:13.910Z</time>  </trkpt>
  <trkpt lat="47.0480494" lon="12.9200884">  <ele>2128.558</ele>  <time>2018-05-01T10:58:17.646Z</time>  </trkpt>
  <trkpt lat="47.0477844" lon="12.9199248">  <ele>2126.223</ele>  <time>2018-05-01T10:58:21.035Z</time>  </trkpt>
  <trkpt lat="47.0476530" lon="12.9196486">  <ele>2123.835</ele>  <time>2018-05-01T10:58:23.671Z</time>  </trkpt>
  <trkpt lat="47.0474384" lon="12.9194809">  <ele>2121.538</ele>  <time>2018-05-01T10:58:26.488Z</time>  </trkpt>
  <trkpt lat="47.0472667" lon="12.9192885">  <ele>2119.012</ele>  <time>2018-05-01T10:58:29.031Z</time>  </trkpt>
  <trkpt lat="47.0471557" lon="12.9191182">  <ele>2115.173</ele>  <time>2018-05-01T10:58:30.994Z</time>  </trkpt>
  <trkpt lat="47.0471557" lon="12.9191182">  <ele>2110.940</ele>  <time>2018-05-01T10:58:35.994Z</time>  </trkpt>
  <trkpt lat="47.0471557" lon="12.9191182">  <ele>2108.328</ele>  <time>2018-05-01T10:58:42.818Z</time>  </trkpt>
  <trkpt lat="47.0473851" lon="12.9191051">  <ele>2107.643</ele>  <time>2018-05-01T10:58:52.490Z</time>  </trkpt>
  <trkpt lat="47.0475505" lon="12.9191494">  <ele>2106.050</ele>  <time>2018-05-01T10:58:55.341Z</time>  </trkpt>
  <trkpt lat="47.0480910" lon="12.9190080">  <ele>2096.460</ele>  <time>2018-05-01T10:59:03.826Z</time>  </trkpt>
  <trkpt lat="47.0482760" lon="12.9190348">  <ele>2091.800</ele>  <time>2018-05-01T10:59:06.499Z</time>  </trkpt>
  <trkpt lat="47.0484560" lon="12.9188966">  <ele>2086.747</ele>  <time>2018-05-01T10:59:09.752Z</time>  </trkpt>
  <trkpt lat="47.0484450" lon="12.9187105">  <ele>2082.318</ele>  <time>2018-05-01T10:59:12.101Z</time>  </trkpt>
  <trkpt lat="47.0479651" lon="12.9186749">  <ele>2077.802</ele>  <time>2018-05-01T10:59:22.045Z</time>  </trkpt>
  <trkpt lat="47.0478434" lon="12.9186630">  <ele>2075.839</ele>  <time>2018-05-01T10:59:24.961Z</time>  </trkpt>
  <trkpt lat="47.0477189" lon="12.9186377">  <ele>2074.147</ele>  <time>2018-05-01T10:59:27.959Z</time>  </trkpt>
  <trkpt lat="47.0475912" lon="12.9185933">  <ele>2073.326</ele>  <time>2018-05-01T10:59:31.060Z</time>  </trkpt>
  <trkpt lat="47.0474892" lon="12.9184990">  <ele>2072.891</ele>  <time>2018-05-01T10:59:33.996Z</time>  </trkpt>
  <trkpt lat="47.0473949" lon="12.9183735">  <ele>2072.172</ele>  <time>2018-05-01T10:59:37.183Z</time>  </trkpt>
  <trkpt lat="47.0472769" lon="12.9182405">  <ele>2070.687</ele>  <time>2018-05-01T10:59:41.168Z</time>  </trkpt>
  <trkpt lat="47.0472211" lon="12.9181084">  <ele>2068.005</ele>  <time>2018-05-01T10:59:43.789Z</time>  </trkpt>
  <trkpt lat="47.0473196" lon="12.9178932">  <ele>2063.640</ele>  <time>2018-05-01T10:59:47.105Z</time>  </trkpt>
  <trkpt lat="47.0473684" lon="12.9176884">  <ele>2057.801</ele>  <time>2018-05-01T10:59:49.701Z</time>  </trkpt>
  <trkpt lat="47.0473213" lon="12.9174546">  <ele>2051.583</ele>  <time>2018-05-01T10:59:52.707Z</time>  </trkpt>
  <trkpt lat="47.0473695" lon="12.9172675">  <ele>2046.281</ele>  <time>2018-05-01T10:59:55.168Z</time>  </trkpt>
  <trkpt lat="47.0473503" lon="12.9171346">  <ele>2042.867</ele>  <time>2018-05-01T10:59:57.004Z</time>  </trkpt>
  <trkpt lat="47.0472734" lon="12.9170603">  <ele>2038.628</ele>  <time>2018-05-01T10:59:58.993Z</time>  </trkpt>
  <trkpt lat="47.0472734" lon="12.9170603">  <ele>2031.090</ele>  <time>2018-05-01T11:00:03.993Z</time>  </trkpt>
  <trkpt lat="47.0472734" lon="12.9170603">  <ele>2024.802</ele>  <time>2018-05-01T11:00:34.531Z</time>  </trkpt>
  <trkpt lat="47.0471020" lon="12.9170248">  <ele>2024.102</ele>  <time>2018-05-01T11:00:44.898Z</time>  </trkpt>
  <trkpt lat="47.0471288" lon="12.9168647">  <ele>2024.831</ele>  <time>2018-05-01T11:00:48.481Z</time>  </trkpt>
  <trkpt lat="47.0471360" lon="12.9167022">  <ele>2021.965</ele>  <time>2018-05-01T11:00:51.841Z</time>  </trkpt>
  <trkpt lat="47.0471589" lon="12.9165680">  <ele>2016.111</ele>  <time>2018-05-01T11:00:54.763Z</time>  </trkpt>
  <trkpt lat="47.0470649" lon="12.9165047">  <ele>2010.292</ele>  <time>2018-05-01T11:00:58.090Z</time>  </trkpt>
  <trkpt lat="47.0470635" lon="12.9163551">  <ele>2006.102</ele>  <time>2018-05-01T11:01:00.941Z</time>  </trkpt>
  <trkpt lat="47.0470260" lon="12.9162232">  <ele>2003.797</ele>  <time>2018-05-01T11:01:02.933Z</time>  </trkpt>
  <trkpt lat="47.0469514" lon="12.9160622">  <ele>2002.411</ele>  <time>2018-05-01T11:01:05.707Z</time>  </trkpt>
  <trkpt lat="47.0469050" lon="12.9159312">  <ele>2000.512</ele>  <time>2018-05-01T11:01:07.999Z</time>  </trkpt>
  <trkpt lat="47.0469050" lon="12.9159312">  <ele>1997.999</ele>  <time>2018-05-01T11:01:13.999Z</time>  </trkpt>
  <trkpt lat="47.0469050" lon="12.9159312">  <ele>1996.065</ele>  <time>2018-05-01T11:01:37.273Z</time>  </trkpt>
  <trkpt lat="47.0471041" lon="12.9158159">  <ele>1995.322</ele>  <time>2018-05-01T11:01:47.312Z</time>  </trkpt>
  <trkpt lat="47.0472388" lon="12.9155757">  <ele>1993.056</ele>  <time>2018-05-01T11:01:51.249Z</time>  </trkpt>
  <trkpt lat="47.0474114" lon="12.9154449">  <ele>1986.813</ele>  <time>2018-05-01T11:01:54.834Z</time>  </trkpt>
  <trkpt lat="47.0475982" lon="12.9152437">  <ele>1978.467</ele>  <time>2018-05-01T11:01:59.522Z</time>  </trkpt>
  <trkpt lat="47.0477290" lon="12.9150856">  <ele>1971.205</ele>  <time>2018-05-01T11:02:03.265Z</time>  </trkpt>
  <trkpt lat="47.0478096" lon="12.9148797">  <ele>1966.216</ele>  <time>2018-05-01T11:02:07.015Z</time>  </trkpt>
  <trkpt lat="47.0478963" lon="12.9146735">  <ele>1963.402</ele>  <time>2018-05-01T11:02:11.546Z</time>  </trkpt>
  <trkpt lat="47.0479950" lon="12.9145077">  <ele>1961.557</ele>  <time>2018-05-01T11:02:17.462Z</time>  </trkpt>
  <trkpt lat="47.0481180" lon="12.9143419">  <ele>1959.718</ele>  <time>2018-05-01T11:02:24.742Z</time>  </trkpt>
  <trkpt lat="47.0481467" lon="12.9141694">  <ele>1957.651</ele>  <time>2018-05-01T11:02:30.424Z</time>  </trkpt>
  <trkpt lat="47.0480511" lon="12.9141432">  <ele>1955.349</ele>  <time>2018-05-01T11:02:34.988Z</time>  </trkpt>
  <trkpt lat="47.0479496" lon="12.9141246">  <ele>1953.053</ele>  <time>2018-05-01T11:02:39.789Z</time>  </trkpt>
  <trkpt lat="47.0478595" lon="12.9141307">  <ele>1951.236</ele>  <time>2018-05-01T11:02:44.024Z</time>  </trkpt>
  <trkpt lat="47.0473146" lon="12.9143116">  <ele>1948.499</ele>  <time>2018-05-01T11:03:10.254Z</time>  </trkpt>
  <trkpt lat="47.0471975" lon="12.9142734">  <ele>1947.959</ele>  <time>2018-05-01T11:03:15.885Z</time>  </trkpt>
  <trkpt lat="47.0471054" lon="12.9142554">  <ele>1947.354</ele>  <time>2018-05-01T11:03:20.247Z</time>  </trkpt>
  <trkpt lat="47.0470153" lon="12.9141833">  <ele>1946.544</ele>  <time>2018-05-01T11:03:25.064Z</time>  </trkpt>
  <trkpt lat="47.0468797" lon="12.9141006">  <ele>1945.613</ele>  <time>2018-05-01T11:03:31.961Z</time>  </trkpt>
  <trkpt lat="47.0467370" lon="12.9140152">  <ele>1944.263</ele>  <time>2018-05-01T11:03:39.204Z</time>  </trkpt>
  <trkpt lat="47.0465085" lon="12.9138206">  <ele>1942.343</ele>  <time>2018-05-01T11:03:50.462Z</time>  </trkpt>
  <trkpt lat="47.0463481" lon="12.9136889">  <ele>1940.354</ele>  <time>2018-05-01T11:03:56.826Z</time>  </trkpt>
  <trkpt lat="47.0461667" lon="12.9129822">  <ele>1937.728</ele>  <time>2018-05-01T11:04:10.573Z</time>  </trkpt>
  <trkpt lat="47.0461685" lon="12.9121800">  <ele>1935.256</ele>  <time>2018-05-01T11:04:30.074Z</time>  </trkpt>
  <trkpt lat="47.0462506" lon="12.9121130">  <ele>1930.681</ele>  <time>2018-05-01T11:04:33.937Z</time>  </trkpt>
  <trkpt lat="47.0463347" lon="12.9121735">  <ele>1923.959</ele>  <time>2018-05-01T11:04:37.789Z</time>  </trkpt>
  <trkpt lat="47.0464176" lon="12.9122421">  <ele>1917.704</ele>  <time>2018-05-01T11:04:41.704Z</time>  </trkpt>
  <trkpt lat="47.0468627" lon="12.9119474">  <ele>1912.156</ele>  <time>2018-05-01T11:05:16.995Z</time>  </trkpt>
  <trkpt lat="47.0468627" lon="12.9119474">  <ele>1910.133</ele>  <time>2018-05-01T11:05:16.996Z</time>  </trkpt>
  <trkpt lat="47.0468627" lon="12.9119474">  <ele>1905.708</ele>  <time>2018-05-01T11:05:37.275Z</time>  </trkpt>
  <trkpt lat="47.0468491" lon="12.9117341">  <ele>1901.190</ele>  <time>2018-05-01T11:05:51.529Z</time>  </trkpt>
  <trkpt lat="47.0469060" lon="12.9114702">  <ele>1898.615</ele>  <time>2018-05-01T11:06:02.841Z</time>  </trkpt>
  <trkpt lat="47.0465582" lon="12.9108568">  <ele>1896.057</ele>  <time>2018-05-01T11:06:46.038Z</time>  </trkpt>
  <trkpt lat="47.0461789" lon="12.9104771">  <ele>1893.274</ele>  <time>2018-05-01T11:07:23.469Z</time>  </trkpt>
  <trkpt lat="47.0460974" lon="12.9103596">  <ele>1887.130</ele>  <time>2018-05-01T11:07:33.055Z</time>  </trkpt>
  <trkpt lat="47.0461120" lon="12.9096935">  <ele>1875.931</ele>  <time>2018-05-01T11:08:12.999Z</time>  </trkpt>
  <trkpt lat="47.0461120" lon="12.9096935">  <ele>1874.131</ele>  <time>2018-05-01T11:08:14.999Z</time>  </trkpt>
  <trkpt lat="47.0461120" lon="12.9096935">  <ele>1873.306</ele>  <time>2018-05-01T11:08:15.802Z</time>  </trkpt>
  <trkpt lat="47.0459796" lon="12.9095450">  <ele>1872.610</ele>  <time>2018-05-01T11:08:49.053Z</time>  </trkpt>
  <trkpt lat="47.0459598" lon="12.9094153">  <ele>1870.958</ele>  <time>2018-05-01T11:08:55.658Z</time>  </trkpt>
  <trkpt lat="47.0458490" lon="12.9093960">  <ele>1867.846</ele>  <time>2018-05-01T11:09:03.797Z</time>  </trkpt>
  <trkpt lat="47.0457344" lon="12.9086509">  <ele>1863.492</ele>  <time>2018-05-01T11:09:41.398Z</time>  </trkpt>
  <trkpt lat="47.0456776" lon="12.9079906">  <ele>1861.343</ele>  <time>2018-05-01T11:10:13.904Z</time>  </trkpt>
  <trkpt lat="47.0452587" lon="12.9077150">  <ele>1849.770</ele>  <time>2018-05-01T11:10:48.594Z</time>  </trkpt>
  <trkpt lat="47.0450137" lon="12.9070382">  <ele>1842.194</ele>  <time>2018-05-01T11:11:18.556Z</time>  </trkpt>
  <trkpt lat="47.0449922" lon="12.9069080">  <ele>1833.563</ele>  <time>2018-05-01T11:11:23.204Z</time>  </trkpt>
  <trkpt lat="47.0449121" lon="12.9068399">  <ele>1825.486</ele>  <time>2018-05-01T11:11:27.917Z</time>  </trkpt>
  <trkpt lat="47.0448166" lon="12.9068214">  <ele>1820.583</ele>  <time>2018-05-01T11:11:32.822Z</time>  </trkpt>
  <trkpt lat="47.0446522" lon="12.9061462">  <ele>1820.168</ele>  <time>2018-05-01T11:12:13.996Z</time>  </trkpt>
  <trkpt lat="47.0443575" lon="12.9055835">  <ele>1819.960</ele>  <time>2018-05-01T11:12:37.224Z</time>  </trkpt>
  <trkpt lat="47.0442891" lon="12.9054896">  <ele>1819.223</ele>  <time>2018-05-01T11:12:39.563Z</time>  </trkpt>
  <trkpt lat="47.0442393" lon="12.9053654">  <ele>1818.763</ele>  <time>2018-05-01T11:12:41.995Z</time>  </trkpt>
  <trkpt lat="47.0442393" lon="12.9053654">  <ele>1818.413</ele>  <time>2018-05-01T11:12:44.995Z</time>  </trkpt>
  <trkpt lat="47.0442393" lon="12.9053654">  <ele>1817.790</ele>  <time>2018-05-01T11:12:50.267Z</time>  </trkpt>
  <trkpt lat="47.0441537" lon="12.9052883">  <ele>1816.482</ele>  <time>2018-05-01T11:13:07.292Z</time>  </trkpt>
  <trkpt lat="47.0441070" lon="12.9046320">  <ele>1815.948</ele>  <time>2018-05-01T11:13:36.283Z</time>  </trkpt>
  <trkpt lat="47.0443091" lon="12.9040424">  <ele>1814.725</ele>  <time>2018-05-01T11:14:11.994Z</time>  </trkpt>
  <trkpt lat="47.0443091" lon="12.9040424">  <ele>1811.815</ele>  <time>2018-05-01T11:14:11.995Z</time>  </trkpt>
  <trkpt lat="47.0443091" lon="12.9040424">  <ele>1808.031</ele>  <time>2018-05-01T11:14:12.095Z</time>  </trkpt>
  <trkpt lat="47.0443043" lon="12.9038335">  <ele>1806.700</ele>  <time>2018-05-01T11:14:23.079Z</time>  </trkpt>
  <trkpt lat="47.0442479" lon="12.9031644">  <ele>1807.591</ele>  <time>2018-05-01T11:14:48.750Z</time>  </trkpt>
  <trkpt lat="47.0442590" lon="12.9030281">  <ele>1806.428</ele>  <time>2018-05-01T11:14:54.725Z</time>  </trkpt>
  <trkpt lat="47.0443111" lon="12.9029080">  <ele>1805.733</ele>  <time>2018-05-01T11:15:00.797Z</time>  </trkpt>
  <trkpt lat="47.0443233" lon="12.9027602">  <ele>1805.364</ele>  <time>2018-05-01T11:15:07.715Z</time>  </trkpt>
  <trkpt lat="47.0443559" lon="12.9026330">  <ele>1804.572</ele>  <time>2018-05-01T11:15:14.999Z</time>  </trkpt>
  <trkpt lat="47.0443559" lon="12.9026330">  <ele>1803.294</ele>  <time>2018-05-01T11:15:29.999Z</time>  </trkpt>
  <trkpt lat="47.0443559" lon="12.9026330">  <ele>1802.220</ele>  <time>2018-05-01T11:20:11.997Z</time>  </trkpt>
  <trkpt lat="47.0443457" lon="12.9024840">  <ele>1801.637</ele>  <time>2018-05-01T11:20:27.878Z</time>  </trkpt>
  <trkpt lat="47.0443166" lon="12.9023445">  <ele>1800.886</ele>  <time>2018-05-01T11:20:36.525Z</time>  </trkpt>
  <trkpt lat="47.0442729" lon="12.9022262">  <ele>1799.559</ele>  <time>2018-05-01T11:20:42.737Z</time>  </trkpt>
  <trkpt lat="47.0442028" lon="12.9021329">  <ele>1798.202</ele>  <time>2018-05-01T11:20:49.899Z</time>  </trkpt>
  <trkpt lat="47.0442025" lon="12.9019890">  <ele>1797.358</ele>  <time>2018-05-01T11:20:58.709Z</time>  </trkpt>
  <trkpt lat="47.0441672" lon="12.9018563">  <ele>1796.727</ele>  <time>2018-05-01T11:21:08.107Z</time>  </trkpt>
  <trkpt lat="47.0441805" lon="12.9017199">  <ele>1795.628</ele>  <time>2018-05-01T11:21:16.121Z</time>  </trkpt>
  <trkpt lat="47.0441459" lon="12.9015913">  <ele>1793.491</ele>  <time>2018-05-01T11:21:23.140Z</time>  </trkpt>
  <trkpt lat="47.0440943" lon="12.9014803">  <ele>1790.808</ele>  <time>2018-05-01T11:21:28.989Z</time>  </trkpt>
  <trkpt lat="47.0440174" lon="12.9014002">  <ele>1788.752</ele>  <time>2018-05-01T11:21:34.363Z</time>  </trkpt>
  <trkpt lat="47.0439639" lon="12.9012685">  <ele>1787.797</ele>  <time>2018-05-01T11:21:40.041Z</time>  </trkpt>
  <trkpt lat="47.0439009" lon="12.9011706">  <ele>1787.597</ele>  <time>2018-05-01T11:21:45.527Z</time>  </trkpt>
  <trkpt lat="47.0438651" lon="12.9010383">  <ele>1787.848</ele>  <time>2018-05-01T11:21:52.543Z</time>  </trkpt>
  <trkpt lat="47.0438633" lon="12.9009038">  <ele>1788.297</ele>  <time>2018-05-01T11:21:59.733Z</time>  </trkpt>
  <trkpt lat="47.0438886" lon="12.9007720">  <ele>1787.558</ele>  <time>2018-05-01T11:22:07.161Z</time>  </trkpt>
  <trkpt lat="47.0439391" lon="12.9006541">  <ele>1785.864</ele>  <time>2018-05-01T11:22:15.433Z</time>  </trkpt>
  <trkpt lat="47.0439412" lon="12.9005153">  <ele>1785.440</ele>  <time>2018-05-01T11:22:25.069Z</time>  </trkpt>
  <trkpt lat="47.0439108" lon="12.9003830">  <ele>1785.100</ele>  <time>2018-05-01T11:22:36.102Z</time>  </trkpt>
  <trkpt lat="47.0439058" lon="12.9002508">  <ele>1784.808</ele>  <time>2018-05-01T11:22:46.730Z</time>  </trkpt>
  <trkpt lat="47.0439569" lon="12.9001263">  <ele>1784.474</ele>  <time>2018-05-01T11:22:56.028Z</time>  </trkpt>
  <trkpt lat="47.0439895" lon="12.8999949">  <ele>1783.680</ele>  <time>2018-05-01T11:23:03.490Z</time>  </trkpt>
  <trkpt lat="47.0439933" lon="12.8998472">  <ele>1782.094</ele>  <time>2018-05-01T11:23:10.477Z</time>  </trkpt>
  <trkpt lat="47.0439539" lon="12.8997232">  <ele>1780.061</ele>  <time>2018-05-01T11:23:17.383Z</time>  </trkpt>
  <trkpt lat="47.0439760" lon="12.8995949">  <ele>1778.391</ele>  <time>2018-05-01T11:23:24.655Z</time>  </trkpt>
  <trkpt lat="47.0440037" lon="12.8994632">  <ele>1777.583</ele>  <time>2018-05-01T11:23:31.954Z</time>  </trkpt>
  <trkpt lat="47.0440110" lon="12.8993317">  <ele>1777.489</ele>  <time>2018-05-01T11:23:38.342Z</time>  </trkpt>
  <trkpt lat="47.0440709" lon="12.8992210">  <ele>1777.712</ele>  <time>2018-05-01T11:23:44.662Z</time>  </trkpt>
  <trkpt lat="47.0441517" lon="12.8991063">  <ele>1777.997</ele>  <time>2018-05-01T11:23:51.230Z</time>  </trkpt>
  <trkpt lat="47.0441752" lon="12.8989619">  <ele>1778.208</ele>  <time>2018-05-01T11:23:57.913Z</time>  </trkpt>
  <trkpt lat="47.0441378" lon="12.8988313">  <ele>1777.846</ele>  <time>2018-05-01T11:24:05.009Z</time>  </trkpt>
  <trkpt lat="47.0441398" lon="12.8986992">  <ele>1776.555</ele>  <time>2018-05-01T11:24:13.648Z</time>  </trkpt>
  <trkpt lat="47.0441544" lon="12.8985486">  <ele>1774.860</ele>  <time>2018-05-01T11:24:22.211Z</time>  </trkpt>
  <trkpt lat="47.0441264" lon="12.8984195">  <ele>1773.267</ele>  <time>2018-05-01T11:24:28.474Z</time>  </trkpt>
  <trkpt lat="47.0440948" lon="12.8982935">  <ele>1770.850</ele>  <time>2018-05-01T11:24:34.638Z</time>  </trkpt>
  <trkpt lat="47.0440461" lon="12.8981770">  <ele>1769.204</ele>  <time>2018-05-01T11:24:41.702Z</time>  </trkpt>
  <trkpt lat="47.0441025" lon="12.8980652">  <ele>1768.387</ele>  <time>2018-05-01T11:24:50.927Z</time>  </trkpt>
  <trkpt lat="47.0440404" lon="12.8979540">  <ele>1767.728</ele>  <time>2018-05-01T11:25:02.227Z</time>  </trkpt>
  <trkpt lat="47.0439483" lon="12.8979614">  <ele>1767.166</ele>  <time>2018-05-01T11:25:11.698Z</time>  </trkpt>
  <trkpt lat="47.0438944" lon="12.8978411">  <ele>1767.078</ele>  <time>2018-05-01T11:25:22.923Z</time>  </trkpt>
  <trkpt lat="47.0438286" lon="12.8977302">  <ele>1768.034</ele>  <time>2018-05-01T11:25:35.971Z</time>  </trkpt>
  <trkpt lat="47.0437447" lon="12.8976644">  <ele>1769.651</ele>  <time>2018-05-01T11:25:45.016Z</time>  </trkpt>
  <trkpt lat="47.0436942" lon="12.8975399">  <ele>1771.013</ele>  <time>2018-05-01T11:25:52.645Z</time>  </trkpt>
  <trkpt lat="47.0436331" lon="12.8974408">  <ele>1771.671</ele>  <time>2018-05-01T11:25:59.321Z</time>  </trkpt>
  <trkpt lat="47.0435504" lon="12.8973643">  <ele>1771.790</ele>  <time>2018-05-01T11:26:06.792Z</time>  </trkpt>
  <trkpt lat="47.0434684" lon="12.8973102">  <ele>1771.831</ele>  <time>2018-05-01T11:26:14.753Z</time>  </trkpt>
  <trkpt lat="47.0433828" lon="12.8972554">  <ele>1772.389</ele>  <time>2018-05-01T11:26:24.241Z</time>  </trkpt>
  <trkpt lat="47.0433081" lon="12.8971497">  <ele>1774.123</ele>  <time>2018-05-01T11:26:34.421Z</time>  </trkpt>
  <trkpt lat="47.0432435" lon="12.8970539">  <ele>1776.740</ele>  <time>2018-05-01T11:26:41.995Z</time>  </trkpt>
  <trkpt lat="47.0432435" lon="12.8970539">  <ele>1778.628</ele>  <time>2018-05-01T11:26:50.995Z</time>  </trkpt>
  <trkpt lat="47.0432435" lon="12.8970539">  <ele>1778.767</ele>  <time>2018-05-01T11:26:53.332Z</time>  </trkpt>
  <trkpt lat="47.0432183" lon="12.8967649">  <ele>1777.555</ele>  <time>2018-05-01T11:27:25.494Z</time>  </trkpt>
  <trkpt lat="47.0430049" lon="12.8961639">  <ele>1774.857</ele>  <time>2018-05-01T11:28:25.823Z</time>  </trkpt>
  <trkpt lat="47.0429994" lon="12.8960260">  <ele>1771.340</ele>  <time>2018-05-01T11:28:38.112Z</time>  </trkpt>
  <trkpt lat="47.0429748" lon="12.8958962">  <ele>1763.065</ele>  <time>2018-05-01T11:28:51.865Z</time>  </trkpt>
  <trkpt lat="47.0428974" lon="12.8958103">  <ele>1753.251</ele>  <time>2018-05-01T11:29:04.104Z</time>  </trkpt>
  <trkpt lat="47.0428412" lon="12.8956986">  <ele>1746.732</ele>  <time>2018-05-01T11:29:16.232Z</time>  </trkpt>
  <trkpt lat="47.0427798" lon="12.8955998">  <ele>1744.270</ele>  <time>2018-05-01T11:29:31.041Z</time>  </trkpt>
  <trkpt lat="47.0427085" lon="12.8954909">  <ele>1744.133</ele>  <time>2018-05-01T11:29:49.567Z</time>  </trkpt>
  <trkpt lat="47.0426644" lon="12.8953745">  <ele>1744.508</ele>  <time>2018-05-01T11:30:01.993Z</time>  </trkpt>
  <trkpt lat="47.0427155" lon="12.8952632">  <ele>1744.453</ele>  <time>2018-05-01T11:30:10.989Z</time>  </trkpt>
  <trkpt lat="47.0426549" lon="12.8951532">  <ele>1743.432</ele>  <time>2018-05-01T11:30:21.147Z</time>  </trkpt>
  <trkpt lat="47.0425663" lon="12.8950457">  <ele>1742.310</ele>  <time>2018-05-01T11:30:34.635Z</time>  </trkpt>
  <trkpt lat="47.0424722" lon="12.8949798">  <ele>1741.948</ele>  <time>2018-05-01T11:30:45.829Z</time>  </trkpt>
  <trkpt lat="47.0424266" lon="12.8948644">  <ele>1741.948</ele>  <time>2018-05-01T11:30:53.468Z</time>  </trkpt>
  <trkpt lat="47.0424862" lon="12.8947340">  <ele>1741.981</ele>  <time>2018-05-01T11:31:01.231Z</time>  </trkpt>
  <trkpt lat="47.0424789" lon="12.8945970">  <ele>1740.853</ele>  <time>2018-05-01T11:31:08.153Z</time>  </trkpt>
  <trkpt lat="47.0424413" lon="12.8944661">  <ele>1738.396</ele>  <time>2018-05-01T11:31:15.998Z</time>  </trkpt>
  <trkpt lat="47.0424413" lon="12.8944661">  <ele>1736.043</ele>  <time>2018-05-01T11:31:17.998Z</time>  </trkpt>
  <trkpt lat="47.0424413" lon="12.8944661">  <ele>1734.665</ele>  <time>2018-05-01T11:31:18.098Z</time>  </trkpt>
  <trkpt lat="47.0425343" lon="12.8943974">  <ele>1733.886</ele>  <time>2018-05-01T11:31:34.494Z</time>  </trkpt>
  <trkpt lat="47.0424676" lon="12.8943052">  <ele>1733.190</ele>  <time>2018-05-01T11:31:43.051Z</time>  </trkpt>
  <trkpt lat="47.0424095" lon="12.8941990">  <ele>1731.163</ele>  <time>2018-05-01T11:31:51.164Z</time>  </trkpt>
  <trkpt lat="47.0424916" lon="12.8941219">  <ele>1728.467</ele>  <time>2018-05-01T11:31:59.997Z</time>  </trkpt>
  <trkpt lat="47.0424916" lon="12.8941219">  <ele>1726.332</ele>  <time>2018-05-01T11:32:01.997Z</time>  </trkpt>
  <trkpt lat="47.0424916" lon="12.8941219">  <ele>1725.088</ele>  <time>2018-05-01T11:32:02.977Z</time>  </trkpt>
  <trkpt lat="47.0426162" lon="12.8939671">  <ele>1724.486</ele>  <time>2018-05-01T11:32:21.072Z</time>  </trkpt>
  <trkpt lat="47.0425591" lon="12.8938646">  <ele>1724.067</ele>  <time>2018-05-01T11:32:28.514Z</time>  </trkpt>
  <trkpt lat="47.0426445" lon="12.8938117">  <ele>1723.440</ele>  <time>2018-05-01T11:32:43.009Z</time>  </trkpt>
  <trkpt lat="47.0426996" lon="12.8936977">  <ele>1722.335</ele>  <time>2018-05-01T11:32:56.660Z</time>  </trkpt>
  <trkpt lat="47.0426277" lon="12.8936107">  <ele>1721.006</ele>  <time>2018-05-01T11:33:04.996Z</time>  </trkpt>
  <trkpt lat="47.0426277" lon="12.8936107">  <ele>1720.043</ele>  <time>2018-05-01T11:33:08.996Z</time>  </trkpt>
  <trkpt lat="47.0426277" lon="12.8936107">  <ele>1719.576</ele>  <time>2018-05-01T11:33:09.096Z</time>  </trkpt>
  <trkpt lat="47.0427005" lon="12.8935329">  <ele>1718.574</ele>  <time>2018-05-01T11:33:33.169Z</time>  </trkpt>
  <trkpt lat="47.0426868" lon="12.8933887">  <ele>1717.979</ele>  <time>2018-05-01T11:33:42.077Z</time>  </trkpt>
  <trkpt lat="47.0426693" lon="12.8932426">  <ele>1717.166</ele>  <time>2018-05-01T11:33:51.350Z</time>  </trkpt>
  <trkpt lat="47.0426389" lon="12.8931164">  <ele>1716.142</ele>  <time>2018-05-01T11:34:00.687Z</time>  </trkpt>
  <trkpt lat="47.0425944" lon="12.8929949">  <ele>1715.377</ele>  <time>2018-05-01T11:34:13.624Z</time>  </trkpt>
  <trkpt lat="47.0425188" lon="12.8929199">  <ele>1714.969</ele>  <time>2018-05-01T11:34:22.492Z</time>  </trkpt>
  <trkpt lat="47.0424886" lon="12.8927788">  <ele>1714.603</ele>  <time>2018-05-01T11:34:30.982Z</time>  </trkpt>
  <trkpt lat="47.0424519" lon="12.8926451">  <ele>1714.207</ele>  <time>2018-05-01T11:34:37.945Z</time>  </trkpt>
  <trkpt lat="47.0424114" lon="12.8925177">  <ele>1713.876</ele>  <time>2018-05-01T11:34:43.994Z</time>  </trkpt>
  <trkpt lat="47.0424114" lon="12.8925177">  <ele>1713.412</ele>  <time>2018-05-01T11:34:50.994Z</time>  </trkpt>
  <trkpt lat="47.0424114" lon="12.8925177">  <ele>1712.637</ele>  <time>2018-05-01T11:35:13.994Z</time>  </trkpt>
  <trkpt lat="47.0424114" lon="12.8925177">  <ele>1711.842</ele>  <time>2018-05-01T11:35:14.094Z</time>  </trkpt>
  <trkpt lat="47.0423584" lon="12.8923432">  <ele>1711.295</ele>  <time>2018-05-01T11:35:29.213Z</time>  </trkpt>
  <trkpt lat="47.0423385" lon="12.8922038">  <ele>1710.874</ele>  <time>2018-05-01T11:35:36.900Z</time>  </trkpt>
  <trkpt lat="47.0423273" lon="12.8920572">  <ele>1710.441</ele>  <time>2018-05-01T11:35:44.570Z</time>  </trkpt>
  <trkpt lat="47.0423326" lon="12.8919185">  <ele>1709.651</ele>  <time>2018-05-01T11:35:53.759Z</time>  </trkpt>
  <trkpt lat="47.0423040" lon="12.8917843">  <ele>1708.265</ele>  <time>2018-05-01T11:36:04.228Z</time>  </trkpt>
  <trkpt lat="47.0423370" lon="12.8916524">  <ele>1706.736</ele>  <time>2018-05-01T11:36:13.995Z</time>  </trkpt>
  <trkpt lat="47.0423274" lon="12.8915162">  <ele>1705.527</ele>  <time>2018-05-01T11:36:22.612Z</time>  </trkpt>
  <trkpt lat="47.0422773" lon="12.8913954">  <ele>1704.678</ele>  <time>2018-05-01T11:36:32.737Z</time>  </trkpt>
  <trkpt lat="47.0422733" lon="12.8912518">  <ele>1704.280</ele>  <time>2018-05-01T11:36:45.149Z</time>  </trkpt>
  <trkpt lat="47.0422257" lon="12.8911339">  <ele>1704.521</ele>  <time>2018-05-01T11:36:57.318Z</time>  </trkpt>
  <trkpt lat="47.0421899" lon="12.8910069">  <ele>1705.249</ele>  <time>2018-05-01T11:37:07.671Z</time>  </trkpt>
  <trkpt lat="47.0421588" lon="12.8908689">  <ele>1705.595</ele>  <time>2018-05-01T11:37:16.607Z</time>  </trkpt>
  <trkpt lat="47.0420923" lon="12.8907705">  <ele>1704.839</ele>  <time>2018-05-01T11:37:23.684Z</time>  </trkpt>
  <trkpt lat="47.0420140" lon="12.8906975">  <ele>1703.394</ele>  <time>2018-05-01T11:37:30.251Z</time>  </trkpt>
  <trkpt lat="47.0419625" lon="12.8905883">  <ele>1702.123</ele>  <time>2018-05-01T11:37:36.999Z</time>  </trkpt>
  <trkpt lat="47.0419625" lon="12.8905883">  <ele>1701.260</ele>  <time>2018-05-01T11:37:49.998Z</time>  </trkpt>
  </trkseg>
  </trk>
  <extensions>  <fpdata xmlns="http://www.motionx.com/GPX-Extensions/1/1" sfv="10" origin="MotionXGPSFull 24.2 Build 5063R64">  <bin enc="base64">  RgIAAAACAAAA/tRDnfm51kEBAAAAPC6XZhS61kEAAF9qCW7XQH0GAAA0lBcAQGW4pHvA  mkBqbg8gCpWaQAAAAAAKAAAAU29ubmJsaWNrABQAAAAxIE1heSAyMDE4ICA2OjAwIGFt  AAAAAABaLpdmFLrWQRvX5ssvutZBJuRjAYouSzwQGlBALAAAAAIAAABmGtBO4ccpQBYY  TKJlhUdAQGW4pHvAmkAAAAAAAAAkQAAAAAAAACBAAAAAAABQjkAAAAAAAAAAAAAAAAD1  KFyPwh1vQKREGEBM2ppAAQAAACMLhS3O8MC/AQAAAAEAAAD16oKf9njYP3mPRVvz6du/  AQAAAAEAAAABAAAAQGW4pHvAmkAAAAAAAAAAAAEAAAAOAAAAU29ubmJsaWNrLmdweAAB  AAAA0QToyy+61kEKAAAAAQAAAAoAAABTb25uYmxpY2sAAAAAAAAAAAAAAAAAAAAAANZJ  AADj7n9jFLrWQQAAAAAAAAAAAAAAAAAAAAD/JUS8AgAAAAAAAAAAAAAAAQAAACcAAAAy  NC4yIEJ1aWxkIDUwNjNSNjQsIE1YQUUgOC4xIGIuIDYyNlI2NAAAAAAAWGsAAAEAAAAB  BQAAAHXm51qZUehaBLLXQ535udZBstdDnfm51kEAAAAAAPAmPwAAAAADApk3xgq61kEC  mTfGCrrWQQAADcTzKNFAAAAAAAEK1UOd+bnWQUirgUILutZBAAA+1j2l0UAAAAAABJQZ  BMUOutZBlBkExQ661kEAgFCUy8zRQAAAAAABllt2nQ661kG370FmFLrWQQAAX2oJbtdA  AAAAAAAAAAA=  </bin>  </fpdata>  </extensions>  </gpx>